PWSweather.com
Personal Weather Stations
Station Observations
HVALPSUND
Hvalpsund, FarsoeDK 9640

HvalpsundFarsoeDK 9640

Lat: 56.705311, Lon: 9.203638

Elevation: 5

Station Type: Vantage Pro2

http://hvalpsundvejr.dk

High Low Average
Temperature 62.0°F16.7°C 52.5°F11.4°C 57.3°F14.1°C
Dew Point 54.6°F12.6°C 48.8°F9.3°C 51.8°F11.0°C
Winds 17.1 mph 27.5 kmh Calm Calm 8.0 mph SW12.9 kmh SW
Wind Gusts 22.0 mph35.4 kmh -- 10.0 mph16.1 kmh
Humidity 93% 67% 82%
Pressure 29.44 in997.0 mb 29.09 in985.1 mb -
Precipitation 0.00 in0.0 mm - -
Hour Temp Dew Point Humidity Winds Wind Gusts Pressure Precip Precip Rate Daily Precip Total
12:00 AM 54.4°F12.4°C 50.0°F10.0°C 85% 9.5 mph N15.3 kmh N 12.0 mph19.3 kmh 29.09 in985.1 mb 0.00 in0.0 mm 0.00 in0.0 mm 0.00 in0.0 mm
12:01 AM 54.3°F12.4°C 50.2°F10.1°C 86% 8.8 mph N14.2 kmh N 11.0 mph17.7 kmh 29.09 in985.1 mb 0.00 in0.0 mm 0.00 in0.0 mm 0.00 in0.0 mm
12:02 AM 54.3°F12.4°C 50.2°F10.1°C 86% 9.1 mph N14.6 kmh N 11.0 mph17.7 kmh 29.09 in985.1 mb 0.00 in0.0 mm 0.00 in0.0 mm 0.00 in0.0 mm
12:03 AM 54.3°F12.4°C 49.9°F9.9°C 85% 9.3 mph N15.0 kmh N 11.0 mph17.7 kmh 29.09 in985.1 mb 0.00 in0.0 mm 0.00 in0.0 mm 0.00 in0.0 mm
12:04 AM 54.2°F12.3°C 50.1°F10.1°C 86% 9.0 mph N14.5 kmh N 11.0 mph17.7 kmh 29.09 in985.1 mb 0.00 in0.0 mm 0.00 in0.0 mm 0.00 in0.0 mm
12:05 AM 54.3°F12.4°C 50.2°F10.1°C 86% 10.0 mph N16.1 kmh N 11.0 mph17.7 kmh 29.09 in985.1 mb 0.00 in0.0 mm 0.00 in0.0 mm 0.00 in0.0 mm
12:06 AM 54.3°F12.4°C 49.9°F9.9°C 85% 10.7 mph N17.2 kmh N 12.0 mph19.3 kmh 29.09 in985.1 mb 0.00 in0.0 mm 0.00 in0.0 mm 0.00 in0.0 mm
12:07 AM 54.3°F12.4°C 50.2°F10.1°C 86% 9.6 mph N15.4 kmh N 12.0 mph19.3 kmh 29.09 in985.1 mb 0.00 in0.0 mm 0.00 in0.0 mm 0.00 in0.0 mm
12:08 AM 54.3°F12.4°C 50.2°F10.1°C 86% 9.8 mph N15.8 kmh N 11.0 mph17.7 kmh 29.09 in985.1 mb 0.00 in0.0 mm 0.00 in0.0 mm 0.00 in0.0 mm
12:09 AM 54.3°F12.4°C 50.2°F10.1°C 86% 9.9 mph N15.9 kmh N 11.0 mph17.7 kmh 29.09 in985.1 mb 0.00 in0.0 mm 0.00 in0.0 mm 0.00 in0.0 mm
12:10 AM 54.3°F12.4°C 49.9°F9.9°C 85% 9.6 mph N15.4 kmh N 11.0 mph17.7 kmh 29.09 in985.1 mb 0.00 in0.0 mm 0.00 in0.0 mm 0.00 in0.0 mm
12:11 AM 54.2°F12.3°C 49.8°F9.9°C 85% 10.1 mph N16.3 kmh N 12.0 mph19.3 kmh 29.09 in985.1 mb 0.00 in0.0 mm 0.00 in0.0 mm 0.00 in0.0 mm
12:12 AM 54.2°F12.3°C 50.1°F10.1°C 86% 9.1 mph N14.6 kmh N 12.0 mph19.3 kmh 29.09 in985.1 mb 0.00 in0.0 mm 0.00 in0.0 mm 0.00 in0.0 mm
12:13 AM 54.3°F12.4°C 49.9°F9.9°C 85% 9.7 mph N15.6 kmh N 11.0 mph17.7 kmh 29.09 in985.1 mb 0.00 in0.0 mm 0.00 in0.0 mm 0.00 in0.0 mm
12:14 AM 54.3°F12.4°C 49.9°F9.9°C 85% 10.2 mph N16.4 kmh N 12.0 mph19.3 kmh 29.09 in985.1 mb 0.00 in0.0 mm 0.00 in0.0 mm 0.00 in0.0 mm
12:15 AM 54.2°F12.3°C 49.8°F9.9°C 85% 9.9 mph N15.9 kmh N 12.0 mph19.3 kmh 29.09 in985.1 mb 0.00 in0.0 mm 0.00 in0.0 mm 0.00 in0.0 mm
12:16 AM 54.2°F12.3°C 49.8°F9.9°C 85% 10.0 mph N16.1 kmh N 12.0 mph19.3 kmh 29.09 in985.1 mb 0.00 in0.0 mm 0.00 in0.0 mm 0.00 in0.0 mm
12:17 AM 54.2°F12.3°C 49.8°F9.9°C 85% 10.3 mph N16.6 kmh N 12.0 mph19.3 kmh 29.09 in985.1 mb 0.00 in0.0 mm 0.00 in0.0 mm 0.00 in0.0 mm
12:18 AM 54.2°F12.3°C 49.8°F9.9°C 85% 10.6 mph N17.1 kmh N 12.0 mph19.3 kmh 29.09 in985.1 mb 0.00 in0.0 mm 0.00 in0.0 mm 0.00 in0.0 mm
12:19 AM 54.2°F12.3°C 50.1°F10.1°C 86% 10.4 mph N16.7 kmh N 12.0 mph19.3 kmh 29.09 in985.1 mb 0.00 in0.0 mm 0.00 in0.0 mm 0.00 in0.0 mm
12:20 AM 54.2°F12.3°C 49.8°F9.9°C 85% 10.6 mph N17.1 kmh N 12.0 mph19.3 kmh 29.09 in985.1 mb 0.00 in0.0 mm 0.00 in0.0 mm 0.00 in0.0 mm
12:21 AM 54.2°F12.3°C 49.8°F9.9°C 85% 10.3 mph N16.6 kmh N 13.0 mph20.9 kmh 29.09 in985.1 mb 0.00 in0.0 mm 0.00 in0.0 mm 0.00 in0.0 mm
12:22 AM 54.2°F12.3°C 49.8°F9.9°C 85% 11.0 mph N17.7 kmh N 13.0 mph20.9 kmh 29.09 in985.1 mb 0.00 in0.0 mm 0.00 in0.0 mm 0.00 in0.0 mm
12:23 AM 54.2°F12.3°C 49.8°F9.9°C 85% 11.0 mph N17.7 kmh N 12.0 mph19.3 kmh 29.09 in985.1 mb 0.00 in0.0 mm 0.00 in0.0 mm 0.00 in0.0 mm
12:24 AM 54.3°F12.4°C 49.9°F9.9°C 85% 11.6 mph N18.7 kmh N 13.0 mph20.9 kmh 29.09 in985.1 mb 0.00 in0.0 mm 0.00 in0.0 mm 0.00 in0.0 mm
12:25 AM 54.3°F12.4°C 49.9°F9.9°C 85% 9.9 mph N15.9 kmh N 13.0 mph20.9 kmh 29.09 in985.1 mb 0.00 in0.0 mm 0.00 in0.0 mm 0.00 in0.0 mm
12:26 AM 54.4°F12.4°C 50.3°F10.2°C 86% 9.5 mph N15.3 kmh N 12.0 mph19.3 kmh 29.09 in985.1 mb 0.00 in0.0 mm 0.00 in0.0 mm 0.00 in0.0 mm
12:27 AM 54.4°F12.4°C 50.3°F10.2°C 86% 11.1 mph N17.9 kmh N 13.0 mph20.9 kmh 29.09 in985.1 mb 0.00 in0.0 mm 0.00 in0.0 mm 0.00 in0.0 mm
12:28 AM 54.4°F12.4°C 50.0°F10.0°C 85% 11.2 mph N18.0 kmh N 14.0 mph22.5 kmh 29.10 in985.4 mb 0.00 in0.0 mm 0.00 in0.0 mm 0.00 in0.0 mm
12:29 AM 54.5°F12.5°C 50.1°F10.1°C 85% 11.8 mph N19.0 kmh N 14.0 mph22.5 kmh 29.09 in985.1 mb 0.00 in0.0 mm 0.00 in0.0 mm 0.00 in0.0 mm
12:30 AM 54.5°F12.5°C 50.1°F10.1°C 85% 11.7 mph N18.8 kmh N 14.0 mph22.5 kmh 29.09 in985.1 mb 0.00 in0.0 mm 0.00 in0.0 mm 0.00 in0.0 mm
12:31 AM 54.6°F12.6°C 50.2°F10.1°C 85% 11.5 mph N18.5 kmh N 13.0 mph20.9 kmh 29.10 in985.4 mb 0.00 in0.0 mm 0.00 in0.0 mm 0.00 in0.0 mm
12:32 AM 54.6°F12.6°C 50.2°F10.1°C 85% 9.5 mph N15.3 kmh N 13.0 mph20.9 kmh 29.10 in985.4 mb 0.00 in0.0 mm 0.00 in0.0 mm 0.00 in0.0 mm
12:33 AM 54.6°F12.6°C 50.5°F10.3°C 86% 10.6 mph N17.1 kmh N 13.0 mph20.9 kmh 29.10 in985.4 mb 0.00 in0.0 mm 0.00 in0.0 mm 0.00 in0.0 mm
12:34 AM 54.6°F12.6°C 50.2°F10.1°C 85% 10.9 mph N17.5 kmh N 13.0 mph20.9 kmh 29.10 in985.4 mb 0.00 in0.0 mm 0.00 in0.0 mm 0.00 in0.0 mm
12:35 AM 54.7°F12.6°C 50.6°F10.3°C 86% 10.7 mph N17.2 kmh N 13.0 mph20.9 kmh 29.10 in985.4 mb 0.00 in0.0 mm 0.00 in0.0 mm 0.00 in0.0 mm
12:36 AM 54.7°F12.6°C 50.6°F10.3°C 86% 10.5 mph N16.9 kmh N 12.0 mph19.3 kmh 29.10 in985.4 mb 0.00 in0.0 mm 0.00 in0.0 mm 0.00 in0.0 mm
12:37 AM 54.8°F12.7°C 50.4°F10.2°C 85% 10.2 mph N16.4 kmh N 12.0 mph19.3 kmh 29.10 in985.4 mb 0.00 in0.0 mm 0.00 in0.0 mm 0.00 in0.0 mm
12:38 AM 54.7°F12.6°C 50.3°F10.2°C 85% 10.0 mph N16.1 kmh N 12.0 mph19.3 kmh 29.10 in985.4 mb 0.00 in0.0 mm 0.00 in0.0 mm 0.00 in0.0 mm
12:39 AM 54.8°F12.7°C 50.4°F10.2°C 85% 11.6 mph N18.7 kmh N 13.0 mph20.9 kmh 29.10 in985.4 mb 0.00 in0.0 mm 0.00 in0.0 mm 0.00 in0.0 mm
12:40 AM 54.7°F12.6°C 50.3°F10.2°C 85% 11.6 mph N18.7 kmh N 13.0 mph20.9 kmh 29.10 in985.4 mb 0.00 in0.0 mm 0.00 in0.0 mm 0.00 in0.0 mm
12:41 AM 54.8°F12.7°C 50.4°F10.2°C 85% 11.5 mph N18.5 kmh N 13.0 mph20.9 kmh 29.10 in985.4 mb 0.00 in0.0 mm 0.00 in0.0 mm 0.00 in0.0 mm
12:42 AM 54.8°F12.7°C 50.4°F10.2°C 85% 10.9 mph N17.5 kmh N 12.0 mph19.3 kmh 29.10 in985.4 mb 0.00 in0.0 mm 0.00 in0.0 mm 0.00 in0.0 mm
12:43 AM 54.8°F12.7°C 50.7°F10.4°C 86% 9.9 mph N15.9 kmh N 12.0 mph19.3 kmh 29.10 in985.4 mb 0.00 in0.0 mm 0.00 in0.0 mm 0.00 in0.0 mm
12:44 AM 54.8°F12.7°C 50.4°F10.2°C 85% 9.9 mph N15.9 kmh N 12.0 mph19.3 kmh 29.10 in985.4 mb 0.00 in0.0 mm 0.00 in0.0 mm 0.00 in0.0 mm
12:45 AM 54.8°F12.7°C 50.4°F10.2°C 85% 9.8 mph N15.8 kmh N 12.0 mph19.3 kmh 29.10 in985.4 mb 0.00 in0.0 mm 0.00 in0.0 mm 0.00 in0.0 mm
12:46 AM 54.8°F12.7°C 50.4°F10.2°C 85% 8.7 mph N14.0 kmh N 12.0 mph19.3 kmh 29.10 in985.4 mb 0.00 in0.0 mm 0.00 in0.0 mm 0.00 in0.0 mm
12:47 AM 54.8°F12.7°C 50.1°F10.1°C 84% 9.8 mph N15.8 kmh N 12.0 mph19.3 kmh 29.10 in985.4 mb 0.00 in0.0 mm 0.00 in0.0 mm 0.00 in0.0 mm
12:48 AM 54.8°F12.7°C 50.4°F10.2°C 85% 10.1 mph 16.3 kmh 12.0 mph19.3 kmh 29.10 in985.4 mb 0.00 in0.0 mm 0.00 in0.0 mm 0.00 in0.0 mm
12:49 AM 54.9°F12.7°C 50.5°F10.3°C 85% 9.8 mph N15.8 kmh N 11.0 mph17.7 kmh 29.10 in985.4 mb 0.00 in0.0 mm 0.00 in0.0 mm 0.00 in0.0 mm
12:50 AM 54.8°F12.7°C 50.1°F10.1°C 84% 9.8 mph N15.8 kmh N 11.0 mph17.7 kmh 29.10 in985.4 mb 0.00 in0.0 mm 0.00 in0.0 mm 0.00 in0.0 mm
12:51 AM 54.9°F12.7°C 50.2°F10.1°C 84% 9.4 mph N15.1 kmh N 11.0 mph17.7 kmh 29.11 in985.8 mb 0.00 in0.0 mm 0.00 in0.0 mm 0.00 in0.0 mm
12:52 AM 54.9°F12.7°C 50.5°F10.3°C 85% 9.1 mph N14.6 kmh N 12.0 mph19.3 kmh 29.11 in985.8 mb 0.00 in0.0 mm 0.00 in0.0 mm 0.00 in0.0 mm
12:53 AM 54.9°F12.7°C 50.2°F10.1°C 84% 9.5 mph N15.3 kmh N 12.0 mph19.3 kmh 29.11 in985.8 mb 0.00 in0.0 mm 0.00 in0.0 mm 0.00 in0.0 mm
12:54 AM 54.9°F12.7°C 50.2°F10.1°C 84% 9.7 mph N15.6 kmh N 11.0 mph17.7 kmh 29.11 in985.8 mb 0.00 in0.0 mm 0.00 in0.0 mm 0.00 in0.0 mm
12:55 AM 54.8°F12.7°C 50.4°F10.2°C 85% 9.5 mph N15.3 kmh N 11.0 mph17.7 kmh 29.11 in985.8 mb 0.00 in0.0 mm 0.00 in0.0 mm 0.00 in0.0 mm
12:56 AM 54.8°F12.7°C 50.4°F10.2°C 85% 10.1 mph N16.3 kmh N 12.0 mph19.3 kmh 29.11 in985.8 mb 0.00 in0.0 mm 0.00 in0.0 mm 0.00 in0.0 mm
12:57 AM 54.8°F12.7°C 50.1°F10.1°C 84% 10.1 mph N16.3 kmh N 12.0 mph19.3 kmh 29.11 in985.8 mb 0.00 in0.0 mm 0.00 in0.0 mm 0.00 in0.0 mm
12:58 AM 54.7°F12.6°C 50.3°F10.2°C 85% 8.7 mph N14.0 kmh N 12.0 mph19.3 kmh 29.11 in985.8 mb 0.00 in0.0 mm 0.00 in0.0 mm 0.00 in0.0 mm
12:59 AM 54.7°F12.6°C 50.0°F10.0°C 84% 9.4 mph N15.1 kmh N 11.0 mph17.7 kmh 29.11 in985.8 mb 0.00 in0.0 mm 0.00 in0.0 mm 0.00 in0.0 mm
01:00 AM 54.6°F12.6°C 49.9°F9.9°C 84% 10.3 mph NNE16.6 kmh NNE 11.0 mph17.7 kmh 29.11 in985.8 mb 0.00 in0.0 mm 0.00 in0.0 mm 0.00 in0.0 mm
01:01 AM 54.5°F12.5°C 49.8°F9.9°C 84% 10.1 mph NNE16.3 kmh NNE 12.0 mph19.3 kmh 29.11 in985.8 mb 0.00 in0.0 mm 0.00 in0.0 mm 0.00 in0.0 mm
01:02 AM 54.5°F12.5°C 49.8°F9.9°C 84% 10.6 mph N17.1 kmh N 12.0 mph19.3 kmh 29.11 in985.8 mb 0.00 in0.0 mm 0.00 in0.0 mm 0.00 in0.0 mm
01:03 AM 54.4°F12.4°C 49.7°F9.8°C 84% 10.7 mph NNE17.2 kmh NNE 12.0 mph19.3 kmh 29.11 in985.8 mb 0.00 in0.0 mm 0.00 in0.0 mm 0.00 in0.0 mm
01:04 AM 54.4°F12.4°C 49.7°F9.8°C 84% 10.3 mph NNE16.6 kmh NNE 12.0 mph19.3 kmh 29.11 in985.8 mb 0.00 in0.0 mm 0.00 in0.0 mm 0.00 in0.0 mm
01:05 AM 54.3°F12.4°C 49.6°F9.8°C 84% 10.5 mph N16.9 kmh N 12.0 mph19.3 kmh 29.11 in985.8 mb 0.00 in0.0 mm 0.00 in0.0 mm 0.00 in0.0 mm
01:06 AM 54.3°F12.4°C 49.9°F9.9°C 85% 9.8 mph N15.8 kmh N 12.0 mph19.3 kmh 29.11 in985.8 mb 0.00 in0.0 mm 0.00 in0.0 mm 0.00 in0.0 mm
01:07 AM 54.2°F12.3°C 49.8°F9.9°C 85% 9.9 mph NNE15.9 kmh NNE 11.0 mph17.7 kmh 29.11 in985.8 mb 0.00 in0.0 mm 0.00 in0.0 mm 0.00 in0.0 mm
01:08 AM 54.2°F12.3°C 49.8°F9.9°C 85% 10.5 mph N16.9 kmh N 12.0 mph19.3 kmh 29.11 in985.8 mb 0.00 in0.0 mm 0.00 in0.0 mm 0.00 in0.0 mm
01:09 AM 54.2°F12.3°C 49.8°F9.9°C 85% 10.4 mph N16.7 kmh N 12.0 mph19.3 kmh 29.11 in985.8 mb 0.00 in0.0 mm 0.00 in0.0 mm 0.00 in0.0 mm
01:10 AM 54.2°F12.3°C 49.8°F9.9°C 85% 10.5 mph NNE16.9 kmh NNE 12.0 mph19.3 kmh 29.11 in985.8 mb 0.00 in0.0 mm 0.00 in0.0 mm 0.00 in0.0 mm
01:11 AM 54.2°F12.3°C 49.8°F9.9°C 85% 9.9 mph N15.9 kmh N 12.0 mph19.3 kmh 29.11 in985.8 mb 0.00 in0.0 mm 0.00 in0.0 mm 0.00 in0.0 mm
01:12 AM 54.1°F12.3°C 49.7°F9.8°C 85% 10.4 mph NNE16.7 kmh NNE 12.0 mph19.3 kmh 29.11 in985.8 mb 0.00 in0.0 mm 0.00 in0.0 mm 0.00 in0.0 mm
01:13 AM 54.1°F12.3°C 50.0°F10.0°C 86% 10.0 mph NNE16.1 kmh NNE 12.0 mph19.3 kmh 29.11 in985.8 mb 0.00 in0.0 mm 0.00 in0.0 mm 0.00 in0.0 mm
01:14 AM 54.1°F12.3°C 49.7°F9.8°C 85% 9.6 mph NNE15.4 kmh NNE 12.0 mph19.3 kmh 29.11 in985.8 mb 0.00 in0.0 mm 0.00 in0.0 mm 0.00 in0.0 mm
01:15 AM 54.1°F12.3°C 49.7°F9.8°C 85% 10.9 mph NNE17.5 kmh NNE 12.0 mph19.3 kmh 29.11 in985.8 mb 0.00 in0.0 mm 0.00 in0.0 mm 0.00 in0.0 mm
01:16 AM 54.1°F12.3°C 49.7°F9.8°C 85% 9.3 mph NNE15.0 kmh NNE 12.0 mph19.3 kmh 29.11 in985.8 mb 0.00 in0.0 mm 0.00 in0.0 mm 0.00 in0.0 mm
01:17 AM 54.0°F12.2°C 49.9°F9.9°C 86% 9.0 mph NNE14.5 kmh NNE 11.0 mph17.7 kmh 29.11 in985.8 mb 0.00 in0.0 mm 0.00 in0.0 mm 0.00 in0.0 mm
01:18 AM 54.0°F12.2°C 49.9°F9.9°C 86% 9.8 mph N15.8 kmh N 11.0 mph17.7 kmh 29.11 in985.8 mb 0.00 in0.0 mm 0.00 in0.0 mm 0.00 in0.0 mm
01:19 AM 54.0°F12.2°C 49.9°F9.9°C 86% 9.0 mph NNE14.5 kmh NNE 11.0 mph17.7 kmh 29.11 in985.8 mb 0.00 in0.0 mm 0.00 in0.0 mm 0.00 in0.0 mm
01:20 AM 54.0°F12.2°C 49.9°F9.9°C 86% 10.7 mph NNE17.2 kmh NNE 12.0 mph19.3 kmh 29.11 in985.8 mb 0.00 in0.0 mm 0.00 in0.0 mm 0.00 in0.0 mm
01:21 AM 54.0°F12.2°C 49.9°F9.9°C 86% 10.3 mph N16.6 kmh N 12.0 mph19.3 kmh 29.11 in985.8 mb 0.00 in0.0 mm 0.00 in0.0 mm 0.00 in0.0 mm
01:22 AM 54.0°F12.2°C 49.6°F9.8°C 85% 10.8 mph NNE17.4 kmh NNE 12.0 mph19.3 kmh 29.11 in985.8 mb 0.00 in0.0 mm 0.00 in0.0 mm 0.00 in0.0 mm
01:23 AM 54.0°F12.2°C 49.9°F9.9°C 86% 10.5 mph N16.9 kmh N 12.0 mph19.3 kmh 29.11 in985.8 mb 0.00 in0.0 mm 0.00 in0.0 mm 0.00 in0.0 mm
01:24 AM 54.1°F12.3°C 50.0°F10.0°C 86% 10.5 mph NNE16.9 kmh NNE 12.0 mph19.3 kmh 29.11 in985.8 mb 0.00 in0.0 mm 0.00 in0.0 mm 0.00 in0.0 mm
01:25 AM 54.1°F12.3°C 49.7°F9.8°C 85% 9.7 mph N15.6 kmh N 12.0 mph19.3 kmh 29.11 in985.8 mb 0.00 in0.0 mm 0.00 in0.0 mm 0.00 in0.0 mm
01:26 AM 54.1°F12.3°C 50.0°F10.0°C 86% 11.4 mph NNE18.3 kmh NNE 13.0 mph20.9 kmh 29.11 in985.8 mb 0.00 in0.0 mm 0.00 in0.0 mm 0.00 in0.0 mm
01:27 AM 54.1°F12.3°C 49.7°F9.8°C 85% 12.4 mph NNE20.0 kmh NNE 15.0 mph24.1 kmh 29.11 in985.8 mb 0.00 in0.0 mm 0.00 in0.0 mm 0.00 in0.0 mm
01:28 AM 54.2°F12.3°C 50.1°F10.1°C 86% 11.4 mph N18.3 kmh N 15.0 mph24.1 kmh 29.11 in985.8 mb 0.00 in0.0 mm 0.00 in0.0 mm 0.00 in0.0 mm
01:29 AM 54.2°F12.3°C 50.1°F10.1°C 86% 11.6 mph N18.7 kmh N 13.0 mph20.9 kmh 29.11 in985.8 mb 0.00 in0.0 mm 0.00 in0.0 mm 0.00 in0.0 mm
01:30 AM 54.2°F12.3°C 49.8°F9.9°C 85% 11.6 mph NNE18.7 kmh NNE 13.0 mph20.9 kmh 29.11 in985.8 mb 0.00 in0.0 mm 0.00 in0.0 mm 0.00 in0.0 mm
01:31 AM 54.3°F12.4°C 50.2°F10.1°C 86% 11.5 mph N18.5 kmh N 13.0 mph20.9 kmh 29.11 in985.8 mb 0.00 in0.0 mm 0.00 in0.0 mm 0.00 in0.0 mm
01:32 AM 54.4°F12.4°C 50.0°F10.0°C 85% 11.6 mph NNE18.7 kmh NNE 13.0 mph20.9 kmh 29.11 in985.8 mb 0.00 in0.0 mm 0.00 in0.0 mm 0.00 in0.0 mm
01:33 AM 54.4°F12.4°C 50.0°F10.0°C 85% 10.6 mph N17.1 kmh N 13.0 mph20.9 kmh 29.11 in985.8 mb 0.00 in0.0 mm 0.00 in0.0 mm 0.00 in0.0 mm
01:34 AM 54.4°F12.4°C 50.3°F10.2°C 86% 11.1 mph N17.9 kmh N 13.0 mph20.9 kmh 29.11 in985.8 mb 0.00 in0.0 mm 0.00 in0.0 mm 0.00 in0.0 mm
01:35 AM 54.4°F12.4°C 50.0°F10.0°C 85% 11.2 mph N18.0 kmh N 13.0 mph20.9 kmh 29.11 in985.8 mb 0.00 in0.0 mm 0.00 in0.0 mm 0.00 in0.0 mm
01:36 AM 54.4°F12.4°C 50.0°F10.0°C 85% 10.7 mph N17.2 kmh N 13.0 mph20.9 kmh 29.11 in985.8 mb 0.00 in0.0 mm 0.00 in0.0 mm 0.00 in0.0 mm
01:37 AM 54.5°F12.5°C 50.4°F10.2°C 86% 10.9 mph N17.5 kmh N 12.0 mph19.3 kmh 29.11 in985.8 mb 0.00 in0.0 mm 0.00 in0.0 mm 0.00 in0.0 mm
01:38 AM 54.6°F12.6°C 50.2°F10.1°C 85% 10.6 mph N17.1 kmh N 12.0 mph19.3 kmh 29.12 in986.1 mb 0.00 in0.0 mm 0.00 in0.0 mm 0.00 in0.0 mm
01:39 AM 54.6°F12.6°C 50.2°F10.1°C 85% 11.4 mph N18.3 kmh N 13.0 mph20.9 kmh 29.12 in986.1 mb 0.00 in0.0 mm 0.00 in0.0 mm 0.00 in0.0 mm
01:40 AM 54.6°F12.6°C 50.2°F10.1°C 85% 10.5 mph N16.9 kmh N 13.0 mph20.9 kmh 29.12 in986.1 mb 0.00 in0.0 mm 0.00 in0.0 mm 0.00 in0.0 mm
01:41 AM 54.7°F12.6°C 50.3°F10.2°C 85% 10.5 mph N16.9 kmh N 13.0 mph20.9 kmh 29.12 in986.1 mb 0.00 in0.0 mm 0.00 in0.0 mm 0.00 in0.0 mm
01:42 AM 54.7°F12.6°C 50.3°F10.2°C 85% 10.5 mph N16.9 kmh N 13.0 mph20.9 kmh 29.12 in986.1 mb 0.00 in0.0 mm 0.00 in0.0 mm 0.00 in0.0 mm
01:43 AM 54.7°F12.6°C 50.6°F10.3°C 86% 10.5 mph N16.9 kmh N 13.0 mph20.9 kmh 29.12 in986.1 mb 0.00 in0.0 mm 0.00 in0.0 mm 0.00 in0.0 mm
01:44 AM 54.7°F12.6°C 50.3°F10.2°C 85% 10.8 mph N17.4 kmh N 13.0 mph20.9 kmh 29.12 in986.1 mb 0.00 in0.0 mm 0.00 in0.0 mm 0.00 in0.0 mm
01:45 AM 54.7°F12.6°C 50.3°F10.2°C 85% 11.0 mph N17.7 kmh N 13.0 mph20.9 kmh 29.12 in986.1 mb 0.00 in0.0 mm 0.00 in0.0 mm 0.00 in0.0 mm
01:46 AM 54.7°F12.6°C 50.3°F10.2°C 85% 10.6 mph N17.1 kmh N 13.0 mph20.9 kmh 29.12 in986.1 mb 0.00 in0.0 mm 0.00 in0.0 mm 0.00 in0.0 mm
01:47 AM 54.8°F12.7°C 50.4°F10.2°C 85% 11.3 mph N18.2 kmh N 13.0 mph20.9 kmh 29.12 in986.1 mb 0.00 in0.0 mm 0.00 in0.0 mm 0.00 in0.0 mm
01:48 AM 54.7°F12.6°C 50.0°F10.0°C 84% 11.5 mph N18.5 kmh N 13.0 mph20.9 kmh 29.12 in986.1 mb 0.00 in0.0 mm 0.00 in0.0 mm 0.00 in0.0 mm
01:49 AM 54.7°F12.6°C 50.3°F10.2°C 85% 11.8 mph N19.0 kmh N 13.0 mph20.9 kmh 29.12 in986.1 mb 0.00 in0.0 mm 0.00 in0.0 mm 0.00 in0.0 mm
01:50 AM 54.8°F12.7°C 50.1°F10.1°C 84% 11.5 mph N18.5 kmh N 14.0 mph22.5 kmh 29.12 in986.1 mb 0.00 in0.0 mm 0.00 in0.0 mm 0.00 in0.0 mm
01:51 AM 54.8°F12.7°C 50.4°F10.2°C 85% 10.7 mph N17.2 kmh N 14.0 mph22.5 kmh 29.12 in986.1 mb 0.00 in0.0 mm 0.00 in0.0 mm 0.00 in0.0 mm
01:52 AM 54.8°F12.7°C 50.1°F10.1°C 84% 11.8 mph N19.0 kmh N 13.0 mph20.9 kmh 29.12 in986.1 mb 0.00 in0.0 mm 0.00 in0.0 mm 0.00 in0.0 mm
01:53 AM 54.8°F12.7°C 50.4°F10.2°C 85% 11.5 mph N18.5 kmh N 13.0 mph20.9 kmh 29.12 in986.1 mb 0.00 in0.0 mm 0.00 in0.0 mm 0.00 in0.0 mm
01:54 AM 54.8°F12.7°C 50.1°F10.1°C 84% 11.3 mph N18.2 kmh N 12.0 mph19.3 kmh 29.12 in986.1 mb 0.00 in0.0 mm 0.00 in0.0 mm 0.00 in0.0 mm
01:55 AM 54.8°F12.7°C 50.4°F10.2°C 85% 10.8 mph N17.4 kmh N 12.0 mph19.3 kmh 29.12 in986.1 mb 0.00 in0.0 mm 0.00 in0.0 mm 0.00 in0.0 mm
01:56 AM 54.8°F12.7°C 50.1°F10.1°C 84% 11.6 mph N18.7 kmh N 13.0 mph20.9 kmh 29.12 in986.1 mb 0.00 in0.0 mm 0.00 in0.0 mm 0.00 in0.0 mm
01:57 AM 54.8°F12.7°C 50.1°F10.1°C 84% 11.4 mph N18.3 kmh N 13.0 mph20.9 kmh 29.12 in986.1 mb 0.00 in0.0 mm 0.00 in0.0 mm 0.00 in0.0 mm
01:58 AM 54.8°F12.7°C 50.4°F10.2°C 85% 10.0 mph 16.1 kmh 13.0 mph20.9 kmh 29.12 in986.1 mb 0.00 in0.0 mm 0.00 in0.0 mm 0.00 in0.0 mm
01:59 AM 54.9°F12.7°C 50.5°F10.3°C 85% 11.7 mph N18.8 kmh N 13.0 mph20.9 kmh 29.12 in986.1 mb 0.00 in0.0 mm 0.00 in0.0 mm 0.00 in0.0 mm
02:00 AM 54.9°F12.7°C 50.2°F10.1°C 84% 12.6 mph N20.3 kmh N 14.0 mph22.5 kmh 29.12 in986.1 mb 0.00 in0.0 mm 0.00 in0.0 mm 0.00 in0.0 mm
02:01 AM 54.9°F12.7°C 49.8°F9.9°C 83% 11.9 mph N19.2 kmh N 14.0 mph22.5 kmh 29.12 in986.1 mb 0.00 in0.0 mm 0.00 in0.0 mm 0.00 in0.0 mm
02:02 AM 54.9°F12.7°C 50.5°F10.3°C 85% 10.8 mph N17.4 kmh N 14.0 mph22.5 kmh 29.12 in986.1 mb 0.00 in0.0 mm 0.00 in0.0 mm 0.00 in0.0 mm
02:03 AM 54.9°F12.7°C 50.5°F10.3°C 85% 11.7 mph N18.8 kmh N 13.0 mph20.9 kmh 29.12 in986.1 mb 0.00 in0.0 mm 0.00 in0.0 mm 0.00 in0.0 mm
02:04 AM 54.9°F12.7°C 50.2°F10.1°C 84% 12.2 mph N19.6 kmh N 14.0 mph22.5 kmh 29.12 in986.1 mb 0.00 in0.0 mm 0.00 in0.0 mm 0.00 in0.0 mm
02:05 AM 54.9°F12.7°C 50.2°F10.1°C 84% 11.7 mph N18.8 kmh N 14.0 mph22.5 kmh 29.12 in986.1 mb 0.00 in0.0 mm 0.00 in0.0 mm 0.00 in0.0 mm
02:06 AM 55.0°F12.8°C 50.3°F10.2°C 84% 12.4 mph N20.0 kmh N 14.0 mph22.5 kmh 29.12 in986.1 mb 0.00 in0.0 mm 0.00 in0.0 mm 0.00 in0.0 mm
02:07 AM 55.0°F12.8°C 50.3°F10.2°C 84% 11.7 mph N18.8 kmh N 14.0 mph22.5 kmh 29.12 in986.1 mb 0.00 in0.0 mm 0.00 in0.0 mm 0.00 in0.0 mm
02:08 AM 55.1°F12.8°C 50.4°F10.2°C 84% 12.7 mph N20.4 kmh N 14.0 mph22.5 kmh 29.12 in986.1 mb 0.00 in0.0 mm 0.00 in0.0 mm 0.00 in0.0 mm
02:09 AM 55.1°F12.8°C 50.4°F10.2°C 84% 11.5 mph 18.5 kmh 14.0 mph22.5 kmh 29.12 in986.1 mb 0.00 in0.0 mm 0.00 in0.0 mm 0.00 in0.0 mm
02:10 AM 55.1°F12.8°C 50.4°F10.2°C 84% 12.6 mph N20.3 kmh N 14.0 mph22.5 kmh 29.12 in986.1 mb 0.00 in0.0 mm 0.00 in0.0 mm 0.00 in0.0 mm
02:11 AM 55.1°F12.8°C 50.4°F10.2°C 84% 12.0 mph N19.3 kmh N 14.0 mph22.5 kmh 29.12 in986.1 mb 0.00 in0.0 mm 0.00 in0.0 mm 0.00 in0.0 mm
02:12 AM 55.1°F12.8°C 50.4°F10.2°C 84% 13.0 mph N20.9 kmh N 15.0 mph24.1 kmh 29.12 in986.1 mb 0.00 in0.0 mm 0.00 in0.0 mm 0.00 in0.0 mm
02:13 AM 55.1°F12.8°C 50.4°F10.2°C 84% 12.3 mph N19.8 kmh N 15.0 mph24.1 kmh 29.12 in986.1 mb 0.00 in0.0 mm 0.00 in0.0 mm 0.00 in0.0 mm
02:14 AM 55.1°F12.8°C 50.4°F10.2°C 84% 11.7 mph N18.8 kmh N 14.0 mph22.5 kmh 29.12 in986.1 mb 0.00 in0.0 mm 0.00 in0.0 mm 0.00 in0.0 mm
02:15 AM 55.1°F12.8°C 50.4°F10.2°C 84% 11.9 mph N19.2 kmh N 14.0 mph22.5 kmh 29.13 in986.5 mb 0.00 in0.0 mm 0.00 in0.0 mm 0.00 in0.0 mm
02:16 AM 55.1°F12.8°C 50.0°F10.0°C 83% 12.4 mph N20.0 kmh N 14.0 mph22.5 kmh 29.12 in986.1 mb 0.00 in0.0 mm 0.00 in0.0 mm 0.00 in0.0 mm
02:17 AM 55.1°F12.8°C 50.4°F10.2°C 84% 11.8 mph N19.0 kmh N 14.0 mph22.5 kmh 29.12 in986.1 mb 0.00 in0.0 mm 0.00 in0.0 mm 0.00 in0.0 mm
02:18 AM 55.1°F12.8°C 50.0°F10.0°C 83% 11.2 mph N18.0 kmh N 13.0 mph20.9 kmh 29.12 in986.1 mb 0.00 in0.0 mm 0.00 in0.0 mm 0.00 in0.0 mm
02:19 AM 55.1°F12.8°C 50.4°F10.2°C 84% 11.7 mph N18.8 kmh N 13.0 mph20.9 kmh 29.12 in986.1 mb 0.00 in0.0 mm 0.00 in0.0 mm 0.00 in0.0 mm
02:20 AM 55.0°F12.8°C 49.9°F9.9°C 83% 11.8 mph N19.0 kmh N 13.0 mph20.9 kmh 29.12 in986.1 mb 0.00 in0.0 mm 0.00 in0.0 mm 0.00 in0.0 mm
02:21 AM 55.1°F12.8°C 50.0°F10.0°C 83% 11.9 mph N19.2 kmh N 14.0 mph22.5 kmh 29.12 in986.1 mb 0.00 in0.0 mm 0.00 in0.0 mm 0.00 in0.0 mm
02:22 AM 55.1°F12.8°C 50.4°F10.2°C 84% 10.3 mph N16.6 kmh N 14.0 mph22.5 kmh 29.12 in986.1 mb 0.00 in0.0 mm 0.00 in0.0 mm 0.00 in0.0 mm
02:23 AM 55.0°F12.8°C 50.3°F10.2°C 84% 12.0 mph N19.3 kmh N 13.0 mph20.9 kmh 29.13 in986.5 mb 0.00 in0.0 mm 0.00 in0.0 mm 0.00 in0.0 mm
02:24 AM 55.1°F12.8°C 50.0°F10.0°C 83% 11.3 mph N18.2 kmh N 13.0 mph20.9 kmh 29.12 in986.1 mb 0.00 in0.0 mm 0.00 in0.0 mm 0.00 in0.0 mm
02:25 AM 55.1°F12.8°C 50.4°F10.2°C 84% 12.1 mph N19.5 kmh N 14.0 mph22.5 kmh 29.13 in986.5 mb 0.00 in0.0 mm 0.00 in0.0 mm 0.00 in0.0 mm
02:26 AM 55.0°F12.8°C 49.9°F9.9°C 83% 11.1 mph N17.9 kmh N 14.0 mph22.5 kmh 29.13 in986.5 mb 0.00 in0.0 mm 0.00 in0.0 mm 0.00 in0.0 mm
02:27 AM 55.0°F12.8°C 50.3°F10.2°C 84% 10.7 mph N17.2 kmh N 12.0 mph19.3 kmh 29.13 in986.5 mb 0.00 in0.0 mm 0.00 in0.0 mm 0.00 in0.0 mm
02:28 AM 55.0°F12.8°C 50.3°F10.2°C 84% 11.0 mph N17.7 kmh N 13.0 mph20.9 kmh 29.13 in986.5 mb 0.00 in0.0 mm 0.00 in0.0 mm 0.00 in0.0 mm
02:29 AM 55.0°F12.8°C 50.3°F10.2°C 84% 11.7 mph N18.8 kmh N 13.0 mph20.9 kmh 29.13 in986.5 mb 0.00 in0.0 mm 0.00 in0.0 mm 0.00 in0.0 mm
02:30 AM 55.1°F12.8°C 50.0°F10.0°C 83% 10.4 mph N16.7 kmh N 13.0 mph20.9 kmh 29.13 in986.5 mb 0.00 in0.0 mm 0.00 in0.0 mm 0.00 in0.0 mm
02:31 AM 55.0°F12.8°C 49.9°F9.9°C 83% 10.3 mph N16.6 kmh N 12.0 mph19.3 kmh 29.13 in986.5 mb 0.00 in0.0 mm 0.00 in0.0 mm 0.00 in0.0 mm
02:32 AM 55.0°F12.8°C 49.9°F9.9°C 83% 11.4 mph N18.3 kmh N 13.0 mph20.9 kmh 29.13 in986.5 mb 0.00 in0.0 mm 0.00 in0.0 mm 0.00 in0.0 mm
02:33 AM 55.0°F12.8°C 49.9°F9.9°C 83% 10.7 mph N17.2 kmh N 13.0 mph20.9 kmh 29.13 in986.5 mb 0.00 in0.0 mm 0.00 in0.0 mm 0.00 in0.0 mm
02:34 AM 55.0°F12.8°C 49.9°F9.9°C 83% 10.5 mph N16.9 kmh N 12.0 mph19.3 kmh 29.13 in986.5 mb 0.00 in0.0 mm 0.00 in0.0 mm 0.00 in0.0 mm
02:35 AM 55.0°F12.8°C 49.9°F9.9°C 83% 12.2 mph N19.6 kmh N 13.0 mph20.9 kmh 29.13 in986.5 mb 0.00 in0.0 mm 0.00 in0.0 mm 0.00 in0.0 mm
02:36 AM 55.0°F12.8°C 49.9°F9.9°C 83% 11.2 mph NNE18.0 kmh NNE 13.0 mph20.9 kmh 29.13 in986.5 mb 0.00 in0.0 mm 0.00 in0.0 mm 0.00 in0.0 mm
02:37 AM 55.0°F12.8°C 49.9°F9.9°C 83% 10.5 mph N16.9 kmh N 12.0 mph19.3 kmh 29.13 in986.5 mb 0.00 in0.0 mm 0.00 in0.0 mm 0.00 in0.0 mm
02:38 AM 54.9°F12.7°C 50.2°F10.1°C 84% 10.2 mph N16.4 kmh N 12.0 mph19.3 kmh 29.13 in986.5 mb 0.00 in0.0 mm 0.00 in0.0 mm 0.00 in0.0 mm
02:39 AM 55.0°F12.8°C 49.9°F9.9°C 83% 10.8 mph NNE17.4 kmh NNE 12.0 mph19.3 kmh 29.13 in986.5 mb 0.00 in0.0 mm 0.00 in0.0 mm 0.00 in0.0 mm
02:40 AM 54.9°F12.7°C 50.2°F10.1°C 84% 10.3 mph N16.6 kmh N 13.0 mph20.9 kmh 29.13 in986.5 mb 0.00 in0.0 mm 0.00 in0.0 mm 0.00 in0.0 mm
02:41 AM 54.9°F12.7°C 50.2°F10.1°C 84% 10.4 mph N16.7 kmh N 13.0 mph20.9 kmh 29.13 in986.5 mb 0.00 in0.0 mm 0.00 in0.0 mm 0.00 in0.0 mm
02:42 AM 54.9°F12.7°C 50.2°F10.1°C 84% 9.7 mph N15.6 kmh N 11.0 mph17.7 kmh 29.13 in986.5 mb 0.00 in0.0 mm 0.00 in0.0 mm 0.00 in0.0 mm
02:43 AM 55.0°F12.8°C 50.3°F10.2°C 84% 10.5 mph N16.9 kmh N 12.0 mph19.3 kmh 29.13 in986.5 mb 0.00 in0.0 mm 0.00 in0.0 mm 0.00 in0.0 mm
02:44 AM 55.0°F12.8°C 50.3°F10.2°C 84% 9.5 mph N15.3 kmh N 12.0 mph19.3 kmh 29.13 in986.5 mb 0.00 in0.0 mm 0.00 in0.0 mm 0.00 in0.0 mm
02:45 AM 55.0°F12.8°C 50.3°F10.2°C 84% 10.0 mph N16.1 kmh N 11.0 mph17.7 kmh 29.13 in986.5 mb 0.00 in0.0 mm 0.00 in0.0 mm 0.00 in0.0 mm
02:46 AM 55.0°F12.8°C 49.9°F9.9°C 83% 10.2 mph N16.4 kmh N 11.0 mph17.7 kmh 29.13 in986.5 mb 0.00 in0.0 mm 0.00 in0.0 mm 0.00 in0.0 mm
02:47 AM 55.0°F12.8°C 49.9°F9.9°C 83% 10.0 mph N16.1 kmh N 11.0 mph17.7 kmh 29.13 in986.5 mb 0.00 in0.0 mm 0.00 in0.0 mm 0.00 in0.0 mm
02:48 AM 55.0°F12.8°C 49.9°F9.9°C 83% 9.0 mph N14.5 kmh N 11.0 mph17.7 kmh 29.13 in986.5 mb 0.00 in0.0 mm 0.00 in0.0 mm 0.00 in0.0 mm
02:49 AM 54.9°F12.7°C 50.2°F10.1°C 84% 9.6 mph N15.4 kmh N 11.0 mph17.7 kmh 29.13 in986.5 mb 0.00 in0.0 mm 0.00 in0.0 mm 0.00 in0.0 mm
02:50 AM 55.0°F12.8°C 50.3°F10.2°C 84% 9.8 mph N15.8 kmh N 11.0 mph17.7 kmh 29.13 in986.5 mb 0.00 in0.0 mm 0.00 in0.0 mm 0.00 in0.0 mm
02:51 AM 54.9°F12.7°C 50.2°F10.1°C 84% 9.3 mph N15.0 kmh N 11.0 mph17.7 kmh 29.13 in986.5 mb 0.00 in0.0 mm 0.00 in0.0 mm 0.00 in0.0 mm
02:52 AM 55.0°F12.8°C 50.6°F10.3°C 85% 8.7 mph N14.0 kmh N 11.0 mph17.7 kmh 29.13 in986.5 mb 0.00 in0.0 mm 0.00 in0.0 mm 0.00 in0.0 mm
02:53 AM 54.9°F12.7°C 50.2°F10.1°C 84% 9.3 mph N15.0 kmh N 11.0 mph17.7 kmh 29.14 in986.8 mb 0.00 in0.0 mm 0.00 in0.0 mm 0.00 in0.0 mm
02:54 AM 55.0°F12.8°C 50.3°F10.2°C 84% 9.3 mph N15.0 kmh N 12.0 mph19.3 kmh 29.14 in986.8 mb 0.00 in0.0 mm 0.00 in0.0 mm 0.00 in0.0 mm
02:55 AM 55.0°F12.8°C 50.6°F10.3°C 85% 8.2 mph N13.2 kmh N 12.0 mph19.3 kmh 29.14 in986.8 mb 0.00 in0.0 mm 0.00 in0.0 mm 0.00 in0.0 mm
02:56 AM 55.1°F12.8°C 50.7°F10.4°C 85% 8.3 mph N13.4 kmh N 10.0 mph16.1 kmh 29.14 in986.8 mb 0.00 in0.0 mm 0.00 in0.0 mm 0.00 in0.0 mm
02:57 AM 55.1°F12.8°C 50.7°F10.4°C 85% 7.5 mph N12.1 kmh N 10.0 mph16.1 kmh 29.14 in986.8 mb 0.00 in0.0 mm 0.00 in0.0 mm 0.00 in0.0 mm
02:58 AM 55.1°F12.8°C 50.4°F10.2°C 84% 8.2 mph N13.2 kmh N 10.0 mph16.1 kmh 29.14 in986.8 mb 0.00 in0.0 mm 0.00 in0.0 mm 0.00 in0.0 mm
02:59 AM 55.1°F12.8°C 50.4°F10.2°C 84% 8.2 mph N13.2 kmh N 10.0 mph16.1 kmh 29.14 in986.8 mb 0.00 in0.0 mm 0.00 in0.0 mm 0.00 in0.0 mm
03:00 AM 55.1°F12.8°C 50.4°F10.2°C 84% 8.2 mph N13.2 kmh N 10.0 mph16.1 kmh 29.14 in986.8 mb 0.00 in0.0 mm 0.00 in0.0 mm 0.00 in0.0 mm
03:01 AM 55.1°F12.8°C 50.4°F10.2°C 84% 6.1 mph N9.8 kmh N 10.0 mph16.1 kmh 29.14 in986.8 mb 0.00 in0.0 mm 0.00 in0.0 mm 0.00 in0.0 mm
03:02 AM 55.1°F12.8°C 50.4°F10.2°C 84% 6.5 mph N10.5 kmh N 9.0 mph14.5 kmh 29.14 in986.8 mb 0.00 in0.0 mm 0.00 in0.0 mm 0.00 in0.0 mm
03:03 AM 55.1°F12.8°C 50.4°F10.2°C 84% 7.2 mph N11.6 kmh N 10.0 mph16.1 kmh 29.14 in986.8 mb 0.00 in0.0 mm 0.00 in0.0 mm 0.00 in0.0 mm
03:04 AM 55.1°F12.8°C 50.0°F10.0°C 83% 9.0 mph N14.5 kmh N 11.0 mph17.7 kmh 29.14 in986.8 mb 0.00 in0.0 mm 0.00 in0.0 mm 0.00 in0.0 mm
03:05 AM 55.1°F12.8°C 50.0°F10.0°C 83% 8.0 mph N12.9 kmh N 11.0 mph17.7 kmh 29.14 in986.8 mb 0.00 in0.0 mm 0.00 in0.0 mm 0.00 in0.0 mm
03:06 AM 55.1°F12.8°C 50.4°F10.2°C 84% 8.1 mph N13.0 kmh N 11.0 mph17.7 kmh 29.14 in986.8 mb 0.00 in0.0 mm 0.00 in0.0 mm 0.00 in0.0 mm
03:07 AM 55.2°F12.9°C 50.4°F10.2°C 84% 9.0 mph N14.5 kmh N 10.0 mph16.1 kmh 29.14 in986.8 mb 0.00 in0.0 mm 0.00 in0.0 mm 0.00 in0.0 mm
03:08 AM 55.1°F12.8°C 50.0°F10.0°C 83% 8.9 mph N14.3 kmh N 10.0 mph16.1 kmh 29.14 in986.8 mb 0.00 in0.0 mm 0.00 in0.0 mm 0.00 in0.0 mm
03:09 AM 55.2°F12.9°C 50.1°F10.1°C 83% 9.3 mph N15.0 kmh N 11.0 mph17.7 kmh 29.14 in986.8 mb 0.00 in0.0 mm 0.00 in0.0 mm 0.00 in0.0 mm
03:10 AM 55.2°F12.9°C 50.1°F10.1°C 83% 9.1 mph N14.6 kmh N 11.0 mph17.7 kmh 29.14 in986.8 mb 0.00 in0.0 mm 0.00 in0.0 mm 0.00 in0.0 mm
03:11 AM 55.2°F12.9°C 50.1°F10.1°C 83% 7.9 mph N12.7 kmh N 11.0 mph17.7 kmh 29.14 in986.8 mb 0.00 in0.0 mm 0.00 in0.0 mm 0.00 in0.0 mm
03:12 AM 55.2°F12.9°C 50.4°F10.2°C 84% 7.2 mph N11.6 kmh N 10.0 mph16.1 kmh 29.14 in986.8 mb 0.00 in0.0 mm 0.00 in0.0 mm 0.00 in0.0 mm
03:13 AM 55.2°F12.9°C 50.4°F10.2°C 84% 7.6 mph N12.2 kmh N 10.0 mph16.1 kmh 29.14 in986.8 mb 0.00 in0.0 mm 0.00 in0.0 mm 0.00 in0.0 mm
03:14 AM 55.2°F12.9°C 50.4°F10.2°C 84% 7.6 mph N12.2 kmh N 9.0 mph14.5 kmh 29.14 in986.8 mb 0.00 in0.0 mm 0.00 in0.0 mm 0.00 in0.0 mm
03:15 AM 55.2°F12.9°C 50.4°F10.2°C 84% 8.4 mph N13.5 kmh N 10.0 mph16.1 kmh 29.14 in986.8 mb 0.00 in0.0 mm 0.00 in0.0 mm 0.00 in0.0 mm
03:16 AM 55.2°F12.9°C 50.4°F10.2°C 84% 9.4 mph N15.1 kmh N 11.0 mph17.7 kmh 29.14 in986.8 mb 0.00 in0.0 mm 0.00 in0.0 mm 0.00 in0.0 mm
03:17 AM 55.3°F12.9°C 50.5°F10.3°C 84% 9.2 mph 14.8 kmh 11.0 mph17.7 kmh 29.14 in986.8 mb 0.00 in0.0 mm 0.00 in0.0 mm 0.00 in0.0 mm
03:18 AM 55.3°F12.9°C 50.2°F10.1°C 83% 9.4 mph N15.1 kmh N 11.0 mph17.7 kmh 29.14 in986.8 mb 0.00 in0.0 mm 0.00 in0.0 mm 0.00 in0.0 mm
03:19 AM 55.3°F12.9°C 50.5°F10.3°C 84% 8.3 mph N13.4 kmh N 11.0 mph17.7 kmh 29.14 in986.8 mb 0.00 in0.0 mm 0.00 in0.0 mm 0.00 in0.0 mm
03:20 AM 55.4°F13.0°C 50.3°F10.2°C 83% 8.4 mph N13.5 kmh N 10.0 mph16.1 kmh 29.14 in986.8 mb 0.00 in0.0 mm 0.00 in0.0 mm 0.00 in0.0 mm
03:21 AM 55.4°F13.0°C 50.3°F10.2°C 83% 8.2 mph N13.2 kmh N 10.0 mph16.1 kmh 29.14 in986.8 mb 0.00 in0.0 mm 0.00 in0.0 mm 0.00 in0.0 mm
03:22 AM 55.4°F13.0°C 50.3°F10.2°C 83% 8.6 mph N13.8 kmh N 10.0 mph16.1 kmh 29.14 in986.8 mb 0.00 in0.0 mm 0.00 in0.0 mm 0.00 in0.0 mm
03:23 AM 55.4°F13.0°C 50.3°F10.2°C 83% 9.6 mph N15.4 kmh N 11.0 mph17.7 kmh 29.14 in986.8 mb 0.00 in0.0 mm 0.00 in0.0 mm 0.00 in0.0 mm
03:24 AM 55.4°F13.0°C 50.3°F10.2°C 83% 8.3 mph N13.4 kmh N 11.0 mph17.7 kmh 29.14 in986.8 mb 0.00 in0.0 mm 0.00 in0.0 mm 0.00 in0.0 mm
03:25 AM 55.4°F13.0°C 50.3°F10.2°C 83% 9.4 mph N15.1 kmh N 11.0 mph17.7 kmh 29.14 in986.8 mb 0.00 in0.0 mm 0.00 in0.0 mm 0.00 in0.0 mm
03:26 AM 55.4°F13.0°C 50.6°F10.3°C 84% 6.7 mph N10.8 kmh N 11.0 mph17.7 kmh 29.14 in986.8 mb 0.00 in0.0 mm 0.00 in0.0 mm 0.00 in0.0 mm
03:27 AM 55.4°F13.0°C 50.6°F10.3°C 84% 6.8 mph NNE10.9 kmh NNE 10.0 mph16.1 kmh 29.14 in986.8 mb 0.00 in0.0 mm 0.00 in0.0 mm 0.00 in0.0 mm
03:28 AM 55.3°F12.9°C 50.5°F10.3°C 84% 3.4 mph NNE5.5 kmh NNE 9.0 mph14.5 kmh 29.14 in986.8 mb 0.00 in0.0 mm 0.00 in0.0 mm 0.00 in0.0 mm
03:29 AM 55.2°F12.9°C 50.4°F10.2°C 84% 2.6 mph NE4.2 kmh NE 8.0 mph12.9 kmh 29.14 in986.8 mb 0.00 in0.0 mm 0.00 in0.0 mm 0.00 in0.0 mm
03:30 AM 55.2°F12.9°C 50.1°F10.1°C 83% 1.9 mph NE3.1 kmh NE 4.0 mph6.4 kmh 29.14 in986.8 mb 0.00 in0.0 mm 0.00 in0.0 mm 0.00 in0.0 mm
03:31 AM 55.0°F12.8°C 49.9°F9.9°C 83% 3.0 mph NE4.8 kmh NE 4.0 mph6.4 kmh 29.14 in986.8 mb 0.00 in0.0 mm 0.00 in0.0 mm 0.00 in0.0 mm
03:32 AM 54.9°F12.7°C 49.8°F9.9°C 83% 3.8 mph ENE6.1 kmh ENE 6.0 mph9.7 kmh 29.14 in986.8 mb 0.00 in0.0 mm 0.00 in0.0 mm 0.00 in0.0 mm
03:33 AM 54.7°F12.6°C 49.6°F9.8°C 83% 4.7 mph NE7.6 kmh NE 6.0 mph9.7 kmh 29.14 in986.8 mb 0.00 in0.0 mm 0.00 in0.0 mm 0.00 in0.0 mm
03:34 AM 54.5°F12.5°C 49.8°F9.9°C 84% 4.5 mph NE7.2 kmh NE 6.0 mph9.7 kmh 29.14 in986.8 mb 0.00 in0.0 mm 0.00 in0.0 mm 0.00 in0.0 mm
03:35 AM 54.4°F12.4°C 49.7°F9.8°C 84% 4.7 mph NE7.6 kmh NE 6.0 mph9.7 kmh 29.14 in986.8 mb 0.00 in0.0 mm 0.00 in0.0 mm 0.00 in0.0 mm
03:36 AM 54.2°F12.3°C 49.5°F9.7°C 84% 4.0 mph NE6.4 kmh NE 6.0 mph9.7 kmh 29.14 in986.8 mb 0.00 in0.0 mm 0.00 in0.0 mm 0.00 in0.0 mm
03:37 AM 54.2°F12.3°C 49.5°F9.7°C 84% 5.3 mph NE8.5 kmh NE 8.0 mph12.9 kmh 29.14 in986.8 mb 0.00 in0.0 mm 0.00 in0.0 mm 0.00 in0.0 mm
03:38 AM 54.1°F12.3°C 49.7°F9.8°C 85% 6.5 mph NNE10.5 kmh NNE 9.0 mph14.5 kmh 29.14 in986.8 mb 0.00 in0.0 mm 0.00 in0.0 mm 0.00 in0.0 mm
03:39 AM 54.0°F12.2°C 49.6°F9.8°C 85% 5.2 mph NNE8.4 kmh NNE 9.0 mph14.5 kmh 29.14 in986.8 mb 0.00 in0.0 mm 0.00 in0.0 mm 0.00 in0.0 mm
03:40 AM 54.1°F12.3°C 49.7°F9.8°C 85% 5.3 mph NNE8.5 kmh NNE 7.0 mph11.3 kmh 29.14 in986.8 mb 0.00 in0.0 mm 0.00 in0.0 mm 0.00 in0.0 mm
03:41 AM 54.1°F12.3°C 50.0°F10.0°C 86% 7.3 mph N11.7 kmh N 8.0 mph12.9 kmh 29.15 in987.1 mb 0.00 in0.0 mm 0.00 in0.0 mm 0.00 in0.0 mm
03:42 AM 54.1°F12.3°C 50.0°F10.0°C 86% 7.1 mph N11.4 kmh N 9.0 mph14.5 kmh 29.14 in986.8 mb 0.00 in0.0 mm 0.00 in0.0 mm 0.00 in0.0 mm
03:43 AM 54.2°F12.3°C 50.1°F10.1°C 86% 5.7 mph N9.2 kmh N 9.0 mph14.5 kmh 29.15 in987.1 mb 0.00 in0.0 mm 0.00 in0.0 mm 0.00 in0.0 mm
03:44 AM 54.2°F12.3°C 50.1°F10.1°C 86% 6.9 mph N11.1 kmh N 9.0 mph14.5 kmh 29.15 in987.1 mb 0.00 in0.0 mm 0.00 in0.0 mm 0.00 in0.0 mm
03:45 AM 54.4°F12.4°C 50.3°F10.2°C 86% 6.5 mph 10.5 kmh 9.0 mph14.5 kmh 29.15 in987.1 mb 0.00 in0.0 mm 0.00 in0.0 mm 0.00 in0.0 mm
03:46 AM 54.4°F12.4°C 50.3°F10.2°C 86% 6.8 mph N10.9 kmh N 9.0 mph14.5 kmh 29.15 in987.1 mb 0.00 in0.0 mm 0.00 in0.0 mm 0.00 in0.0 mm
03:47 AM 54.6°F12.6°C 50.5°F10.3°C 86% 7.0 mph N11.3 kmh N 9.0 mph14.5 kmh 29.15 in987.1 mb 0.00 in0.0 mm 0.00 in0.0 mm 0.00 in0.0 mm
03:48 AM 54.7°F12.6°C 50.3°F10.2°C 85% 6.7 mph N10.8 kmh N 9.0 mph14.5 kmh 29.15 in987.1 mb 0.00 in0.0 mm 0.00 in0.0 mm 0.00 in0.0 mm
03:49 AM 54.8°F12.7°C 50.4°F10.2°C 85% 7.2 mph N11.6 kmh N 8.0 mph12.9 kmh 29.15 in987.1 mb 0.00 in0.0 mm 0.00 in0.0 mm 0.00 in0.0 mm
03:50 AM 54.8°F12.7°C 50.4°F10.2°C 85% 6.3 mph N10.1 kmh N 8.0 mph12.9 kmh 29.15 in987.1 mb 0.00 in0.0 mm 0.00 in0.0 mm 0.00 in0.0 mm
03:51 AM 54.9°F12.7°C 50.5°F10.3°C 85% 6.8 mph N10.9 kmh N 9.0 mph14.5 kmh 29.15 in987.1 mb 0.00 in0.0 mm 0.00 in0.0 mm 0.00 in0.0 mm
03:52 AM 55.0°F12.8°C 50.6°F10.3°C 85% 5.3 mph N8.5 kmh N 9.0 mph14.5 kmh 29.15 in987.1 mb 0.00 in0.0 mm 0.00 in0.0 mm 0.00 in0.0 mm
03:53 AM 54.9°F12.7°C 50.5°F10.3°C 85% 5.8 mph N9.3 kmh N 8.0 mph12.9 kmh 29.15 in987.1 mb 0.00 in0.0 mm 0.00 in0.0 mm 0.00 in0.0 mm
03:54 AM 55.0°F12.8°C 50.6°F10.3°C 85% 7.0 mph N11.3 kmh N 9.0 mph14.5 kmh 29.15 in987.1 mb 0.00 in0.0 mm 0.00 in0.0 mm 0.00 in0.0 mm
03:55 AM 55.0°F12.8°C 50.6°F10.3°C 85% 5.6 mph N9.0 kmh N 9.0 mph14.5 kmh 29.15 in987.1 mb 0.00 in0.0 mm 0.00 in0.0 mm 0.00 in0.0 mm
03:56 AM 55.0°F12.8°C 50.6°F10.3°C 85% 5.4 mph N8.7 kmh N 9.0 mph14.5 kmh 29.15 in987.1 mb 0.00 in0.0 mm 0.00 in0.0 mm 0.00 in0.0 mm
03:57 AM 55.1°F12.8°C 50.7°F10.4°C 85% 6.2 mph N10.0 kmh N 8.0 mph12.9 kmh 29.15 in987.1 mb 0.00 in0.0 mm 0.00 in0.0 mm 0.00 in0.0 mm
03:58 AM 55.0°F12.8°C 50.6°F10.3°C 85% 5.3 mph N8.5 kmh N 8.0 mph12.9 kmh 29.15 in987.1 mb 0.00 in0.0 mm 0.00 in0.0 mm 0.00 in0.0 mm
03:59 AM 55.0°F12.8°C 50.3°F10.2°C 84% 3.6 mph NE5.8 kmh NE 7.0 mph11.3 kmh 29.15 in987.1 mb 0.00 in0.0 mm 0.00 in0.0 mm 0.00 in0.0 mm
04:00 AM 55.0°F12.8°C 50.3°F10.2°C 84% 4.3 mph NE6.9 kmh NE 7.0 mph11.3 kmh 29.15 in987.1 mb 0.00 in0.0 mm 0.00 in0.0 mm 0.00 in0.0 mm
04:01 AM 54.9°F12.7°C 50.2°F10.1°C 84% 4.1 mph NNE6.6 kmh NNE 7.0 mph11.3 kmh 29.15 in987.1 mb 0.00 in0.0 mm 0.00 in0.0 mm 0.00 in0.0 mm
04:02 AM 54.8°F12.7°C 50.1°F10.1°C 84% 3.2 mph NE5.1 kmh NE 7.0 mph11.3 kmh 29.15 in987.1 mb 0.00 in0.0 mm 0.00 in0.0 mm 0.00 in0.0 mm
04:03 AM 54.7°F12.6°C 50.0°F10.0°C 84% 3.2 mph NE5.1 kmh NE 4.0 mph6.4 kmh 29.15 in987.1 mb 0.00 in0.0 mm 0.00 in0.0 mm 0.00 in0.0 mm
04:04 AM 54.6°F12.6°C 49.9°F9.9°C 84% 3.1 mph NE5.0 kmh NE 4.0 mph6.4 kmh 29.15 in987.1 mb 0.00 in0.0 mm 0.00 in0.0 mm 0.00 in0.0 mm
04:05 AM 54.5°F12.5°C 49.8°F9.9°C 84% 3.3 mph NE5.3 kmh NE 5.0 mph8.0 kmh 29.15 in987.1 mb 0.00 in0.0 mm 0.00 in0.0 mm 0.00 in0.0 mm
04:06 AM 54.4°F12.4°C 49.7°F9.8°C 84% 3.6 mph NE5.8 kmh NE 5.0 mph8.0 kmh 29.15 in987.1 mb 0.00 in0.0 mm 0.00 in0.0 mm 0.00 in0.0 mm
04:07 AM 54.3°F12.4°C 49.6°F9.8°C 84% 3.8 mph NE6.1 kmh NE 5.0 mph8.0 kmh 29.15 in987.1 mb 0.00 in0.0 mm 0.00 in0.0 mm 0.00 in0.0 mm
04:08 AM 54.1°F12.3°C 49.7°F9.8°C 85% 3.7 mph NE6.0 kmh NE 5.0 mph8.0 kmh 29.15 in987.1 mb 0.00 in0.0 mm 0.00 in0.0 mm 0.00 in0.0 mm
04:09 AM 54.1°F12.3°C 49.7°F9.8°C 85% 3.4 mph NE5.5 kmh NE 4.0 mph6.4 kmh 29.15 in987.1 mb 0.00 in0.0 mm 0.00 in0.0 mm 0.00 in0.0 mm
04:10 AM 54.0°F12.2°C 49.6°F9.8°C 85% 3.7 mph NNE6.0 kmh NNE 5.0 mph8.0 kmh 29.15 in987.1 mb 0.00 in0.0 mm 0.00 in0.0 mm 0.00 in0.0 mm
04:11 AM 53.9°F12.2°C 49.5°F9.7°C 85% 3.5 mph NE5.6 kmh NE 5.0 mph8.0 kmh 29.15 in987.1 mb 0.00 in0.0 mm 0.00 in0.0 mm 0.00 in0.0 mm
04:12 AM 53.8°F12.1°C 49.4°F9.7°C 85% 3.2 mph NE5.1 kmh NE 5.0 mph8.0 kmh 29.15 in987.1 mb 0.00 in0.0 mm 0.00 in0.0 mm 0.00 in0.0 mm
04:13 AM 53.7°F12.1°C 49.3°F9.6°C 85% 3.6 mph NE5.8 kmh NE 5.0 mph8.0 kmh 29.15 in987.1 mb 0.00 in0.0 mm 0.00 in0.0 mm 0.00 in0.0 mm
04:14 AM 53.6°F12.0°C 49.5°F9.7°C 86% 3.5 mph NE5.6 kmh NE 5.0 mph8.0 kmh 29.15 in987.1 mb 0.00 in0.0 mm 0.00 in0.0 mm 0.00 in0.0 mm
04:15 AM 53.5°F11.9°C 49.4°F9.7°C 86% 2.9 mph NE4.7 kmh NE 4.0 mph6.4 kmh 29.15 in987.1 mb 0.00 in0.0 mm 0.00 in0.0 mm 0.00 in0.0 mm
04:16 AM 53.5°F11.9°C 49.4°F9.7°C 86% 3.5 mph NE5.6 kmh NE 4.0 mph6.4 kmh 29.15 in987.1 mb 0.00 in0.0 mm 0.00 in0.0 mm 0.00 in0.0 mm
04:17 AM 53.4°F11.9°C 49.3°F9.6°C 86% 3.1 mph NNE5.0 kmh NNE 4.0 mph6.4 kmh 29.15 in987.1 mb 0.00 in0.0 mm 0.00 in0.0 mm 0.00 in0.0 mm
04:18 AM 53.4°F11.9°C 49.3°F9.6°C 86% 2.7 mph NNE4.3 kmh NNE 4.0 mph6.4 kmh 29.15 in987.1 mb 0.00 in0.0 mm 0.00 in0.0 mm 0.00 in0.0 mm
04:19 AM 53.3°F11.8°C 49.2°F9.6°C 86% 5.4 mph N8.7 kmh N 7.0 mph11.3 kmh 29.15 in987.1 mb 0.00 in0.0 mm 0.00 in0.0 mm 0.00 in0.0 mm
04:20 AM 53.3°F11.8°C 49.2°F9.6°C 86% 4.4 mph NNE7.1 kmh NNE 8.0 mph12.9 kmh 29.15 in987.1 mb 0.00 in0.0 mm 0.00 in0.0 mm 0.00 in0.0 mm
04:21 AM 53.2°F11.8°C 49.4°F9.7°C 87% 3.4 mph NE5.5 kmh NE 8.0 mph12.9 kmh 29.15 in987.1 mb 0.00 in0.0 mm 0.00 in0.0 mm 0.00 in0.0 mm
04:22 AM 53.2°F11.8°C 49.4°F9.7°C 87% 4.1 mph NNE6.6 kmh NNE 7.0 mph11.3 kmh 29.15 in987.1 mb 0.00 in0.0 mm 0.00 in0.0 mm 0.00 in0.0 mm
04:23 AM 53.1°F11.7°C 49.0°F9.4°C 86% 3.4 mph NNE5.5 kmh NNE 7.0 mph11.3 kmh 29.15 in987.1 mb 0.00 in0.0 mm 0.00 in0.0 mm 0.00 in0.0 mm
04:24 AM 53.0°F11.7°C 49.2°F9.6°C 87% 3.9 mph NE6.3 kmh NE 7.0 mph11.3 kmh 29.15 in987.1 mb 0.00 in0.0 mm 0.00 in0.0 mm 0.00 in0.0 mm
04:25 AM 53.0°F11.7°C 48.9°F9.4°C 86% 2.6 mph ENE4.2 kmh ENE 7.0 mph11.3 kmh 29.15 in987.1 mb 0.00 in0.0 mm 0.00 in0.0 mm 0.00 in0.0 mm
04:26 AM 52.9°F11.6°C 49.1°F9.5°C 87% 3.2 mph ENE5.1 kmh ENE 4.0 mph6.4 kmh 29.15 in987.1 mb 0.00 in0.0 mm 0.00 in0.0 mm 0.00 in0.0 mm
04:27 AM 52.9°F11.6°C 49.1°F9.5°C 87% 3.0 mph ENE4.8 kmh ENE 4.0 mph6.4 kmh 29.15 in987.1 mb 0.00 in0.0 mm 0.00 in0.0 mm 0.00 in0.0 mm
04:28 AM 52.8°F11.6°C 49.0°F9.4°C 87% 4.3 mph ENE6.9 kmh ENE 6.0 mph9.7 kmh 29.15 in987.1 mb 0.00 in0.0 mm 0.00 in0.0 mm 0.00 in0.0 mm
04:29 AM 52.8°F11.6°C 49.0°F9.4°C 87% 3.0 mph ENE4.8 kmh ENE 6.0 mph9.7 kmh 29.15 in987.1 mb 0.00 in0.0 mm 0.00 in0.0 mm 0.00 in0.0 mm
04:30 AM 52.7°F11.5°C 48.9°F9.4°C 87% 3.4 mph ENE5.5 kmh ENE 4.0 mph6.4 kmh 29.15 in987.1 mb 0.00 in0.0 mm 0.00 in0.0 mm 0.00 in0.0 mm
04:31 AM 52.6°F11.4°C 48.8°F9.3°C 87% 3.3 mph ENE5.3 kmh ENE 4.0 mph6.4 kmh 29.15 in987.1 mb 0.00 in0.0 mm 0.00 in0.0 mm 0.00 in0.0 mm
04:32 AM 52.7°F11.5°C 48.9°F9.4°C 87% 3.9 mph ENE6.3 kmh ENE 5.0 mph8.0 kmh 29.15 in987.1 mb 0.00 in0.0 mm 0.00 in0.0 mm 0.00 in0.0 mm
04:33 AM 52.6°F11.4°C 49.1°F9.5°C 88% 3.7 mph NE6.0 kmh NE 5.0 mph8.0 kmh 29.15 in987.1 mb 0.00 in0.0 mm 0.00 in0.0 mm 0.00 in0.0 mm
04:34 AM 52.6°F11.4°C 49.1°F9.5°C 88% 3.1 mph NE5.0 kmh NE 4.0 mph6.4 kmh 29.15 in987.1 mb 0.00 in0.0 mm 0.00 in0.0 mm 0.00 in0.0 mm
04:35 AM 52.6°F11.4°C 49.1°F9.5°C 88% 2.6 mph NE4.2 kmh NE 4.0 mph6.4 kmh 29.15 in987.1 mb 0.00 in0.0 mm 0.00 in0.0 mm 0.00 in0.0 mm
04:36 AM 52.6°F11.4°C 48.8°F9.3°C 87% 2.7 mph NE4.3 kmh NE 3.0 mph4.8 kmh 29.15 in987.1 mb 0.00 in0.0 mm 0.00 in0.0 mm 0.00 in0.0 mm
04:37 AM 52.6°F11.4°C 48.8°F9.3°C 87% 3.1 mph NE5.0 kmh NE 4.0 mph6.4 kmh 29.15 in987.1 mb 0.00 in0.0 mm 0.00 in0.0 mm 0.00 in0.0 mm
04:38 AM 52.6°F11.4°C 48.8°F9.3°C 87% 3.0 mph NE4.8 kmh NE 4.0 mph6.4 kmh 29.15 in987.1 mb 0.00 in0.0 mm 0.00 in0.0 mm 0.00 in0.0 mm
04:39 AM 52.6°F11.4°C 49.1°F9.5°C 88% 2.9 mph NE4.7 kmh NE 4.0 mph6.4 kmh 29.15 in987.1 mb 0.00 in0.0 mm 0.00 in0.0 mm 0.00 in0.0 mm
04:40 AM 52.6°F11.4°C 49.1°F9.5°C 88% 2.7 mph NE4.3 kmh NE 4.0 mph6.4 kmh 29.15 in987.1 mb 0.00 in0.0 mm 0.00 in0.0 mm 0.00 in0.0 mm
04:41 AM 52.6°F11.4°C 49.1°F9.5°C 88% 2.2 mph NE3.5 kmh NE 4.0 mph6.4 kmh 29.15 in987.1 mb 0.00 in0.0 mm 0.00 in0.0 mm 0.00 in0.0 mm
04:42 AM 52.6°F11.4°C 49.1°F9.5°C 88% 2.4 mph NE3.9 kmh NE 3.0 mph4.8 kmh 29.15 in987.1 mb 0.00 in0.0 mm 0.00 in0.0 mm 0.00 in0.0 mm
04:43 AM 52.6°F11.4°C 49.1°F9.5°C 88% 2.0 mph NE3.2 kmh NE 3.0 mph4.8 kmh 29.16 in987.5 mb 0.00 in0.0 mm 0.00 in0.0 mm 0.00 in0.0 mm
04:44 AM 52.6°F11.4°C 49.1°F9.5°C 88% 1.5 mph NE2.4 kmh NE 3.0 mph4.8 kmh 29.15 in987.1 mb 0.00 in0.0 mm 0.00 in0.0 mm 0.00 in0.0 mm
04:45 AM 52.5°F11.4°C 49.0°F9.4°C 88% 2.6 mph NE4.2 kmh NE 4.0 mph6.4 kmh 29.15 in987.1 mb 0.00 in0.0 mm 0.00 in0.0 mm 0.00 in0.0 mm
04:46 AM 52.5°F11.4°C 49.0°F9.4°C 88% 2.8 mph N4.5 kmh N 4.0 mph6.4 kmh 29.16 in987.5 mb 0.00 in0.0 mm 0.00 in0.0 mm 0.00 in0.0 mm
04:47 AM 52.5°F11.4°C 49.0°F9.4°C 88% 4.1 mph N6.6 kmh N 5.0 mph8.0 kmh 29.16 in987.5 mb 0.00 in0.0 mm 0.00 in0.0 mm 0.00 in0.0 mm
04:48 AM 52.5°F11.4°C 49.0°F9.4°C 88% 3.4 mph N5.5 kmh N 5.0 mph8.0 kmh 29.15 in987.1 mb 0.00 in0.0 mm 0.00 in0.0 mm 0.00 in0.0 mm
04:49 AM 52.5°F11.4°C 49.4°F9.7°C 89% 3.5 mph NNW5.6 kmh NNW 5.0 mph8.0 kmh 29.16 in987.5 mb 0.00 in0.0 mm 0.00 in0.0 mm 0.00 in0.0 mm
04:50 AM 52.6°F11.4°C 49.5°F9.7°C 89% 3.5 mph N5.6 kmh N 5.0 mph8.0 kmh 29.16 in987.5 mb 0.00 in0.0 mm 0.00 in0.0 mm 0.00 in0.0 mm
04:51 AM 52.6°F11.4°C 49.5°F9.7°C 89% 3.9 mph N6.3 kmh N 6.0 mph9.7 kmh 29.16 in987.5 mb 0.00 in0.0 mm 0.00 in0.0 mm 0.00 in0.0 mm
04:52 AM 52.6°F11.4°C 49.8°F9.9°C 90% 2.9 mph NNE4.7 kmh NNE 6.0 mph9.7 kmh 29.16 in987.5 mb 0.00 in0.0 mm 0.00 in0.0 mm 0.00 in0.0 mm
04:53 AM 52.6°F11.4°C 49.5°F9.7°C 89% 2.9 mph NNE4.7 kmh NNE 5.0 mph8.0 kmh 29.16 in987.5 mb 0.00 in0.0 mm 0.00 in0.0 mm 0.00 in0.0 mm
04:54 AM 52.6°F11.4°C 49.5°F9.7°C 89% 2.3 mph NNE3.7 kmh NNE 5.0 mph8.0 kmh 29.16 in987.5 mb 0.00 in0.0 mm 0.00 in0.0 mm 0.00 in0.0 mm
04:55 AM 52.6°F11.4°C 49.5°F9.7°C 89% 2.4 mph N3.9 kmh N 4.0 mph6.4 kmh 29.16 in987.5 mb 0.00 in0.0 mm 0.00 in0.0 mm 0.00 in0.0 mm
04:56 AM 52.6°F11.4°C 49.5°F9.7°C 89% 3.3 mph NNE5.3 kmh NNE 4.0 mph6.4 kmh 29.16 in987.5 mb 0.00 in0.0 mm 0.00 in0.0 mm 0.00 in0.0 mm
04:57 AM 52.6°F11.4°C 49.5°F9.7°C 89% 3.0 mph NNE4.8 kmh NNE 4.0 mph6.4 kmh 29.16 in987.5 mb 0.00 in0.0 mm 0.00 in0.0 mm 0.00 in0.0 mm
04:58 AM 52.6°F11.4°C 49.5°F9.7°C 89% 2.7 mph NNE4.3 kmh NNE 5.0 mph8.0 kmh 29.16 in987.5 mb 0.00 in0.0 mm 0.00 in0.0 mm 0.00 in0.0 mm
04:59 AM 52.6°F11.4°C 49.5°F9.7°C 89% 4.5 mph NNE7.2 kmh NNE 7.0 mph11.3 kmh 29.16 in987.5 mb 0.00 in0.0 mm 0.00 in0.0 mm 0.00 in0.0 mm
05:00 AM 52.6°F11.4°C 49.5°F9.7°C 89% 3.2 mph NNE5.1 kmh NNE 7.0 mph11.3 kmh 29.16 in987.5 mb 0.00 in0.0 mm 0.00 in0.0 mm 0.00 in0.0 mm
05:01 AM 52.5°F11.4°C 49.4°F9.7°C 89% 2.6 mph NNE4.2 kmh NNE 5.0 mph8.0 kmh 29.16 in987.5 mb 0.00 in0.0 mm 0.00 in0.0 mm 0.00 in0.0 mm
05:02 AM 52.6°F11.4°C 49.5°F9.7°C 89% 1.9 mph N3.1 kmh N 5.0 mph8.0 kmh 29.16 in987.5 mb 0.00 in0.0 mm 0.00 in0.0 mm 0.00 in0.0 mm
05:03 AM 52.6°F11.4°C 49.5°F9.7°C 89% 2.4 mph N3.9 kmh N 4.0 mph6.4 kmh 29.16 in987.5 mb 0.00 in0.0 mm 0.00 in0.0 mm 0.00 in0.0 mm
05:04 AM 52.5°F11.4°C 49.4°F9.7°C 89% 2.2 mph N3.5 kmh N 4.0 mph6.4 kmh 29.16 in987.5 mb 0.00 in0.0 mm 0.00 in0.0 mm 0.00 in0.0 mm
05:05 AM 52.5°F11.4°C 49.4°F9.7°C 89% 3.2 mph N5.1 kmh N 5.0 mph8.0 kmh 29.16 in987.5 mb 0.00 in0.0 mm 0.00 in0.0 mm 0.00 in0.0 mm
05:06 AM 52.5°F11.4°C 49.4°F9.7°C 89% 4.9 mph NW7.9 kmh NW 6.0 mph9.7 kmh 29.16 in987.5 mb 0.00 in0.0 mm 0.00 in0.0 mm 0.00 in0.0 mm
05:07 AM 52.5°F11.4°C 49.7°F9.8°C 90% 5.6 mph NW9.0 kmh NW 8.0 mph12.9 kmh 29.16 in987.5 mb 0.00 in0.0 mm 0.00 in0.0 mm 0.00 in0.0 mm
05:08 AM 52.6°F11.4°C 50.0°F10.0°C 91% 4.1 mph NNW6.6 kmh NNW 8.0 mph12.9 kmh 29.16 in987.5 mb 0.00 in0.0 mm 0.00 in0.0 mm 0.00 in0.0 mm
05:09 AM 52.7°F11.5°C 50.1°F10.1°C 91% 3.2 mph NNW5.1 kmh NNW 7.0 mph11.3 kmh 29.16 in987.5 mb 0.00 in0.0 mm 0.00 in0.0 mm 0.00 in0.0 mm
05:10 AM 52.8°F11.6°C 50.2°F10.1°C 91% 6.2 mph NNW10.0 kmh NNW 9.0 mph14.5 kmh 29.16 in987.5 mb 0.00 in0.0 mm 0.00 in0.0 mm 0.00 in0.0 mm
05:11 AM 52.9°F11.6°C 50.6°F10.3°C 92% 6.2 mph NW10.0 kmh NW 9.0 mph14.5 kmh 29.16 in987.5 mb 0.00 in0.0 mm 0.00 in0.0 mm 0.00 in0.0 mm
05:12 AM 53.2°F11.8°C 50.9°F10.5°C 92% 6.2 mph NW10.0 kmh NW 8.0 mph12.9 kmh 29.16 in987.5 mb 0.00 in0.0 mm 0.00 in0.0 mm 0.00 in0.0 mm
05:13 AM 53.4°F11.9°C 51.4°F10.8°C 93% 5.9 mph NW9.5 kmh NW 8.0 mph12.9 kmh 29.16 in987.5 mb 0.00 in0.0 mm 0.00 in0.0 mm 0.00 in0.0 mm
05:14 AM 53.5°F11.9°C 51.2°F10.7°C 92% 4.8 mph NNW7.7 kmh NNW 8.0 mph12.9 kmh 29.16 in987.5 mb 0.00 in0.0 mm 0.00 in0.0 mm 0.00 in0.0 mm
05:15 AM 53.6°F12.0°C 51.3°F10.7°C 92% 4.1 mph NNW6.6 kmh NNW 6.0 mph9.7 kmh 29.16 in987.5 mb 0.00 in0.0 mm 0.00 in0.0 mm 0.00 in0.0 mm
05:16 AM 53.7°F12.1°C 51.1°F10.6°C 91% 5.2 mph NW8.4 kmh NW 6.0 mph9.7 kmh 29.16 in987.5 mb 0.00 in0.0 mm 0.00 in0.0 mm 0.00 in0.0 mm
05:17 AM 53.8°F12.1°C 51.2°F10.7°C 91% 2.9 mph NNW4.7 kmh NNW 6.0 mph9.7 kmh 29.16 in987.5 mb 0.00 in0.0 mm 0.00 in0.0 mm 0.00 in0.0 mm
05:18 AM 53.9°F12.2°C 51.3°F10.7°C 91% 4.3 mph NNW6.9 kmh NNW 6.0 mph9.7 kmh 29.16 in987.5 mb 0.00 in0.0 mm 0.00 in0.0 mm 0.00 in0.0 mm
05:19 AM 53.9°F12.2°C 51.3°F10.7°C 91% 4.3 mph N6.9 kmh N 6.0 mph9.7 kmh 29.16 in987.5 mb 0.00 in0.0 mm 0.00 in0.0 mm 0.00 in0.0 mm
05:20 AM 54.0°F12.2°C 51.4°F10.8°C 91% 4.2 mph NW6.8 kmh NW 6.0 mph9.7 kmh 29.16 in987.5 mb 0.00 in0.0 mm 0.00 in0.0 mm 0.00 in0.0 mm
05:21 AM 54.1°F12.3°C 51.8°F11.0°C 92% 4.0 mph NNW6.4 kmh NNW 5.0 mph8.0 kmh 29.16 in987.5 mb 0.00 in0.0 mm 0.00 in0.0 mm 0.00 in0.0 mm
05:22 AM 54.3°F12.4°C 51.7°F10.9°C 91% 2.4 mph N3.9 kmh N 4.0 mph6.4 kmh 29.16 in987.5 mb 0.00 in0.0 mm 0.00 in0.0 mm 0.00 in0.0 mm
05:23 AM 54.3°F12.4°C 51.4°F10.8°C 90% 2.1 mph NE3.4 kmh NE 3.0 mph4.8 kmh 29.16 in987.5 mb 0.00 in0.0 mm 0.00 in0.0 mm 0.00 in0.0 mm
05:24 AM 54.3°F12.4°C 51.4°F10.8°C 90% 1.8 mph NE2.9 kmh NE 3.0 mph4.8 kmh 29.16 in987.5 mb 0.00 in0.0 mm 0.00 in0.0 mm 0.00 in0.0 mm
05:25 AM 54.3°F12.4°C 51.4°F10.8°C 90% 2.4 mph NNE3.9 kmh NNE 4.0 mph6.4 kmh 29.16 in987.5 mb 0.00 in0.0 mm 0.00 in0.0 mm 0.00 in0.0 mm
05:26 AM 54.3°F12.4°C 51.1°F10.6°C 89% 2.5 mph N4.0 kmh N 4.0 mph6.4 kmh 29.16 in987.5 mb 0.00 in0.0 mm 0.00 in0.0 mm 0.00 in0.0 mm
05:27 AM 54.2°F12.3°C 51.3°F10.7°C 90% 5.2 mph NNW8.4 kmh NNW 8.0 mph12.9 kmh 29.16 in987.5 mb 0.00 in0.0 mm 0.00 in0.0 mm 0.00 in0.0 mm
05:28 AM 54.4°F12.4°C 51.8°F11.0°C 91% 4.7 mph NW7.6 kmh NW 8.0 mph12.9 kmh 29.16 in987.5 mb 0.00 in0.0 mm 0.00 in0.0 mm 0.00 in0.0 mm
05:29 AM 54.6°F12.6°C 52.0°F11.1°C 91% 8.8 mph NW14.2 kmh NW 11.0 mph17.7 kmh 29.16 in987.5 mb 0.00 in0.0 mm 0.00 in0.0 mm 0.00 in0.0 mm
05:30 AM 54.8°F12.7°C 52.2°F11.2°C 91% 6.9 mph NW11.1 kmh NW 11.0 mph17.7 kmh 29.16 in987.5 mb 0.00 in0.0 mm 0.00 in0.0 mm 0.00 in0.0 mm
05:31 AM 55.1°F12.8°C 52.5°F11.4°C 91% 8.0 mph NW12.9 kmh NW 9.0 mph14.5 kmh 29.16 in987.5 mb 0.00 in0.0 mm 0.00 in0.0 mm 0.00 in0.0 mm
05:32 AM 55.2°F12.9°C 52.3°F11.3°C 90% 8.5 mph NW13.7 kmh NW 9.0 mph14.5 kmh 29.16 in987.5 mb 0.00 in0.0 mm 0.00 in0.0 mm 0.00 in0.0 mm
05:33 AM 55.5°F13.1°C 52.3°F11.3°C 89% 9.3 mph NW15.0 kmh NW 11.0 mph17.7 kmh 29.16 in987.5 mb 0.00 in0.0 mm 0.00 in0.0 mm 0.00 in0.0 mm
05:34 AM 55.6°F13.1°C 52.7°F11.5°C 90% 9.5 mph NW15.3 kmh NW 11.0 mph17.7 kmh 29.16 in987.5 mb 0.00 in0.0 mm 0.00 in0.0 mm 0.00 in0.0 mm
05:35 AM 55.7°F13.2°C 52.5°F11.4°C 89% 9.4 mph NW15.1 kmh NW 11.0 mph17.7 kmh 29.16 in987.5 mb 0.00 in0.0 mm 0.00 in0.0 mm 0.00 in0.0 mm
05:36 AM 55.8°F13.2°C 52.6°F11.4°C 89% 8.5 mph NW13.7 kmh NW 10.0 mph16.1 kmh 29.16 in987.5 mb 0.00 in0.0 mm 0.00 in0.0 mm 0.00 in0.0 mm
05:37 AM 55.8°F13.2°C 52.6°F11.4°C 89% 6.2 mph NW10.0 kmh NW 10.0 mph16.1 kmh 29.17 in987.8 mb 0.00 in0.0 mm 0.00 in0.0 mm 0.00 in0.0 mm
05:38 AM 55.9°F13.3°C 52.7°F11.5°C 89% 8.4 mph NW13.5 kmh NW 11.0 mph17.7 kmh 29.16 in987.5 mb 0.00 in0.0 mm 0.00 in0.0 mm 0.00 in0.0 mm
05:39 AM 55.9°F13.3°C 52.7°F11.5°C 89% 7.7 mph NW12.4 kmh NW 11.0 mph17.7 kmh 29.17 in987.8 mb 0.00 in0.0 mm 0.00 in0.0 mm 0.00 in0.0 mm
05:40 AM 55.8°F13.2°C 52.6°F11.4°C 89% 8.5 mph NW13.7 kmh NW 10.0 mph16.1 kmh 29.17 in987.8 mb 0.00 in0.0 mm 0.00 in0.0 mm 0.00 in0.0 mm
05:41 AM 55.8°F13.2°C 52.3°F11.3°C 88% 9.4 mph NW15.1 kmh NW 10.0 mph16.1 kmh 29.17 in987.8 mb 0.00 in0.0 mm 0.00 in0.0 mm 0.00 in0.0 mm
05:42 AM 55.8°F13.2°C 52.3°F11.3°C 88% 8.5 mph NW13.7 kmh NW 10.0 mph16.1 kmh 29.17 in987.8 mb 0.00 in0.0 mm 0.00 in0.0 mm 0.00 in0.0 mm
05:43 AM 55.7°F13.2°C 52.2°F11.2°C 88% 8.4 mph NW13.5 kmh NW 10.0 mph16.1 kmh 29.17 in987.8 mb 0.00 in0.0 mm 0.00 in0.0 mm 0.00 in0.0 mm
05:44 AM 55.8°F13.2°C 52.3°F11.3°C 88% 8.0 mph NW12.9 kmh NW 10.0 mph16.1 kmh 29.17 in987.8 mb 0.00 in0.0 mm 0.00 in0.0 mm 0.00 in0.0 mm
05:45 AM 55.8°F13.2°C 52.3°F11.3°C 88% 8.3 mph NW13.4 kmh NW 10.0 mph16.1 kmh 29.17 in987.8 mb 0.00 in0.0 mm 0.00 in0.0 mm 0.00 in0.0 mm
05:46 AM 55.9°F13.3°C 52.4°F11.3°C 88% 7.5 mph NNW12.1 kmh NNW 11.0 mph17.7 kmh 29.17 in987.8 mb 0.00 in0.0 mm 0.00 in0.0 mm 0.00 in0.0 mm
05:47 AM 55.9°F13.3°C 52.4°F11.3°C 88% 10.4 mph N16.7 kmh N 12.0 mph19.3 kmh 29.17 in987.8 mb 0.00 in0.0 mm 0.00 in0.0 mm 0.00 in0.0 mm
05:48 AM 56.0°F13.3°C 52.2°F11.2°C 87% 10.4 mph N16.7 kmh N 12.0 mph19.3 kmh 29.17 in987.8 mb 0.00 in0.0 mm 0.00 in0.0 mm 0.00 in0.0 mm
05:49 AM 56.0°F13.3°C 52.2°F11.2°C 87% 9.1 mph N14.6 kmh N 11.0 mph17.7 kmh 29.17 in987.8 mb 0.00 in0.0 mm 0.00 in0.0 mm 0.00 in0.0 mm
05:50 AM 56.1°F13.4°C 52.3°F11.3°C 87% 8.1 mph N13.0 kmh N 10.0 mph16.1 kmh 29.17 in987.8 mb 0.00 in0.0 mm 0.00 in0.0 mm 0.00 in0.0 mm
05:51 AM 56.1°F13.4°C 52.3°F11.3°C 87% 4.5 mph NE7.2 kmh NE 10.0 mph16.1 kmh 29.17 in987.8 mb 0.00 in0.0 mm 0.00 in0.0 mm 0.00 in0.0 mm
05:52 AM 56.1°F13.4°C 52.3°F11.3°C 87% 3.6 mph NE5.8 kmh NE 6.0 mph9.7 kmh 29.17 in987.8 mb 0.00 in0.0 mm 0.00 in0.0 mm 0.00 in0.0 mm
05:53 AM 56.0°F13.3°C 52.2°F11.2°C 87% 4.1 mph NE6.6 kmh NE 5.0 mph8.0 kmh 29.17 in987.8 mb 0.00 in0.0 mm 0.00 in0.0 mm 0.00 in0.0 mm
05:54 AM 56.0°F13.3°C 51.9°F11.1°C 86% 2.2 mph NE3.5 kmh NE 5.0 mph8.0 kmh 29.17 in987.8 mb 0.00 in0.0 mm 0.00 in0.0 mm 0.00 in0.0 mm
05:55 AM 55.9°F13.3°C 51.8°F11.0°C 86% 3.2 mph NNE5.1 kmh NNE 5.0 mph8.0 kmh 29.17 in987.8 mb 0.00 in0.0 mm 0.00 in0.0 mm 0.00 in0.0 mm
05:56 AM 55.8°F13.2°C 51.7°F10.9°C 86% 4.3 mph N6.9 kmh N 8.0 mph12.9 kmh 29.17 in987.8 mb 0.00 in0.0 mm 0.00 in0.0 mm 0.00 in0.0 mm
05:57 AM 55.7°F13.2°C 51.6°F10.9°C 86% 9.7 mph 15.6 kmh 11.0 mph17.7 kmh 29.17 in987.8 mb 0.00 in0.0 mm 0.00 in0.0 mm 0.00 in0.0 mm
05:58 AM 55.7°F13.2°C 51.6°F10.9°C 86% 9.4 mph N15.1 kmh N 11.0 mph17.7 kmh 29.17 in987.8 mb 0.00 in0.0 mm 0.00 in0.0 mm 0.00 in0.0 mm
05:59 AM 55.7°F13.2°C 51.9°F11.1°C 87% 6.3 mph NNE10.1 kmh NNE 11.0 mph17.7 kmh 29.17 in987.8 mb 0.00 in0.0 mm 0.00 in0.0 mm 0.00 in0.0 mm
06:00 AM 55.6°F13.1°C 51.8°F11.0°C 87% 7.4 mph N11.9 kmh N 9.0 mph14.5 kmh 29.17 in987.8 mb 0.00 in0.0 mm 0.00 in0.0 mm 0.00 in0.0 mm
06:01 AM 55.6°F13.1°C 51.8°F11.0°C 87% 7.9 mph N12.7 kmh N 12.0 mph19.3 kmh 29.17 in987.8 mb 0.00 in0.0 mm 0.00 in0.0 mm 0.00 in0.0 mm
06:02 AM 55.5°F13.1°C 51.4°F10.8°C 86% 5.3 mph N8.5 kmh N 12.0 mph19.3 kmh 29.17 in987.8 mb 0.00 in0.0 mm 0.00 in0.0 mm 0.00 in0.0 mm
06:03 AM 55.4°F13.0°C 51.3°F10.7°C 86% 4.9 mph N7.9 kmh N 8.0 mph12.9 kmh 29.17 in987.8 mb 0.00 in0.0 mm 0.00 in0.0 mm 0.00 in0.0 mm
06:04 AM 55.3°F12.9°C 51.2°F10.7°C 86% 3.0 mph NNE4.8 kmh NNE 8.0 mph12.9 kmh 29.18 in988.1 mb 0.00 in0.0 mm 0.00 in0.0 mm 0.00 in0.0 mm
06:05 AM 55.3°F12.9°C 51.2°F10.7°C 86% 5.0 mph NNE8.0 kmh NNE 7.0 mph11.3 kmh 29.18 in988.1 mb 0.00 in0.0 mm 0.00 in0.0 mm 0.00 in0.0 mm
06:06 AM 55.1°F12.8°C 51.0°F10.6°C 86% 3.8 mph NNE6.1 kmh NNE 7.0 mph11.3 kmh 29.18 in988.1 mb 0.00 in0.0 mm 0.00 in0.0 mm 0.00 in0.0 mm
06:07 AM 55.0°F12.8°C 50.9°F10.5°C 86% 5.8 mph NNE9.3 kmh NNE 10.0 mph16.1 kmh 29.18 in988.1 mb 0.00 in0.0 mm 0.00 in0.0 mm 0.00 in0.0 mm
06:08 AM 55.0°F12.8°C 51.2°F10.7°C 87% 9.8 mph N15.8 kmh N 11.0 mph17.7 kmh 29.18 in988.1 mb 0.00 in0.0 mm 0.00 in0.0 mm 0.00 in0.0 mm
06:09 AM 55.0°F12.8°C 51.2°F10.7°C 87% 9.0 mph N14.5 kmh N 11.0 mph17.7 kmh 29.18 in988.1 mb 0.00 in0.0 mm 0.00 in0.0 mm 0.00 in0.0 mm
06:10 AM 55.2°F12.9°C 51.4°F10.8°C 87% 8.9 mph N14.3 kmh N 10.0 mph16.1 kmh 29.18 in988.1 mb 0.00 in0.0 mm 0.00 in0.0 mm 0.00 in0.0 mm
06:11 AM 55.4°F13.0°C 51.6°F10.9°C 87% 9.8 mph N15.8 kmh N 11.0 mph17.7 kmh 29.18 in988.1 mb 0.00 in0.0 mm 0.00 in0.0 mm 0.00 in0.0 mm
06:12 AM 55.6°F13.1°C 51.5°F10.8°C 86% 8.9 mph N14.3 kmh N 11.0 mph17.7 kmh 29.18 in988.1 mb 0.00 in0.0 mm 0.00 in0.0 mm 0.00 in0.0 mm
06:13 AM 55.7°F13.2°C 51.6°F10.9°C 86% 9.1 mph N14.6 kmh N 10.0 mph16.1 kmh 29.18 in988.1 mb 0.00 in0.0 mm 0.00 in0.0 mm 0.00 in0.0 mm
06:14 AM 55.9°F13.3°C 51.8°F11.0°C 86% 8.3 mph N13.4 kmh N 10.0 mph16.1 kmh 29.18 in988.1 mb 0.00 in0.0 mm 0.00 in0.0 mm 0.00 in0.0 mm
06:15 AM 55.9°F13.3°C 51.5°F10.8°C 85% 8.3 mph N13.4 kmh N 10.0 mph16.1 kmh 29.18 in988.1 mb 0.00 in0.0 mm 0.00 in0.0 mm 0.00 in0.0 mm
06:16 AM 56.0°F13.3°C 51.6°F10.9°C 85% 7.7 mph NNE12.4 kmh NNE 10.0 mph16.1 kmh 29.18 in988.1 mb 0.00 in0.0 mm 0.00 in0.0 mm 0.00 in0.0 mm
06:17 AM 56.0°F13.3°C 51.2°F10.7°C 84% 7.5 mph N12.1 kmh N 9.0 mph14.5 kmh 29.18 in988.1 mb 0.00 in0.0 mm 0.00 in0.0 mm 0.00 in0.0 mm
06:18 AM 56.1°F13.4°C 51.7°F10.9°C 85% 7.2 mph NNE11.6 kmh NNE 9.0 mph14.5 kmh 29.18 in988.1 mb 0.00 in0.0 mm 0.00 in0.0 mm 0.00 in0.0 mm
06:19 AM 56.1°F13.4°C 51.3°F10.7°C 84% 6.8 mph NNE10.9 kmh NNE 9.0 mph14.5 kmh 29.18 in988.1 mb 0.00 in0.0 mm 0.00 in0.0 mm 0.00 in0.0 mm
06:20 AM 56.0°F13.3°C 51.2°F10.7°C 84% 2.2 mph NNE3.5 kmh NNE 9.0 mph14.5 kmh 29.18 in988.1 mb 0.00 in0.0 mm 0.00 in0.0 mm 0.00 in0.0 mm
06:21 AM 55.9°F13.3°C 51.1°F10.6°C 84% 2.4 mph ENE3.9 kmh ENE 5.0 mph8.0 kmh 29.18 in988.1 mb 0.00 in0.0 mm 0.00 in0.0 mm 0.00 in0.0 mm
06:22 AM 55.9°F13.3°C 51.1°F10.6°C 84% 2.3 mph ENE3.7 kmh ENE 4.0 mph6.4 kmh 29.18 in988.1 mb 0.00 in0.0 mm 0.00 in0.0 mm 0.00 in0.0 mm
06:23 AM 55.7°F13.2°C 50.9°F10.5°C 84% 2.4 mph NE3.9 kmh NE 4.0 mph6.4 kmh 29.18 in988.1 mb 0.00 in0.0 mm 0.00 in0.0 mm 0.00 in0.0 mm
06:24 AM 55.6°F13.1°C 50.8°F10.4°C 84% 2.3 mph NE3.7 kmh NE 4.0 mph6.4 kmh 29.18 in988.1 mb 0.00 in0.0 mm 0.00 in0.0 mm 0.00 in0.0 mm
06:25 AM 55.5°F13.1°C 50.7°F10.4°C 84% 2.1 mph ENE3.4 kmh ENE 3.0 mph4.8 kmh 29.18 in988.1 mb 0.00 in0.0 mm 0.00 in0.0 mm 0.00 in0.0 mm
06:26 AM 55.4°F13.0°C 51.0°F10.6°C 85% 3.1 mph NNW5.0 kmh NNW 4.0 mph6.4 kmh 29.18 in988.1 mb 0.00 in0.0 mm 0.00 in0.0 mm 0.00 in0.0 mm
06:27 AM 55.3°F12.9°C 51.2°F10.7°C 86% 3.0 mph W4.8 kmh W 4.0 mph6.4 kmh 29.18 in988.1 mb 0.00 in0.0 mm 0.00 in0.0 mm 0.00 in0.0 mm
06:28 AM 55.2°F12.9°C 51.4°F10.8°C 87% 3.2 mph W5.1 kmh W 4.0 mph6.4 kmh 29.18 in988.1 mb 0.00 in0.0 mm 0.00 in0.0 mm 0.00 in0.0 mm
06:29 AM 55.2°F12.9°C 51.4°F10.8°C 87% 3.3 mph W5.3 kmh W 4.0 mph6.4 kmh 29.18 in988.1 mb 0.00 in0.0 mm 0.00 in0.0 mm 0.00 in0.0 mm
06:30 AM 55.2°F12.9°C 51.7°F10.9°C 88% 3.1 mph WNW5.0 kmh WNW 4.0 mph6.4 kmh 29.18 in988.1 mb 0.00 in0.0 mm 0.00 in0.0 mm 0.00 in0.0 mm
06:31 AM 55.2°F12.9°C 51.7°F10.9°C 88% 3.8 mph WNW6.1 kmh WNW 5.0 mph8.0 kmh 29.18 in988.1 mb 0.00 in0.0 mm 0.00 in0.0 mm 0.00 in0.0 mm
06:32 AM 55.1°F12.8°C 51.6°F10.9°C 88% 5.0 mph WNW8.0 kmh WNW 7.0 mph11.3 kmh 29.18 in988.1 mb 0.00 in0.0 mm 0.00 in0.0 mm 0.00 in0.0 mm
06:33 AM 55.1°F12.8°C 51.6°F10.9°C 88% 5.3 mph WNW8.5 kmh WNW 7.0 mph11.3 kmh 29.18 in988.1 mb 0.00 in0.0 mm 0.00 in0.0 mm 0.00 in0.0 mm
06:34 AM 55.0°F12.8°C 51.5°F10.8°C 88% 5.2 mph W8.4 kmh W 7.0 mph11.3 kmh 29.18 in988.1 mb 0.00 in0.0 mm 0.00 in0.0 mm 0.00 in0.0 mm
06:35 AM 55.0°F12.8°C 51.5°F10.8°C 88% 4.1 mph WNW6.6 kmh WNW 7.0 mph11.3 kmh 29.18 in988.1 mb 0.00 in0.0 mm 0.00 in0.0 mm 0.00 in0.0 mm
06:36 AM 55.0°F12.8°C 51.5°F10.8°C 88% 4.8 mph WNW7.7 kmh WNW 6.0 mph9.7 kmh 29.18 in988.1 mb 0.00 in0.0 mm 0.00 in0.0 mm 0.00 in0.0 mm
06:37 AM 55.0°F12.8°C 51.5°F10.8°C 88% 5.0 mph WNW8.0 kmh WNW 7.0 mph11.3 kmh 29.18 in988.1 mb 0.00 in0.0 mm 0.00 in0.0 mm 0.00 in0.0 mm
06:38 AM 55.0°F12.8°C 51.8°F11.0°C 89% 4.7 mph WNW7.6 kmh WNW 7.0 mph11.3 kmh 29.18 in988.1 mb 0.00 in0.0 mm 0.00 in0.0 mm 0.00 in0.0 mm
06:39 AM 55.1°F12.8°C 51.9°F11.1°C 89% 5.1 mph WNW8.2 kmh WNW 7.0 mph11.3 kmh 29.18 in988.1 mb 0.00 in0.0 mm 0.00 in0.0 mm 0.00 in0.0 mm
06:40 AM 55.1°F12.8°C 51.9°F11.1°C 89% 6.0 mph WNW9.7 kmh WNW 8.0 mph12.9 kmh 29.18 in988.1 mb 0.00 in0.0 mm 0.00 in0.0 mm 0.00 in0.0 mm
06:41 AM 55.2°F12.9°C 52.0°F11.1°C 89% 5.8 mph WNW9.3 kmh WNW 8.0 mph12.9 kmh 29.18 in988.1 mb 0.00 in0.0 mm 0.00 in0.0 mm 0.00 in0.0 mm
06:42 AM 55.3°F12.9°C 51.8°F11.0°C 88% 6.8 mph WNW10.9 kmh WNW 8.0 mph12.9 kmh 29.18 in988.1 mb 0.00 in0.0 mm 0.00 in0.0 mm 0.00 in0.0 mm
06:43 AM 55.4°F13.0°C 51.9°F11.1°C 88% 6.0 mph WNW9.7 kmh WNW 8.0 mph12.9 kmh 29.18 in988.1 mb 0.00 in0.0 mm 0.00 in0.0 mm 0.00 in0.0 mm
06:44 AM 55.4°F13.0°C 51.9°F11.1°C 88% 4.8 mph W7.7 kmh W 7.0 mph11.3 kmh 29.18 in988.1 mb 0.00 in0.0 mm 0.00 in0.0 mm 0.00 in0.0 mm
06:45 AM 55.4°F13.0°C 51.9°F11.1°C 88% 4.3 mph WNW6.9 kmh WNW 6.0 mph9.7 kmh 29.18 in988.1 mb 0.00 in0.0 mm 0.00 in0.0 mm 0.00 in0.0 mm
06:46 AM 55.4°F13.0°C 51.9°F11.1°C 88% 6.2 mph WNW10.0 kmh WNW 7.0 mph11.3 kmh 29.18 in988.1 mb 0.00 in0.0 mm 0.00 in0.0 mm 0.00 in0.0 mm
06:47 AM 55.4°F13.0°C 51.9°F11.1°C 88% 5.5 mph WNW8.9 kmh WNW 7.0 mph11.3 kmh 29.18 in988.1 mb 0.00 in0.0 mm 0.00 in0.0 mm 0.00 in0.0 mm
06:48 AM 55.4°F13.0°C 51.9°F11.1°C 88% 6.0 mph NW9.7 kmh NW 7.0 mph11.3 kmh 29.18 in988.1 mb 0.00 in0.0 mm 0.00 in0.0 mm 0.00 in0.0 mm
06:49 AM 55.4°F13.0°C 51.9°F11.1°C 88% 6.4 mph WNW10.3 kmh WNW 7.0 mph11.3 kmh 29.18 in988.1 mb 0.00 in0.0 mm 0.00 in0.0 mm 0.00 in0.0 mm
06:50 AM 55.5°F13.1°C 52.0°F11.1°C 88% 6.2 mph WNW10.0 kmh WNW 7.0 mph11.3 kmh 29.18 in988.1 mb 0.00 in0.0 mm 0.00 in0.0 mm 0.00 in0.0 mm
06:51 AM 55.5°F13.1°C 52.0°F11.1°C 88% 5.7 mph WNW9.2 kmh WNW 7.0 mph11.3 kmh 29.18 in988.1 mb 0.00 in0.0 mm 0.00 in0.0 mm 0.00 in0.0 mm
06:52 AM 55.4°F13.0°C 51.9°F11.1°C 88% 6.0 mph WNW9.7 kmh WNW 7.0 mph11.3 kmh 29.18 in988.1 mb 0.00 in0.0 mm 0.00 in0.0 mm 0.00 in0.0 mm
06:53 AM 55.4°F13.0°C 51.6°F10.9°C 87% 5.8 mph WNW9.3 kmh WNW 7.0 mph11.3 kmh 29.18 in988.1 mb 0.00 in0.0 mm 0.00 in0.0 mm 0.00 in0.0 mm
06:54 AM 55.4°F13.0°C 51.9°F11.1°C 88% 5.8 mph WNW9.3 kmh WNW 8.0 mph12.9 kmh 29.18 in988.1 mb 0.00 in0.0 mm 0.00 in0.0 mm 0.00 in0.0 mm
06:55 AM 55.4°F13.0°C 51.9°F11.1°C 88% 6.4 mph WNW10.3 kmh WNW 8.0 mph12.9 kmh 29.18 in988.1 mb 0.00 in0.0 mm 0.00 in0.0 mm 0.00 in0.0 mm
06:56 AM 55.4°F13.0°C 52.2°F11.2°C 89% 6.5 mph WNW10.5 kmh WNW 8.0 mph12.9 kmh 29.18 in988.1 mb 0.00 in0.0 mm 0.00 in0.0 mm 0.00 in0.0 mm
06:57 AM 55.3°F12.9°C 52.1°F11.2°C 89% 7.3 mph WNW11.7 kmh WNW 8.0 mph12.9 kmh 29.18 in988.1 mb 0.00 in0.0 mm 0.00 in0.0 mm 0.00 in0.0 mm
06:58 AM 55.3°F12.9°C 51.8°F11.0°C 88% 6.1 mph WNW9.8 kmh WNW 8.0 mph12.9 kmh 29.19 in988.5 mb 0.00 in0.0 mm 0.00 in0.0 mm 0.00 in0.0 mm
06:59 AM 55.3°F12.9°C 52.1°F11.2°C 89% 5.0 mph WNW8.0 kmh WNW 7.0 mph11.3 kmh 29.19 in988.5 mb 0.00 in0.0 mm 0.00 in0.0 mm 0.00 in0.0 mm
07:00 AM 55.3°F12.9°C 52.1°F11.2°C 89% 6.9 mph WNW11.1 kmh WNW 8.0 mph12.9 kmh 29.19 in988.5 mb 0.00 in0.0 mm 0.00 in0.0 mm 0.00 in0.0 mm
07:01 AM 55.3°F12.9°C 52.1°F11.2°C 89% 5.5 mph WNW8.9 kmh WNW 8.0 mph12.9 kmh 29.18 in988.1 mb 0.00 in0.0 mm 0.00 in0.0 mm 0.00 in0.0 mm
07:02 AM 55.4°F13.0°C 51.9°F11.1°C 88% 6.4 mph WNW10.3 kmh WNW 8.0 mph12.9 kmh 29.18 in988.1 mb 0.00 in0.0 mm 0.00 in0.0 mm 0.00 in0.0 mm
07:03 AM 55.3°F12.9°C 51.8°F11.0°C 88% 6.3 mph WNW10.1 kmh WNW 8.0 mph12.9 kmh 29.19 in988.5 mb 0.00 in0.0 mm 0.00 in0.0 mm 0.00 in0.0 mm
07:04 AM 55.4°F13.0°C 52.2°F11.2°C 89% 5.2 mph WNW8.4 kmh WNW 8.0 mph12.9 kmh 29.19 in988.5 mb 0.00 in0.0 mm 0.00 in0.0 mm 0.00 in0.0 mm
07:05 AM 55.4°F13.0°C 51.9°F11.1°C 88% 6.3 mph WNW10.1 kmh WNW 8.0 mph12.9 kmh 29.19 in988.5 mb 0.00 in0.0 mm 0.00 in0.0 mm 0.00 in0.0 mm
07:06 AM 55.4°F13.0°C 52.2°F11.2°C 89% 6.0 mph WNW9.7 kmh WNW 8.0 mph12.9 kmh 29.18 in988.1 mb 0.00 in0.0 mm 0.00 in0.0 mm 0.00 in0.0 mm
07:07 AM 55.4°F13.0°C 51.9°F11.1°C 88% 6.3 mph WNW10.1 kmh WNW 8.0 mph12.9 kmh 29.19 in988.5 mb 0.00 in0.0 mm 0.00 in0.0 mm 0.00 in0.0 mm
07:08 AM 55.5°F13.1°C 52.3°F11.3°C 89% 7.3 mph WNW11.7 kmh WNW 8.0 mph12.9 kmh 29.19 in988.5 mb 0.00 in0.0 mm 0.00 in0.0 mm 0.00 in0.0 mm
07:09 AM 55.4°F13.0°C 51.9°F11.1°C 88% 6.7 mph WNW10.8 kmh WNW 8.0 mph12.9 kmh 29.19 in988.5 mb 0.00 in0.0 mm 0.00 in0.0 mm 0.00 in0.0 mm
07:10 AM 55.4°F13.0°C 51.9°F11.1°C 88% 6.6 mph WNW10.6 kmh WNW 8.0 mph12.9 kmh 29.19 in988.5 mb 0.00 in0.0 mm 0.00 in0.0 mm 0.00 in0.0 mm
07:11 AM 55.4°F13.0°C 51.9°F11.1°C 88% 6.7 mph NW10.8 kmh NW 8.0 mph12.9 kmh 29.18 in988.1 mb 0.00 in0.0 mm 0.00 in0.0 mm 0.00 in0.0 mm
07:12 AM 55.4°F13.0°C 52.2°F11.2°C 89% 6.5 mph NW10.5 kmh NW 8.0 mph12.9 kmh 29.19 in988.5 mb 0.00 in0.0 mm 0.00 in0.0 mm 0.00 in0.0 mm
07:13 AM 55.4°F13.0°C 52.2°F11.2°C 89% 5.5 mph NW8.9 kmh NW 8.0 mph12.9 kmh 29.19 in988.5 mb 0.00 in0.0 mm 0.00 in0.0 mm 0.00 in0.0 mm
07:14 AM 55.4°F13.0°C 52.2°F11.2°C 89% 6.4 mph NW10.3 kmh NW 8.0 mph12.9 kmh 29.19 in988.5 mb 0.00 in0.0 mm 0.00 in0.0 mm 0.00 in0.0 mm
07:15 AM 55.4°F13.0°C 52.2°F11.2°C 89% 6.4 mph NW10.3 kmh NW 8.0 mph12.9 kmh 29.19 in988.5 mb 0.00 in0.0 mm 0.00 in0.0 mm 0.00 in0.0 mm
07:16 AM 55.4°F13.0°C 52.2°F11.2°C 89% 7.3 mph NW11.7 kmh NW 8.0 mph12.9 kmh 29.19 in988.5 mb 0.00 in0.0 mm 0.00 in0.0 mm 0.00 in0.0 mm
07:17 AM 55.4°F13.0°C 52.2°F11.2°C 89% 6.7 mph NW10.8 kmh NW 8.0 mph12.9 kmh 29.19 in988.5 mb 0.00 in0.0 mm 0.00 in0.0 mm 0.00 in0.0 mm
07:18 AM 55.5°F13.1°C 52.3°F11.3°C 89% 6.6 mph NW10.6 kmh NW 8.0 mph12.9 kmh 29.19 in988.5 mb 0.00 in0.0 mm 0.00 in0.0 mm 0.00 in0.0 mm
07:19 AM 55.5°F13.1°C 52.3°F11.3°C 89% 7.0 mph NW11.3 kmh NW 8.0 mph12.9 kmh 29.19 in988.5 mb 0.00 in0.0 mm 0.00 in0.0 mm 0.00 in0.0 mm
07:20 AM 55.5°F13.1°C 52.0°F11.1°C 88% 7.4 mph NW11.9 kmh NW 8.0 mph12.9 kmh 29.19 in988.5 mb 0.00 in0.0 mm 0.00 in0.0 mm 0.00 in0.0 mm
07:21 AM 55.6°F13.1°C 52.1°F11.2°C 88% 7.8 mph NW12.6 kmh NW 9.0 mph14.5 kmh 29.19 in988.5 mb 0.00 in0.0 mm 0.00 in0.0 mm 0.00 in0.0 mm
07:22 AM 55.5°F13.1°C 52.0°F11.1°C 88% 7.5 mph NW12.1 kmh NW 9.0 mph14.5 kmh 29.19 in988.5 mb 0.00 in0.0 mm 0.00 in0.0 mm 0.00 in0.0 mm
07:23 AM 55.6°F13.1°C 52.1°F11.2°C 88% 7.6 mph NW12.2 kmh NW 9.0 mph14.5 kmh 29.19 in988.5 mb 0.00 in0.0 mm 0.00 in0.0 mm 0.00 in0.0 mm
07:24 AM 55.6°F13.1°C 52.1°F11.2°C 88% 7.4 mph NW11.9 kmh NW 9.0 mph14.5 kmh 29.19 in988.5 mb 0.00 in0.0 mm 0.00 in0.0 mm 0.00 in0.0 mm
07:25 AM 55.6°F13.1°C 52.1°F11.2°C 88% 6.5 mph NW10.5 kmh NW 9.0 mph14.5 kmh 29.19 in988.5 mb 0.00 in0.0 mm 0.00 in0.0 mm 0.00 in0.0 mm
07:26 AM 55.7°F13.2°C 52.5°F11.4°C 89% 6.8 mph WNW10.9 kmh WNW 8.0 mph12.9 kmh 29.19 in988.5 mb 0.00 in0.0 mm 0.00 in0.0 mm 0.00 in0.0 mm
07:27 AM 55.6°F13.1°C 52.1°F11.2°C 88% 6.6 mph NW10.6 kmh NW 8.0 mph12.9 kmh 29.19 in988.5 mb 0.00 in0.0 mm 0.00 in0.0 mm 0.00 in0.0 mm
07:28 AM 55.7°F13.2°C 52.5°F11.4°C 89% 6.0 mph NW9.7 kmh NW 8.0 mph12.9 kmh 29.19 in988.5 mb 0.00 in0.0 mm 0.00 in0.0 mm 0.00 in0.0 mm
07:29 AM 55.7°F13.2°C 52.2°F11.2°C 88% 5.5 mph NW8.9 kmh NW 7.0 mph11.3 kmh 29.19 in988.5 mb 0.00 in0.0 mm 0.00 in0.0 mm 0.00 in0.0 mm
07:30 AM 55.6°F13.1°C 52.1°F11.2°C 88% 5.6 mph NW9.0 kmh NW 7.0 mph11.3 kmh 29.19 in988.5 mb 0.00 in0.0 mm 0.00 in0.0 mm 0.00 in0.0 mm
07:31 AM 55.7°F13.2°C 52.2°F11.2°C 88% 5.8 mph NW9.3 kmh NW 8.0 mph12.9 kmh 29.19 in988.5 mb 0.00 in0.0 mm 0.00 in0.0 mm 0.00 in0.0 mm
07:32 AM 55.7°F13.2°C 52.2°F11.2°C 88% 6.3 mph NW10.1 kmh NW 8.0 mph12.9 kmh 29.19 in988.5 mb 0.00 in0.0 mm 0.00 in0.0 mm 0.00 in0.0 mm
07:33 AM 55.7°F13.2°C 52.2°F11.2°C 88% 5.7 mph NW9.2 kmh NW 8.0 mph12.9 kmh 29.19 in988.5 mb 0.00 in0.0 mm 0.00 in0.0 mm 0.00 in0.0 mm
07:34 AM 55.7°F13.2°C 52.2°F11.2°C 88% 6.2 mph NW10.0 kmh NW 8.0 mph12.9 kmh 29.19 in988.5 mb 0.00 in0.0 mm 0.00 in0.0 mm 0.00 in0.0 mm
07:35 AM 55.7°F13.2°C 52.2°F11.2°C 88% 5.8 mph NW9.3 kmh NW 7.0 mph11.3 kmh 29.19 in988.5 mb 0.00 in0.0 mm 0.00 in0.0 mm 0.00 in0.0 mm
07:36 AM 55.7°F13.2°C 52.2°F11.2°C 88% 6.2 mph NW10.0 kmh NW 8.0 mph12.9 kmh 29.19 in988.5 mb 0.00 in0.0 mm 0.00 in0.0 mm 0.00 in0.0 mm
07:37 AM 55.7°F13.2°C 52.2°F11.2°C 88% 7.1 mph NW11.4 kmh NW 8.0 mph12.9 kmh 29.19 in988.5 mb 0.00 in0.0 mm 0.00 in0.0 mm 0.00 in0.0 mm
07:38 AM 55.7°F13.2°C 52.2°F11.2°C 88% 7.1 mph NW11.4 kmh NW 8.0 mph12.9 kmh 29.19 in988.5 mb 0.00 in0.0 mm 0.00 in0.0 mm 0.00 in0.0 mm
07:39 AM 55.7°F13.2°C 52.5°F11.4°C 89% 7.6 mph WNW12.2 kmh WNW 8.0 mph12.9 kmh 29.19 in988.5 mb 0.00 in0.0 mm 0.00 in0.0 mm 0.00 in0.0 mm
07:40 AM 55.6°F13.1°C 52.1°F11.2°C 88% 7.5 mph WNW12.1 kmh WNW 8.0 mph12.9 kmh 29.19 in988.5 mb 0.00 in0.0 mm 0.00 in0.0 mm 0.00 in0.0 mm
07:41 AM 55.7°F13.2°C 52.2°F11.2°C 88% 6.8 mph NW10.9 kmh NW 8.0 mph12.9 kmh 29.19 in988.5 mb 0.00 in0.0 mm 0.00 in0.0 mm 0.00 in0.0 mm
07:42 AM 55.7°F13.2°C 52.5°F11.4°C 89% 7.5 mph WNW12.1 kmh WNW 9.0 mph14.5 kmh 29.19 in988.5 mb 0.00 in0.0 mm 0.00 in0.0 mm 0.00 in0.0 mm
07:43 AM 55.8°F13.2°C 52.3°F11.3°C 88% 7.7 mph WNW12.4 kmh WNW 9.0 mph14.5 kmh 29.19 in988.5 mb 0.00 in0.0 mm 0.00 in0.0 mm 0.00 in0.0 mm
07:44 AM 55.8°F13.2°C 52.3°F11.3°C 88% 7.8 mph NW12.6 kmh NW 9.0 mph14.5 kmh 29.19 in988.5 mb 0.00 in0.0 mm 0.00 in0.0 mm 0.00 in0.0 mm
07:45 AM 55.9°F13.3°C 52.4°F11.3°C 88% 8.2 mph WNW13.2 kmh WNW 9.0 mph14.5 kmh 29.19 in988.5 mb 0.00 in0.0 mm 0.00 in0.0 mm 0.00 in0.0 mm
07:46 AM 55.9°F13.3°C 52.4°F11.3°C 88% 8.1 mph NW13.0 kmh NW 9.0 mph14.5 kmh 29.19 in988.5 mb 0.00 in0.0 mm 0.00 in0.0 mm 0.00 in0.0 mm
07:47 AM 56.0°F13.3°C 52.5°F11.4°C 88% 7.9 mph WNW12.7 kmh WNW 9.0 mph14.5 kmh 29.19 in988.5 mb 0.00 in0.0 mm 0.00 in0.0 mm 0.00 in0.0 mm
07:48 AM 56.0°F13.3°C 52.8°F11.6°C 89% 7.7 mph WNW12.4 kmh WNW 9.0 mph14.5 kmh 29.19 in988.5 mb 0.00 in0.0 mm 0.00 in0.0 mm 0.00 in0.0 mm
07:49 AM 56.0°F13.3°C 52.5°F11.4°C 88% 7.6 mph WNW12.2 kmh WNW 9.0 mph14.5 kmh 29.19 in988.5 mb 0.00 in0.0 mm 0.00 in0.0 mm 0.00 in0.0 mm
07:50 AM 56.0°F13.3°C 52.5°F11.4°C 88% 8.3 mph WNW13.4 kmh WNW 9.0 mph14.5 kmh 29.19 in988.5 mb 0.00 in0.0 mm 0.00 in0.0 mm 0.00 in0.0 mm
07:51 AM 56.0°F13.3°C 52.5°F11.4°C 88% 8.0 mph WNW12.9 kmh WNW 9.0 mph14.5 kmh 29.19 in988.5 mb 0.00 in0.0 mm 0.00 in0.0 mm 0.00 in0.0 mm
07:52 AM 56.0°F13.3°C 52.5°F11.4°C 88% 8.2 mph WNW13.2 kmh WNW 9.0 mph14.5 kmh 29.19 in988.5 mb 0.00 in0.0 mm 0.00 in0.0 mm 0.00 in0.0 mm
07:53 AM 56.0°F13.3°C 52.5°F11.4°C 88% 8.6 mph WNW13.8 kmh WNW 9.0 mph14.5 kmh 29.19 in988.5 mb 0.00 in0.0 mm 0.00 in0.0 mm 0.00 in0.0 mm
07:54 AM 56.0°F13.3°C 52.5°F11.4°C 88% 8.3 mph WNW13.4 kmh WNW 9.0 mph14.5 kmh 29.20 in988.8 mb 0.00 in0.0 mm 0.00 in0.0 mm 0.00 in0.0 mm
07:55 AM 56.0°F13.3°C 52.5°F11.4°C 88% 7.2 mph WNW11.6 kmh WNW 9.0 mph14.5 kmh 29.19 in988.5 mb 0.00 in0.0 mm 0.00 in0.0 mm 0.00 in0.0 mm
07:56 AM 56.0°F13.3°C 52.5°F11.4°C 88% 7.5 mph WNW12.1 kmh WNW 9.0 mph14.5 kmh 29.20 in988.8 mb 0.00 in0.0 mm 0.00 in0.0 mm 0.00 in0.0 mm
07:57 AM 56.0°F13.3°C 52.5°F11.4°C 88% 6.7 mph WNW10.8 kmh WNW 9.0 mph14.5 kmh 29.20 in988.8 mb 0.00 in0.0 mm 0.00 in0.0 mm 0.00 in0.0 mm
07:58 AM 56.1°F13.4°C 52.6°F11.4°C 88% 6.1 mph WNW9.8 kmh WNW 9.0 mph14.5 kmh 29.19 in988.5 mb 0.00 in0.0 mm 0.00 in0.0 mm 0.00 in0.0 mm
07:59 AM 56.2°F13.4°C 53.0°F11.7°C 89% 6.8 mph WNW10.9 kmh WNW 9.0 mph14.5 kmh 29.19 in988.5 mb 0.00 in0.0 mm 0.00 in0.0 mm 0.00 in0.0 mm
08:00 AM 56.1°F13.4°C 52.3°F11.3°C 87% 8.4 mph WNW13.5 kmh WNW 9.0 mph14.5 kmh 29.20 in988.8 mb 0.00 in0.0 mm 0.00 in0.0 mm 0.00 in0.0 mm
08:01 AM 56.2°F13.4°C 52.4°F11.3°C 87% 7.0 mph WNW11.3 kmh WNW 9.0 mph14.5 kmh 29.20 in988.8 mb 0.00 in0.0 mm 0.00 in0.0 mm 0.00 in0.0 mm
08:02 AM 56.2°F13.4°C 52.7°F11.5°C 88% 6.7 mph WNW10.8 kmh WNW 9.0 mph14.5 kmh 29.20 in988.8 mb 0.00 in0.0 mm 0.00 in0.0 mm 0.00 in0.0 mm
08:03 AM 56.2°F13.4°C 52.7°F11.5°C 88% 7.3 mph WNW11.7 kmh WNW 9.0 mph14.5 kmh 29.20 in988.8 mb 0.00 in0.0 mm 0.00 in0.0 mm 0.00 in0.0 mm
08:04 AM 56.2°F13.4°C 52.7°F11.5°C 88% 7.5 mph WNW12.1 kmh WNW 9.0 mph14.5 kmh 29.20 in988.8 mb 0.00 in0.0 mm 0.00 in0.0 mm 0.00 in0.0 mm
08:05 AM 56.2°F13.4°C 52.7°F11.5°C 88% 7.8 mph WNW12.6 kmh WNW 9.0 mph14.5 kmh 29.20 in988.8 mb 0.00 in0.0 mm 0.00 in0.0 mm 0.00 in0.0 mm
08:06 AM 56.3°F13.5°C 52.5°F11.4°C 87% 8.3 mph WNW13.4 kmh WNW 9.0 mph14.5 kmh 29.20 in988.8 mb 0.00 in0.0 mm 0.00 in0.0 mm 0.00 in0.0 mm
08:07 AM 56.4°F13.6°C 52.6°F11.4°C 87% 7.9 mph WNW12.7 kmh WNW 9.0 mph14.5 kmh 29.20 in988.8 mb 0.00 in0.0 mm 0.00 in0.0 mm 0.00 in0.0 mm
08:08 AM 56.3°F13.5°C 52.5°F11.4°C 87% 7.8 mph WNW12.6 kmh WNW 9.0 mph14.5 kmh 29.20 in988.8 mb 0.00 in0.0 mm 0.00 in0.0 mm 0.00 in0.0 mm
08:09 AM 56.4°F13.6°C 52.6°F11.4°C 87% 7.1 mph WNW11.4 kmh WNW 9.0 mph14.5 kmh 29.20 in988.8 mb 0.00 in0.0 mm 0.00 in0.0 mm 0.00 in0.0 mm
08:10 AM 56.4°F13.6°C 52.9°F11.6°C 88% 7.5 mph WNW12.1 kmh WNW 8.0 mph12.9 kmh 29.20 in988.8 mb 0.00 in0.0 mm 0.00 in0.0 mm 0.00 in0.0 mm
08:11 AM 56.5°F13.6°C 52.4°F11.3°C 86% 7.1 mph NW11.4 kmh NW 8.0 mph12.9 kmh 29.20 in988.8 mb 0.00 in0.0 mm 0.00 in0.0 mm 0.00 in0.0 mm
08:12 AM 56.5°F13.6°C 52.7°F11.5°C 87% 6.6 mph WNW10.6 kmh WNW 8.0 mph12.9 kmh 29.20 in988.8 mb 0.00 in0.0 mm 0.00 in0.0 mm 0.00 in0.0 mm
08:13 AM 56.5°F13.6°C 52.7°F11.5°C 87% 7.1 mph WNW11.4 kmh WNW 8.0 mph12.9 kmh 29.20 in988.8 mb 0.00 in0.0 mm 0.00 in0.0 mm 0.00 in0.0 mm
08:14 AM 56.5°F13.6°C 52.7°F11.5°C 87% 6.9 mph WNW11.1 kmh WNW 8.0 mph12.9 kmh 29.20 in988.8 mb 0.00 in0.0 mm 0.00 in0.0 mm 0.00 in0.0 mm
08:15 AM 56.5°F13.6°C 52.7°F11.5°C 87% 7.2 mph WNW11.6 kmh WNW 8.0 mph12.9 kmh 29.20 in988.8 mb 0.00 in0.0 mm 0.00 in0.0 mm 0.00 in0.0 mm
08:16 AM 56.5°F13.6°C 52.4°F11.3°C 86% 6.0 mph WNW9.7 kmh WNW 8.0 mph12.9 kmh 29.20 in988.8 mb 0.00 in0.0 mm 0.00 in0.0 mm 0.00 in0.0 mm
08:17 AM 56.6°F13.7°C 52.8°F11.6°C 87% 5.6 mph NW9.0 kmh NW 8.0 mph12.9 kmh 29.20 in988.8 mb 0.00 in0.0 mm 0.00 in0.0 mm 0.00 in0.0 mm
08:18 AM 56.6°F13.7°C 52.5°F11.4°C 86% 6.4 mph WNW10.3 kmh WNW 7.0 mph11.3 kmh 29.20 in988.8 mb 0.00 in0.0 mm 0.00 in0.0 mm 0.00 in0.0 mm
08:19 AM 56.6°F13.7°C 52.8°F11.6°C 87% 6.5 mph WNW10.5 kmh WNW 8.0 mph12.9 kmh 29.20 in988.8 mb 0.00 in0.0 mm 0.00 in0.0 mm 0.00 in0.0 mm
08:20 AM 56.6°F13.7°C 52.5°F11.4°C 86% 6.3 mph NW10.1 kmh NW 8.0 mph12.9 kmh 29.20 in988.8 mb 0.00 in0.0 mm 0.00 in0.0 mm 0.00 in0.0 mm
08:21 AM 56.6°F13.7°C 52.5°F11.4°C 86% 6.0 mph NW9.7 kmh NW 8.0 mph12.9 kmh 29.20 in988.8 mb 0.00 in0.0 mm 0.00 in0.0 mm 0.00 in0.0 mm
08:22 AM 56.7°F13.7°C 52.9°F11.6°C 87% 5.9 mph WNW9.5 kmh WNW 7.0 mph11.3 kmh 29.20 in988.8 mb 0.00 in0.0 mm 0.00 in0.0 mm 0.00 in0.0 mm
08:23 AM 56.7°F13.7°C 52.9°F11.6°C 87% 6.2 mph WNW10.0 kmh WNW 7.0 mph11.3 kmh 29.20 in988.8 mb 0.00 in0.0 mm 0.00 in0.0 mm 0.00 in0.0 mm
08:24 AM 56.8°F13.8°C 53.0°F11.7°C 87% 6.1 mph WNW9.8 kmh WNW 8.0 mph12.9 kmh 29.20 in988.8 mb 0.00 in0.0 mm 0.00 in0.0 mm 0.00 in0.0 mm
08:25 AM 56.7°F13.7°C 52.9°F11.6°C 87% 6.5 mph NW10.5 kmh NW 8.0 mph12.9 kmh 29.20 in988.8 mb 0.00 in0.0 mm 0.00 in0.0 mm 0.00 in0.0 mm
08:26 AM 56.8°F13.8°C 53.0°F11.7°C 87% 7.3 mph NW11.7 kmh NW 9.0 mph14.5 kmh 29.20 in988.8 mb 0.00 in0.0 mm 0.00 in0.0 mm 0.00 in0.0 mm
08:27 AM 56.9°F13.8°C 53.1°F11.7°C 87% 8.7 mph NW14.0 kmh NW 11.0 mph17.7 kmh 29.20 in988.8 mb 0.00 in0.0 mm 0.00 in0.0 mm 0.00 in0.0 mm
08:28 AM 56.9°F13.8°C 52.8°F11.6°C 86% 9.1 mph NW14.6 kmh NW 11.0 mph17.7 kmh 29.20 in988.8 mb 0.00 in0.0 mm 0.00 in0.0 mm 0.00 in0.0 mm
08:29 AM 57.0°F13.9°C 52.5°F11.4°C 85% 9.3 mph NW15.0 kmh NW 10.0 mph16.1 kmh 29.20 in988.8 mb 0.00 in0.0 mm 0.00 in0.0 mm 0.00 in0.0 mm
08:30 AM 57.0°F13.9°C 52.5°F11.4°C 85% 8.9 mph NW14.3 kmh NW 10.0 mph16.1 kmh 29.20 in988.8 mb 0.00 in0.0 mm 0.00 in0.0 mm 0.00 in0.0 mm
08:31 AM 57.1°F13.9°C 53.0°F11.7°C 86% 8.5 mph NW13.7 kmh NW 10.0 mph16.1 kmh 29.20 in988.8 mb 0.00 in0.0 mm 0.00 in0.0 mm 0.00 in0.0 mm
08:32 AM 57.1°F13.9°C 52.6°F11.4°C 85% 8.6 mph NW13.8 kmh NW 10.0 mph16.1 kmh 29.20 in988.8 mb 0.00 in0.0 mm 0.00 in0.0 mm 0.00 in0.0 mm
08:33 AM 57.1°F13.9°C 52.6°F11.4°C 85% 8.6 mph NW13.8 kmh NW 10.0 mph16.1 kmh 29.20 in988.8 mb 0.00 in0.0 mm 0.00 in0.0 mm 0.00 in0.0 mm
08:34 AM 57.2°F14.0°C 52.7°F11.5°C 85% 9.3 mph NW15.0 kmh NW 10.0 mph16.1 kmh 29.20 in988.8 mb 0.00 in0.0 mm 0.00 in0.0 mm 0.00 in0.0 mm
08:35 AM 57.2°F14.0°C 52.4°F11.3°C 84% 9.2 mph NW14.8 kmh NW 10.0 mph16.1 kmh 29.20 in988.8 mb 0.00 in0.0 mm 0.00 in0.0 mm 0.00 in0.0 mm
08:36 AM 57.2°F14.0°C 53.0°F11.7°C 86% 8.8 mph NW14.2 kmh NW 10.0 mph16.1 kmh 29.20 in988.8 mb 0.00 in0.0 mm 0.00 in0.0 mm 0.00 in0.0 mm
08:37 AM 57.3°F14.1°C 52.8°F11.6°C 85% 8.0 mph NW12.9 kmh NW 10.0 mph16.1 kmh 29.20 in988.8 mb 0.00 in0.0 mm 0.00 in0.0 mm 0.00 in0.0 mm
08:38 AM 57.3°F14.1°C 53.1°F11.7°C 86% 8.0 mph NW12.9 kmh NW 9.0 mph14.5 kmh 29.20 in988.8 mb 0.00 in0.0 mm 0.00 in0.0 mm 0.00 in0.0 mm
08:39 AM 57.4°F14.1°C 53.2°F11.8°C 86% 7.8 mph NW12.6 kmh NW 9.0 mph14.5 kmh 29.20 in988.8 mb 0.00 in0.0 mm 0.00 in0.0 mm 0.00 in0.0 mm
08:40 AM 57.4°F14.1°C 52.9°F11.6°C 85% 8.5 mph NW13.7 kmh NW 10.0 mph16.1 kmh 29.21 in989.2 mb 0.00 in0.0 mm 0.00 in0.0 mm 0.00 in0.0 mm
08:41 AM 57.5°F14.2°C 53.0°F11.7°C 85% 8.5 mph NW13.7 kmh NW 10.0 mph16.1 kmh 29.21 in989.2 mb 0.00 in0.0 mm 0.00 in0.0 mm 0.00 in0.0 mm
08:42 AM 57.5°F14.2°C 53.0°F11.7°C 85% 8.1 mph NW13.0 kmh NW 9.0 mph14.5 kmh 29.21 in989.2 mb 0.00 in0.0 mm 0.00 in0.0 mm 0.00 in0.0 mm
08:43 AM 57.4°F14.1°C 52.6°F11.4°C 84% 8.5 mph NW13.7 kmh NW 9.0 mph14.5 kmh 29.21 in989.2 mb 0.00 in0.0 mm 0.00 in0.0 mm 0.00 in0.0 mm
08:44 AM 57.5°F14.2°C 53.0°F11.7°C 85% 8.3 mph NW13.4 kmh NW 9.0 mph14.5 kmh 29.21 in989.2 mb 0.00 in0.0 mm 0.00 in0.0 mm 0.00 in0.0 mm
08:45 AM 57.4°F14.1°C 52.9°F11.6°C 85% 8.7 mph NW14.0 kmh NW 9.0 mph14.5 kmh 29.21 in989.2 mb 0.00 in0.0 mm 0.00 in0.0 mm 0.00 in0.0 mm
08:46 AM 57.5°F14.2°C 52.7°F11.5°C 84% 8.8 mph NW14.2 kmh NW 10.0 mph16.1 kmh 29.21 in989.2 mb 0.00 in0.0 mm 0.00 in0.0 mm 0.00 in0.0 mm
08:47 AM 57.4°F14.1°C 53.2°F11.8°C 86% 8.6 mph NW13.8 kmh NW 10.0 mph16.1 kmh 29.21 in989.2 mb 0.00 in0.0 mm 0.00 in0.0 mm 0.00 in0.0 mm
08:48 AM 57.5°F14.2°C 53.3°F11.8°C 86% 8.3 mph NW13.4 kmh NW 10.0 mph16.1 kmh 29.21 in989.2 mb 0.00 in0.0 mm 0.00 in0.0 mm 0.00 in0.0 mm
08:49 AM 57.5°F14.2°C 52.7°F11.5°C 84% 8.9 mph NW14.3 kmh NW 10.0 mph16.1 kmh 29.21 in989.2 mb 0.00 in0.0 mm 0.00 in0.0 mm 0.00 in0.0 mm
08:50 AM 57.5°F14.2°C 53.0°F11.7°C 85% 8.9 mph NW14.3 kmh NW 10.0 mph16.1 kmh 29.21 in989.2 mb 0.00 in0.0 mm 0.00 in0.0 mm 0.00 in0.0 mm
08:51 AM 57.5°F14.2°C 53.0°F11.7°C 85% 8.7 mph NW14.0 kmh NW 10.0 mph16.1 kmh 29.21 in989.2 mb 0.00 in0.0 mm 0.00 in0.0 mm 0.00 in0.0 mm
08:52 AM 57.5°F14.2°C 53.0°F11.7°C 85% 8.5 mph NW13.7 kmh NW 10.0 mph16.1 kmh 29.21 in989.2 mb 0.00 in0.0 mm 0.00 in0.0 mm 0.00 in0.0 mm
08:53 AM 57.6°F14.2°C 53.1°F11.7°C 85% 8.4 mph NW13.5 kmh NW 10.0 mph16.1 kmh 29.21 in989.2 mb 0.00 in0.0 mm 0.00 in0.0 mm 0.00 in0.0 mm
08:54 AM 57.6°F14.2°C 53.1°F11.7°C 85% 8.7 mph NW14.0 kmh NW 10.0 mph16.1 kmh 29.21 in989.2 mb 0.00 in0.0 mm 0.00 in0.0 mm 0.00 in0.0 mm
08:55 AM 57.6°F14.2°C 53.1°F11.7°C 85% 8.2 mph NW13.2 kmh NW 10.0 mph16.1 kmh 29.21 in989.2 mb 0.00 in0.0 mm 0.00 in0.0 mm 0.00 in0.0 mm
08:56 AM 57.7°F14.3°C 53.2°F11.8°C 85% 8.2 mph NW13.2 kmh NW 9.0 mph14.5 kmh 29.21 in989.2 mb 0.00 in0.0 mm 0.00 in0.0 mm 0.00 in0.0 mm
08:57 AM 57.6°F14.2°C 53.4°F11.9°C 86% 8.2 mph NW13.2 kmh NW 9.0 mph14.5 kmh 29.21 in989.2 mb 0.00 in0.0 mm 0.00 in0.0 mm 0.00 in0.0 mm
08:58 AM 57.7°F14.3°C 52.9°F11.6°C 84% 8.8 mph NW14.2 kmh NW 10.0 mph16.1 kmh 29.21 in989.2 mb 0.00 in0.0 mm 0.00 in0.0 mm 0.00 in0.0 mm
08:59 AM 57.7°F14.3°C 52.6°F11.4°C 83% 8.9 mph NW14.3 kmh NW 10.0 mph16.1 kmh 29.21 in989.2 mb 0.00 in0.0 mm 0.00 in0.0 mm 0.00 in0.0 mm
09:00 AM 57.7°F14.3°C 52.9°F11.6°C 84% 8.1 mph NW13.0 kmh NW 10.0 mph16.1 kmh 29.21 in989.2 mb 0.00 in0.0 mm 0.00 in0.0 mm 0.00 in0.0 mm
09:01 AM 57.8°F14.3°C 52.7°F11.5°C 83% 9.0 mph NW14.5 kmh NW 10.0 mph16.1 kmh 29.21 in989.2 mb 0.00 in0.0 mm 0.00 in0.0 mm 0.00 in0.0 mm
09:02 AM 57.8°F14.3°C 53.0°F11.7°C 84% 7.3 mph NW11.7 kmh NW 10.0 mph16.1 kmh 29.21 in989.2 mb 0.00 in0.0 mm 0.00 in0.0 mm 0.00 in0.0 mm
09:03 AM 57.9°F14.4°C 52.8°F11.6°C 83% 7.6 mph NW12.2 kmh NW 9.0 mph14.5 kmh 29.21 in989.2 mb 0.00 in0.0 mm 0.00 in0.0 mm 0.00 in0.0 mm
09:04 AM 57.9°F14.4°C 52.8°F11.6°C 83% 8.8 mph NW14.2 kmh NW 10.0 mph16.1 kmh 29.22 in989.5 mb 0.00 in0.0 mm 0.00 in0.0 mm 0.00 in0.0 mm
09:05 AM 57.9°F14.4°C 52.4°F11.3°C 82% 8.0 mph NW12.9 kmh NW 10.0 mph16.1 kmh 29.22 in989.5 mb 0.00 in0.0 mm 0.00 in0.0 mm 0.00 in0.0 mm
09:06 AM 57.9°F14.4°C 52.8°F11.6°C 83% 7.0 mph NW11.3 kmh NW 9.0 mph14.5 kmh 29.22 in989.5 mb 0.00 in0.0 mm 0.00 in0.0 mm 0.00 in0.0 mm
09:07 AM 58.0°F14.4°C 53.2°F11.8°C 84% 7.9 mph NW12.7 kmh NW 9.0 mph14.5 kmh 29.22 in989.5 mb 0.00 in0.0 mm 0.00 in0.0 mm 0.00 in0.0 mm
09:08 AM 58.1°F14.5°C 53.3°F11.8°C 84% 8.1 mph NW13.0 kmh NW 9.0 mph14.5 kmh 29.22 in989.5 mb 0.00 in0.0 mm 0.00 in0.0 mm 0.00 in0.0 mm
09:09 AM 58.1°F14.5°C 53.3°F11.8°C 84% 8.5 mph NW13.7 kmh NW 9.0 mph14.5 kmh 29.22 in989.5 mb 0.00 in0.0 mm 0.00 in0.0 mm 0.00 in0.0 mm
09:10 AM 58.1°F14.5°C 53.0°F11.7°C 83% 7.9 mph NW12.7 kmh NW 9.0 mph14.5 kmh 29.22 in989.5 mb 0.00 in0.0 mm 0.00 in0.0 mm 0.00 in0.0 mm
09:11 AM 58.1°F14.5°C 53.0°F11.7°C 83% 8.3 mph NW13.4 kmh NW 9.0 mph14.5 kmh 29.22 in989.5 mb 0.00 in0.0 mm 0.00 in0.0 mm 0.00 in0.0 mm
09:12 AM 58.1°F14.5°C 52.6°F11.4°C 82% 6.7 mph NW10.8 kmh NW 9.0 mph14.5 kmh 29.22 in989.5 mb 0.00 in0.0 mm 0.00 in0.0 mm 0.00 in0.0 mm
09:13 AM 58.1°F14.5°C 52.6°F11.4°C 82% 6.6 mph NW10.6 kmh NW 10.0 mph16.1 kmh 29.22 in989.5 mb 0.00 in0.0 mm 0.00 in0.0 mm 0.00 in0.0 mm
09:14 AM 58.2°F14.6°C 52.7°F11.5°C 82% 6.7 mph NW10.8 kmh NW 10.0 mph16.1 kmh 29.22 in989.5 mb 0.00 in0.0 mm 0.00 in0.0 mm 0.00 in0.0 mm
09:15 AM 58.2°F14.6°C 52.4°F11.3°C 81% 5.4 mph NW8.7 kmh NW 9.0 mph14.5 kmh 29.22 in989.5 mb 0.00 in0.0 mm 0.00 in0.0 mm 0.00 in0.0 mm
09:16 AM 58.2°F14.6°C 52.7°F11.5°C 82% 6.0 mph NW9.7 kmh NW 8.0 mph12.9 kmh 29.22 in989.5 mb 0.00 in0.0 mm 0.00 in0.0 mm 0.00 in0.0 mm
09:17 AM 58.2°F14.6°C 52.7°F11.5°C 82% 5.8 mph NW9.3 kmh NW 8.0 mph12.9 kmh 29.22 in989.5 mb 0.00 in0.0 mm 0.00 in0.0 mm 0.00 in0.0 mm
09:18 AM 58.3°F14.6°C 52.8°F11.6°C 82% 5.6 mph NW9.0 kmh NW 7.0 mph11.3 kmh 29.22 in989.5 mb 0.00 in0.0 mm 0.00 in0.0 mm 0.00 in0.0 mm
09:19 AM 58.3°F14.6°C 53.2°F11.8°C 83% 4.9 mph NW7.9 kmh NW 7.0 mph11.3 kmh 29.22 in989.5 mb 0.00 in0.0 mm 0.00 in0.0 mm 0.00 in0.0 mm
09:20 AM 58.4°F14.7°C 53.6°F12.0°C 84% 5.7 mph NW9.2 kmh NW 8.0 mph12.9 kmh 29.22 in989.5 mb 0.00 in0.0 mm 0.00 in0.0 mm 0.00 in0.0 mm
09:21 AM 58.4°F14.7°C 52.9°F11.6°C 82% 5.0 mph NW8.0 kmh NW 8.0 mph12.9 kmh 29.22 in989.5 mb 0.00 in0.0 mm 0.00 in0.0 mm 0.00 in0.0 mm
09:22 AM 58.4°F14.7°C 52.9°F11.6°C 82% 5.7 mph NW9.2 kmh NW 7.0 mph11.3 kmh 29.22 in989.5 mb 0.00 in0.0 mm 0.00 in0.0 mm 0.00 in0.0 mm
09:23 AM 58.4°F14.7°C 52.9°F11.6°C 82% 6.5 mph NW10.5 kmh NW 8.0 mph12.9 kmh 29.22 in989.5 mb 0.00 in0.0 mm 0.00 in0.0 mm 0.00 in0.0 mm
09:24 AM 58.5°F14.7°C 53.4°F11.9°C 83% 6.8 mph NW10.9 kmh NW 8.0 mph12.9 kmh 29.22 in989.5 mb 0.00 in0.0 mm 0.00 in0.0 mm 0.00 in0.0 mm
09:25 AM 58.6°F14.8°C 52.4°F11.3°C 80% 5.5 mph NW8.9 kmh NW 8.0 mph12.9 kmh 29.22 in989.5 mb 0.00 in0.0 mm 0.00 in0.0 mm 0.00 in0.0 mm
09:26 AM 58.6°F14.8°C 52.1°F11.2°C 79% 4.5 mph NW7.2 kmh NW 8.0 mph12.9 kmh 29.22 in989.5 mb 0.00 in0.0 mm 0.00 in0.0 mm 0.00 in0.0 mm
09:27 AM 58.6°F14.8°C 53.1°F11.7°C 82% 4.8 mph NW7.7 kmh NW 6.0 mph9.7 kmh 29.22 in989.5 mb 0.00 in0.0 mm 0.00 in0.0 mm 0.00 in0.0 mm
09:28 AM 58.8°F14.9°C 53.0°F11.7°C 81% 5.3 mph NW8.5 kmh NW 6.0 mph9.7 kmh 29.22 in989.5 mb 0.00 in0.0 mm 0.00 in0.0 mm 0.00 in0.0 mm
09:29 AM 58.8°F14.9°C 52.6°F11.4°C 80% 6.3 mph NNW10.1 kmh NNW 8.0 mph12.9 kmh 29.22 in989.5 mb 0.00 in0.0 mm 0.00 in0.0 mm 0.00 in0.0 mm
09:30 AM 58.9°F14.9°C 52.7°F11.5°C 80% 6.8 mph NW10.9 kmh NW 8.0 mph12.9 kmh 29.22 in989.5 mb 0.00 in0.0 mm 0.00 in0.0 mm 0.00 in0.0 mm
09:31 AM 58.9°F14.9°C 52.7°F11.5°C 80% 5.8 mph NW9.3 kmh NW 8.0 mph12.9 kmh 29.23 in989.8 mb 0.00 in0.0 mm 0.00 in0.0 mm 0.00 in0.0 mm
09:32 AM 58.9°F14.9°C 52.7°F11.5°C 80% 5.0 mph NW8.0 kmh NW 8.0 mph12.9 kmh 29.22 in989.5 mb 0.00 in0.0 mm 0.00 in0.0 mm 0.00 in0.0 mm
09:33 AM 58.9°F14.9°C 53.4°F11.9°C 82% 6.3 mph NNW10.1 kmh NNW 9.0 mph14.5 kmh 29.23 in989.8 mb 0.00 in0.0 mm 0.00 in0.0 mm 0.00 in0.0 mm
09:34 AM 58.9°F14.9°C 52.4°F11.3°C 79% 7.2 mph NNW11.6 kmh NNW 9.0 mph14.5 kmh 29.23 in989.8 mb 0.00 in0.0 mm 0.00 in0.0 mm 0.00 in0.0 mm
09:35 AM 59.0°F15.0°C 52.5°F11.4°C 79% 7.7 mph NNW12.4 kmh NNW 9.0 mph14.5 kmh 29.23 in989.8 mb 0.00 in0.0 mm 0.00 in0.0 mm 0.00 in0.0 mm
09:36 AM 59.1°F15.1°C 52.6°F11.4°C 79% 7.6 mph NNW12.2 kmh NNW 10.0 mph16.1 kmh 29.23 in989.8 mb 0.00 in0.0 mm 0.00 in0.0 mm 0.00 in0.0 mm
09:37 AM 59.1°F15.1°C 52.2°F11.2°C 78% 9.5 mph NNW15.3 kmh NNW 10.0 mph16.1 kmh 29.23 in989.8 mb 0.00 in0.0 mm 0.00 in0.0 mm 0.00 in0.0 mm
09:38 AM 59.1°F15.1°C 52.6°F11.4°C 79% 9.6 mph NW15.4 kmh NW 11.0 mph17.7 kmh 29.23 in989.8 mb 0.00 in0.0 mm 0.00 in0.0 mm 0.00 in0.0 mm
09:39 AM 59.1°F15.1°C 53.3°F11.8°C 81% 10.7 mph NW17.2 kmh NW 12.0 mph19.3 kmh 29.23 in989.8 mb 0.00 in0.0 mm 0.00 in0.0 mm 0.00 in0.0 mm
09:40 AM 58.9°F14.9°C 52.7°F11.5°C 80% 10.9 mph NW17.5 kmh NW 12.0 mph19.3 kmh 29.23 in989.8 mb 0.00 in0.0 mm 0.00 in0.0 mm 0.00 in0.0 mm
09:41 AM 58.8°F14.9°C 53.0°F11.7°C 81% 11.2 mph NW18.0 kmh NW 12.0 mph19.3 kmh 29.23 in989.8 mb 0.00 in0.0 mm 0.00 in0.0 mm 0.00 in0.0 mm
09:42 AM 58.6°F14.8°C 52.4°F11.3°C 80% 11.8 mph NW19.0 kmh NW 12.0 mph19.3 kmh 29.23 in989.8 mb 0.00 in0.0 mm 0.00 in0.0 mm 0.00 in0.0 mm
09:43 AM 58.5°F14.7°C 52.4°F11.3°C 80% 10.5 mph NW16.9 kmh NW 12.0 mph19.3 kmh 29.23 in989.8 mb 0.00 in0.0 mm 0.00 in0.0 mm 0.00 in0.0 mm
09:44 AM 58.4°F14.7°C 51.9°F11.1°C 79% 8.4 mph NW13.5 kmh NW 12.0 mph19.3 kmh 29.23 in989.8 mb 0.00 in0.0 mm 0.00 in0.0 mm 0.00 in0.0 mm
09:45 AM 58.4°F14.7°C 52.6°F11.4°C 81% 9.5 mph NW15.3 kmh NW 11.0 mph17.7 kmh 29.23 in989.8 mb 0.00 in0.0 mm 0.00 in0.0 mm 0.00 in0.0 mm
09:46 AM 58.4°F14.7°C 52.9°F11.6°C 82% 9.9 mph WNW15.9 kmh WNW 11.0 mph17.7 kmh 29.23 in989.8 mb 0.00 in0.0 mm 0.00 in0.0 mm 0.00 in0.0 mm
09:47 AM 58.4°F14.7°C 52.6°F11.4°C 81% 9.0 mph WNW14.5 kmh WNW 11.0 mph17.7 kmh 29.23 in989.8 mb 0.00 in0.0 mm 0.00 in0.0 mm 0.00 in0.0 mm
09:48 AM 58.4°F14.7°C 52.9°F11.6°C 82% 8.0 mph WNW12.9 kmh WNW 10.0 mph16.1 kmh 29.23 in989.8 mb 0.00 in0.0 mm 0.00 in0.0 mm 0.00 in0.0 mm
09:49 AM 58.4°F14.7°C 53.3°F11.8°C 83% 8.3 mph WNW13.4 kmh WNW 10.0 mph16.1 kmh 29.23 in989.8 mb 0.00 in0.0 mm 0.00 in0.0 mm 0.00 in0.0 mm
09:50 AM 58.5°F14.7°C 53.0°F11.7°C 82% 7.5 mph WNW12.1 kmh WNW 10.0 mph16.1 kmh 29.23 in989.8 mb 0.00 in0.0 mm 0.00 in0.0 mm 0.00 in0.0 mm
09:51 AM 58.5°F14.7°C 53.0°F11.7°C 82% 7.9 mph WNW12.7 kmh WNW 9.0 mph14.5 kmh 29.23 in989.8 mb 0.00 in0.0 mm 0.00 in0.0 mm 0.00 in0.0 mm
09:52 AM 58.5°F14.7°C 53.0°F11.7°C 82% 7.9 mph WNW12.7 kmh WNW 9.0 mph14.5 kmh 29.23 in989.8 mb 0.00 in0.0 mm 0.00 in0.0 mm 0.00 in0.0 mm
09:53 AM 58.4°F14.7°C 52.9°F11.6°C 82% 7.9 mph WNW12.7 kmh WNW 9.0 mph14.5 kmh 29.23 in989.8 mb 0.00 in0.0 mm 0.00 in0.0 mm 0.00 in0.0 mm
09:54 AM 58.4°F14.7°C 52.9°F11.6°C 82% 7.6 mph WNW12.2 kmh WNW 9.0 mph14.5 kmh 29.23 in989.8 mb 0.00 in0.0 mm 0.00 in0.0 mm 0.00 in0.0 mm
09:55 AM 58.4°F14.7°C 52.6°F11.4°C 81% 7.6 mph WNW12.2 kmh WNW 8.0 mph12.9 kmh 29.23 in989.8 mb 0.00 in0.0 mm 0.00 in0.0 mm 0.00 in0.0 mm
09:56 AM 58.5°F14.7°C 53.0°F11.7°C 82% 7.5 mph WNW12.1 kmh WNW 9.0 mph14.5 kmh 29.23 in989.8 mb 0.00 in0.0 mm 0.00 in0.0 mm 0.00 in0.0 mm
09:57 AM 58.5°F14.7°C 53.0°F11.7°C 82% 7.6 mph WNW12.2 kmh WNW 9.0 mph14.5 kmh 29.23 in989.8 mb 0.00 in0.0 mm 0.00 in0.0 mm 0.00 in0.0 mm
09:58 AM 58.6°F14.8°C 53.1°F11.7°C 82% 6.7 mph WNW10.8 kmh WNW 9.0 mph14.5 kmh 29.23 in989.8 mb 0.00 in0.0 mm 0.00 in0.0 mm 0.00 in0.0 mm
09:59 AM 58.6°F14.8°C 53.1°F11.7°C 82% 6.4 mph WNW10.3 kmh WNW 8.0 mph12.9 kmh 29.23 in989.8 mb 0.00 in0.0 mm 0.00 in0.0 mm 0.00 in0.0 mm
10:00 AM 58.6°F14.8°C 52.8°F11.6°C 81% 6.7 mph WNW10.8 kmh WNW 8.0 mph12.9 kmh 29.23 in989.8 mb 0.00 in0.0 mm 0.00 in0.0 mm 0.00 in0.0 mm
10:01 AM 58.6°F14.8°C 53.1°F11.7°C 82% 6.2 mph WNW10.0 kmh WNW 8.0 mph12.9 kmh 29.23 in989.8 mb 0.00 in0.0 mm 0.00 in0.0 mm 0.00 in0.0 mm
10:02 AM 58.6°F14.8°C 52.8°F11.6°C 81% 6.8 mph WNW10.9 kmh WNW 8.0 mph12.9 kmh 29.23 in989.8 mb 0.00 in0.0 mm 0.00 in0.0 mm 0.00 in0.0 mm
10:03 AM 58.6°F14.8°C 52.4°F11.3°C 80% 6.2 mph NW10.0 kmh NW 8.0 mph12.9 kmh 29.23 in989.8 mb 0.00 in0.0 mm 0.00 in0.0 mm 0.00 in0.0 mm
10:04 AM 58.6°F14.8°C 52.8°F11.6°C 81% 5.9 mph NW9.5 kmh NW 7.0 mph11.3 kmh 29.23 in989.8 mb 0.00 in0.0 mm 0.00 in0.0 mm 0.00 in0.0 mm
10:05 AM 58.6°F14.8°C 52.1°F11.2°C 79% 6.2 mph NW10.0 kmh NW 8.0 mph12.9 kmh 29.23 in989.8 mb 0.00 in0.0 mm 0.00 in0.0 mm 0.00 in0.0 mm
10:06 AM 58.7°F14.8°C 52.9°F11.6°C 81% 7.1 mph NW11.4 kmh NW 9.0 mph14.5 kmh 29.23 in989.8 mb 0.00 in0.0 mm 0.00 in0.0 mm 0.00 in0.0 mm
10:07 AM 58.7°F14.8°C 52.5°F11.4°C 80% 6.3 mph NW10.1 kmh NW 9.0 mph14.5 kmh 29.23 in989.8 mb 0.00 in0.0 mm 0.00 in0.0 mm 0.00 in0.0 mm
10:08 AM 58.7°F14.8°C 52.2°F11.2°C 79% 4.5 mph NW7.2 kmh NW 8.0 mph12.9 kmh 29.23 in989.8 mb 0.00 in0.0 mm 0.00 in0.0 mm 0.00 in0.0 mm
10:09 AM 58.8°F14.9°C 52.6°F11.4°C 80% 5.5 mph NW8.9 kmh NW 7.0 mph11.3 kmh 29.23 in989.8 mb 0.00 in0.0 mm 0.00 in0.0 mm 0.00 in0.0 mm
10:10 AM 58.7°F14.8°C 52.5°F11.4°C 80% 5.0 mph NW8.0 kmh NW 7.0 mph11.3 kmh 29.23 in989.8 mb 0.00 in0.0 mm 0.00 in0.0 mm 0.00 in0.0 mm
10:11 AM 58.7°F14.8°C 53.2°F11.8°C 82% 7.0 mph NW11.3 kmh NW 10.0 mph16.1 kmh 29.23 in989.8 mb 0.00 in0.0 mm 0.00 in0.0 mm 0.00 in0.0 mm
10:12 AM 58.7°F14.8°C 52.2°F11.2°C 79% 10.3 mph NW16.6 kmh NW 11.0 mph17.7 kmh 29.23 in989.8 mb 0.00 in0.0 mm 0.00 in0.0 mm 0.00 in0.0 mm
10:13 AM 58.6°F14.8°C 51.4°F10.8°C 77% 9.3 mph NW15.0 kmh NW 11.0 mph17.7 kmh 29.23 in989.8 mb 0.00 in0.0 mm 0.00 in0.0 mm 0.00 in0.0 mm
10:14 AM 58.6°F14.8°C 51.4°F10.8°C 77% 9.9 mph NW15.9 kmh NW 11.0 mph17.7 kmh 29.23 in989.8 mb 0.00 in0.0 mm 0.00 in0.0 mm 0.00 in0.0 mm
10:15 AM 58.6°F14.8°C 51.1°F10.6°C 76% 9.2 mph NW14.8 kmh NW 11.0 mph17.7 kmh 29.23 in989.8 mb 0.00 in0.0 mm 0.00 in0.0 mm 0.00 in0.0 mm
10:16 AM 58.5°F14.7°C 51.7°F10.9°C 78% 9.5 mph NW15.3 kmh NW 10.0 mph16.1 kmh 29.23 in989.8 mb 0.00 in0.0 mm 0.00 in0.0 mm 0.00 in0.0 mm
10:17 AM 58.5°F14.7°C 50.6°F10.3°C 75% 8.4 mph NW13.5 kmh NW 10.0 mph16.1 kmh 29.23 in989.8 mb 0.00 in0.0 mm 0.00 in0.0 mm 0.00 in0.0 mm
10:18 AM 58.6°F14.8°C 51.1°F10.6°C 76% 7.4 mph NW11.9 kmh NW 9.0 mph14.5 kmh 29.23 in989.8 mb 0.00 in0.0 mm 0.00 in0.0 mm 0.00 in0.0 mm
10:19 AM 58.6°F14.8°C 51.4°F10.8°C 77% 7.6 mph NW12.2 kmh NW 8.0 mph12.9 kmh 29.24 in990.2 mb 0.00 in0.0 mm 0.00 in0.0 mm 0.00 in0.0 mm
10:20 AM 58.6°F14.8°C 51.4°F10.8°C 77% 6.8 mph NW10.9 kmh NW 8.0 mph12.9 kmh 29.23 in989.8 mb 0.00 in0.0 mm 0.00 in0.0 mm 0.00 in0.0 mm
10:21 AM 58.7°F14.8°C 51.5°F10.8°C 77% 4.9 mph NW7.9 kmh NW 8.0 mph12.9 kmh 29.23 in989.8 mb 0.00 in0.0 mm 0.00 in0.0 mm 0.00 in0.0 mm
10:22 AM 58.8°F14.9°C 52.0°F11.1°C 78% 4.8 mph NW7.7 kmh NW 7.0 mph11.3 kmh 29.24 in990.2 mb 0.00 in0.0 mm 0.00 in0.0 mm 0.00 in0.0 mm
10:23 AM 58.9°F14.9°C 51.7°F10.9°C 77% 5.1 mph NW8.2 kmh NW 8.0 mph12.9 kmh 29.23 in989.8 mb 0.00 in0.0 mm 0.00 in0.0 mm 0.00 in0.0 mm
10:24 AM 58.9°F14.9°C 51.7°F10.9°C 77% 6.7 mph NW10.8 kmh NW 8.0 mph12.9 kmh 29.24 in990.2 mb 0.00 in0.0 mm 0.00 in0.0 mm 0.00 in0.0 mm
10:25 AM 59.0°F15.0°C 52.1°F11.2°C 78% 6.2 mph NW10.0 kmh NW 8.0 mph12.9 kmh 29.24 in990.2 mb 0.00 in0.0 mm 0.00 in0.0 mm 0.00 in0.0 mm
10:26 AM 59.0°F15.0°C 51.8°F11.0°C 77% 6.9 mph WNW11.1 kmh WNW 8.0 mph12.9 kmh 29.24 in990.2 mb 0.00 in0.0 mm 0.00 in0.0 mm 0.00 in0.0 mm
10:27 AM 59.2°F15.1°C 51.6°F10.9°C 76% 7.8 mph W12.6 kmh W 10.0 mph16.1 kmh 29.24 in990.2 mb 0.00 in0.0 mm 0.00 in0.0 mm 0.00 in0.0 mm
10:28 AM 59.3°F15.2°C 51.7°F10.9°C 76% 6.5 mph W10.5 kmh W 10.0 mph16.1 kmh 29.24 in990.2 mb 0.00 in0.0 mm 0.00 in0.0 mm 0.00 in0.0 mm
10:29 AM 59.4°F15.2°C 51.8°F11.0°C 76% 7.3 mph WNW11.7 kmh WNW 9.0 mph14.5 kmh 29.24 in990.2 mb 0.00 in0.0 mm 0.00 in0.0 mm 0.00 in0.0 mm
10:30 AM 59.4°F15.2°C 51.5°F10.8°C 75% 7.5 mph WNW12.1 kmh WNW 9.0 mph14.5 kmh 29.24 in990.2 mb 0.00 in0.0 mm 0.00 in0.0 mm 0.00 in0.0 mm
10:31 AM 59.5°F15.3°C 52.3°F11.3°C 77% 4.9 mph W7.9 kmh W 9.0 mph14.5 kmh 29.24 in990.2 mb 0.00 in0.0 mm 0.00 in0.0 mm 0.00 in0.0 mm
10:32 AM 59.6°F15.3°C 52.4°F11.3°C 77% 6.3 mph WNW10.1 kmh WNW 9.0 mph14.5 kmh 29.24 in990.2 mb 0.00 in0.0 mm 0.00 in0.0 mm 0.00 in0.0 mm
10:33 AM 59.6°F15.3°C 52.4°F11.3°C 77% 6.5 mph WNW10.5 kmh WNW 9.0 mph14.5 kmh 29.24 in990.2 mb 0.00 in0.0 mm 0.00 in0.0 mm 0.00 in0.0 mm
10:34 AM 59.5°F15.3°C 51.9°F11.1°C 76% 8.3 mph NW13.4 kmh NW 11.0 mph17.7 kmh 29.24 in990.2 mb 0.00 in0.0 mm 0.00 in0.0 mm 0.00 in0.0 mm
10:35 AM 59.4°F15.2°C 52.5°F11.4°C 78% 7.8 mph NW12.6 kmh NW 11.0 mph17.7 kmh 29.24 in990.2 mb 0.00 in0.0 mm 0.00 in0.0 mm 0.00 in0.0 mm
10:36 AM 59.5°F15.3°C 51.6°F10.9°C 75% 8.7 mph WNW14.0 kmh WNW 11.0 mph17.7 kmh 29.24 in990.2 mb 0.00 in0.0 mm 0.00 in0.0 mm 0.00 in0.0 mm
10:37 AM 59.4°F15.2°C 51.5°F10.8°C 75% 10.7 mph WNW17.2 kmh WNW 11.0 mph17.7 kmh 29.24 in990.2 mb 0.00 in0.0 mm 0.00 in0.0 mm 0.00 in0.0 mm
10:38 AM 59.3°F15.2°C 51.0°F10.6°C 74% 10.2 mph WNW16.4 kmh WNW 11.0 mph17.7 kmh 29.24 in990.2 mb 0.00 in0.0 mm 0.00 in0.0 mm 0.00 in0.0 mm
10:39 AM 59.3°F15.2°C 51.4°F10.8°C 75% 9.1 mph WNW14.6 kmh WNW 11.0 mph17.7 kmh 29.24 in990.2 mb 0.00 in0.0 mm 0.00 in0.0 mm 0.00 in0.0 mm
10:40 AM 59.3°F15.2°C 51.4°F10.8°C 75% 9.6 mph WNW15.4 kmh WNW 11.0 mph17.7 kmh 29.24 in990.2 mb 0.00 in0.0 mm 0.00 in0.0 mm 0.00 in0.0 mm
10:41 AM 59.4°F15.2°C 51.5°F10.8°C 75% 8.7 mph WNW14.0 kmh WNW 11.0 mph17.7 kmh 29.24 in990.2 mb 0.00 in0.0 mm 0.00 in0.0 mm 0.00 in0.0 mm
10:42 AM 59.4°F15.2°C 52.2°F11.2°C 77% 8.7 mph WNW14.0 kmh WNW 10.0 mph16.1 kmh 29.24 in990.2 mb 0.00 in0.0 mm 0.00 in0.0 mm 0.00 in0.0 mm
10:43 AM 59.4°F15.2°C 51.5°F10.8°C 75% 7.9 mph NW12.7 kmh NW 10.0 mph16.1 kmh 29.24 in990.2 mb 0.00 in0.0 mm 0.00 in0.0 mm 0.00 in0.0 mm
10:44 AM 59.5°F15.3°C 50.8°F10.4°C 73% 8.0 mph NW12.9 kmh NW 9.0 mph14.5 kmh 29.24 in990.2 mb 0.00 in0.0 mm 0.00 in0.0 mm 0.00 in0.0 mm
10:45 AM 59.5°F15.3°C 50.8°F10.4°C 73% 6.9 mph WNW11.1 kmh WNW 9.0 mph14.5 kmh 29.24 in990.2 mb 0.00 in0.0 mm 0.00 in0.0 mm 0.00 in0.0 mm
10:46 AM 59.5°F15.3°C 50.8°F10.4°C 73% 6.8 mph NW10.9 kmh NW 9.0 mph14.5 kmh 29.24 in990.2 mb 0.00 in0.0 mm 0.00 in0.0 mm 0.00 in0.0 mm
10:47 AM 59.5°F15.3°C 51.6°F10.9°C 75% 6.7 mph NW10.8 kmh NW 9.0 mph14.5 kmh 29.24 in990.2 mb 0.00 in0.0 mm 0.00 in0.0 mm 0.00 in0.0 mm
10:48 AM 59.5°F15.3°C 51.2°F10.7°C 74% 9.0 mph NW14.5 kmh NW 11.0 mph17.7 kmh 29.24 in990.2 mb 0.00 in0.0 mm 0.00 in0.0 mm 0.00 in0.0 mm
10:49 AM 59.6°F15.3°C 51.3°F10.7°C 74% 9.2 mph NW14.8 kmh NW 11.0 mph17.7 kmh 29.24 in990.2 mb 0.00 in0.0 mm 0.00 in0.0 mm 0.00 in0.0 mm
10:50 AM 59.6°F15.3°C 52.0°F11.1°C 76% 10.0 mph NW16.1 kmh NW 12.0 mph19.3 kmh 29.24 in990.2 mb 0.00 in0.0 mm 0.00 in0.0 mm 0.00 in0.0 mm
10:51 AM 59.7°F15.4°C 52.1°F11.2°C 76% 11.5 mph NW18.5 kmh NW 12.0 mph19.3 kmh 29.24 in990.2 mb 0.00 in0.0 mm 0.00 in0.0 mm 0.00 in0.0 mm
10:52 AM 59.7°F15.4°C 51.8°F11.0°C 75% 11.3 mph NW18.2 kmh NW 13.0 mph20.9 kmh 29.24 in990.2 mb 0.00 in0.0 mm 0.00 in0.0 mm 0.00 in0.0 mm
10:53 AM 59.6°F15.3°C 51.7°F10.9°C 75% 10.2 mph NW16.4 kmh NW 13.0 mph20.9 kmh 29.24 in990.2 mb 0.00 in0.0 mm 0.00 in0.0 mm 0.00 in0.0 mm
10:54 AM 59.6°F15.3°C 52.0°F11.1°C 76% 10.5 mph NW16.9 kmh NW 11.0 mph17.7 kmh 29.24 in990.2 mb 0.00 in0.0 mm 0.00 in0.0 mm 0.00 in0.0 mm
10:55 AM 59.6°F15.3°C 51.3°F10.7°C 74% 10.6 mph NW17.1 kmh NW 12.0 mph19.3 kmh 29.24 in990.2 mb 0.00 in0.0 mm 0.00 in0.0 mm 0.00 in0.0 mm
10:56 AM 59.5°F15.3°C 51.2°F10.7°C 74% 9.6 mph NW15.4 kmh NW 12.0 mph19.3 kmh 29.24 in990.2 mb 0.00 in0.0 mm 0.00 in0.0 mm 0.00 in0.0 mm
10:57 AM 59.6°F15.3°C 52.0°F11.1°C 76% 10.6 mph NW17.1 kmh NW 12.0 mph19.3 kmh 29.24 in990.2 mb 0.00 in0.0 mm 0.00 in0.0 mm 0.00 in0.0 mm
10:58 AM 59.6°F15.3°C 51.7°F10.9°C 75% 9.4 mph NW15.1 kmh NW 12.0 mph19.3 kmh 29.24 in990.2 mb 0.00 in0.0 mm 0.00 in0.0 mm 0.00 in0.0 mm
10:59 AM 59.6°F15.3°C 52.4°F11.3°C 77% 8.8 mph NW14.2 kmh NW 11.0 mph17.7 kmh 29.24 in990.2 mb 0.00 in0.0 mm 0.00 in0.0 mm 0.00 in0.0 mm
11:00 AM 59.7°F15.4°C 52.5°F11.4°C 77% 9.2 mph NW14.8 kmh NW 10.0 mph16.1 kmh 29.24 in990.2 mb 0.00 in0.0 mm 0.00 in0.0 mm 0.00 in0.0 mm
11:01 AM 59.7°F15.4°C 51.8°F11.0°C 75% 8.7 mph WNW14.0 kmh WNW 10.0 mph16.1 kmh 29.24 in990.2 mb 0.00 in0.0 mm 0.00 in0.0 mm 0.00 in0.0 mm
11:02 AM 59.8°F15.4°C 51.9°F11.1°C 75% 8.1 mph WNW13.0 kmh WNW 10.0 mph16.1 kmh 29.24 in990.2 mb 0.00 in0.0 mm 0.00 in0.0 mm 0.00 in0.0 mm
11:03 AM 59.8°F15.4°C 51.9°F11.1°C 75% 8.0 mph WNW12.9 kmh WNW 9.0 mph14.5 kmh 29.24 in990.2 mb 0.00 in0.0 mm 0.00 in0.0 mm 0.00 in0.0 mm
11:04 AM 59.8°F15.4°C 51.9°F11.1°C 75% 7.6 mph WNW12.2 kmh WNW 9.0 mph14.5 kmh 29.24 in990.2 mb 0.00 in0.0 mm 0.00 in0.0 mm 0.00 in0.0 mm
11:05 AM 59.8°F15.4°C 51.9°F11.1°C 75% 8.8 mph WNW14.2 kmh WNW 10.0 mph16.1 kmh 29.25 in990.5 mb 0.00 in0.0 mm 0.00 in0.0 mm 0.00 in0.0 mm
11:06 AM 59.8°F15.4°C 51.1°F10.6°C 73% 6.6 mph WNW10.6 kmh WNW 10.0 mph16.1 kmh 29.25 in990.5 mb 0.00 in0.0 mm 0.00 in0.0 mm 0.00 in0.0 mm
11:07 AM 59.8°F15.4°C 51.9°F11.1°C 75% 6.6 mph WNW10.6 kmh WNW 8.0 mph12.9 kmh 29.24 in990.2 mb 0.00 in0.0 mm 0.00 in0.0 mm 0.00 in0.0 mm
11:08 AM 59.9°F15.5°C 52.0°F11.1°C 75% 5.6 mph WNW9.0 kmh WNW 8.0 mph12.9 kmh 29.24 in990.2 mb 0.00 in0.0 mm 0.00 in0.0 mm 0.00 in0.0 mm
11:09 AM 60.0°F15.6°C 52.1°F11.2°C 75% 7.2 mph WNW11.6 kmh WNW 8.0 mph12.9 kmh 29.24 in990.2 mb 0.00 in0.0 mm 0.00 in0.0 mm 0.00 in0.0 mm
11:10 AM 60.0°F15.6°C 51.7°F10.9°C 74% 6.6 mph WNW10.6 kmh WNW 8.0 mph12.9 kmh 29.24 in990.2 mb 0.00 in0.0 mm 0.00 in0.0 mm 0.00 in0.0 mm
11:11 AM 60.0°F15.6°C 52.1°F11.2°C 75% 7.6 mph NW12.2 kmh NW 10.0 mph16.1 kmh 29.24 in990.2 mb 0.00 in0.0 mm 0.00 in0.0 mm 0.00 in0.0 mm
11:12 AM 60.0°F15.6°C 51.7°F10.9°C 74% 9.9 mph NW15.9 kmh NW 11.0 mph17.7 kmh 29.24 in990.2 mb 0.00 in0.0 mm 0.00 in0.0 mm 0.00 in0.0 mm
11:13 AM 59.9°F15.5°C 50.8°F10.4°C 72% 10.8 mph NW17.4 kmh NW 12.0 mph19.3 kmh 29.24 in990.2 mb 0.00 in0.0 mm 0.00 in0.0 mm 0.00 in0.0 mm
11:14 AM 59.8°F15.4°C 51.9°F11.1°C 75% 8.9 mph NW14.3 kmh NW 12.0 mph19.3 kmh 29.24 in990.2 mb 0.00 in0.0 mm 0.00 in0.0 mm 0.00 in0.0 mm
11:15 AM 59.8°F15.4°C 51.5°F10.8°C 74% 9.1 mph NW14.6 kmh NW 10.0 mph16.1 kmh 29.24 in990.2 mb 0.00 in0.0 mm 0.00 in0.0 mm 0.00 in0.0 mm
11:16 AM 59.8°F15.4°C 51.5°F10.8°C 74% 8.9 mph NW14.3 kmh NW 10.0 mph16.1 kmh 29.24 in990.2 mb 0.00 in0.0 mm 0.00 in0.0 mm 0.00 in0.0 mm
11:17 AM 59.8°F15.4°C 51.5°F10.8°C 74% 8.7 mph NW14.0 kmh NW 10.0 mph16.1 kmh 29.24 in990.2 mb 0.00 in0.0 mm 0.00 in0.0 mm 0.00 in0.0 mm
11:18 AM 59.9°F15.5°C 51.6°F10.9°C 74% 8.9 mph NW14.3 kmh NW 10.0 mph16.1 kmh 29.25 in990.5 mb 0.00 in0.0 mm 0.00 in0.0 mm 0.00 in0.0 mm
11:19 AM 59.9°F15.5°C 51.2°F10.7°C 73% 9.5 mph NW15.3 kmh NW 10.0 mph16.1 kmh 29.24 in990.2 mb 0.00 in0.0 mm 0.00 in0.0 mm 0.00 in0.0 mm
11:20 AM 59.9°F15.5°C 51.6°F10.9°C 74% 8.6 mph NW13.8 kmh NW 10.0 mph16.1 kmh 29.24 in990.2 mb 0.00 in0.0 mm 0.00 in0.0 mm 0.00 in0.0 mm
11:21 AM 59.9°F15.5°C 51.2°F10.7°C 73% 9.2 mph NW14.8 kmh NW 11.0 mph17.7 kmh 29.25 in990.5 mb 0.00 in0.0 mm 0.00 in0.0 mm 0.00 in0.0 mm
11:22 AM 60.0°F15.6°C 50.9°F10.5°C 72% 9.1 mph NW14.6 kmh NW 11.0 mph17.7 kmh 29.24 in990.2 mb 0.00 in0.0 mm 0.00 in0.0 mm 0.00 in0.0 mm
11:23 AM 60.0°F15.6°C 51.7°F10.9°C 74% 9.0 mph NW14.5 kmh NW 11.0 mph17.7 kmh 29.25 in990.5 mb 0.00 in0.0 mm 0.00 in0.0 mm 0.00 in0.0 mm
11:24 AM 60.1°F15.6°C 51.0°F10.6°C 72% 10.4 mph NW16.7 kmh NW 11.0 mph17.7 kmh 29.25 in990.5 mb 0.00 in0.0 mm 0.00 in0.0 mm 0.00 in0.0 mm
11:25 AM 60.1°F15.6°C 51.4°F10.8°C 73% 8.4 mph NW13.5 kmh NW 11.0 mph17.7 kmh 29.25 in990.5 mb 0.00 in0.0 mm 0.00 in0.0 mm 0.00 in0.0 mm
11:26 AM 60.2°F15.7°C 51.1°F10.6°C 72% 8.7 mph NW14.0 kmh NW 10.0 mph16.1 kmh 29.25 in990.5 mb 0.00 in0.0 mm 0.00 in0.0 mm 0.00 in0.0 mm
11:27 AM 60.1°F15.6°C 50.7°F10.4°C 71% 9.5 mph NW15.3 kmh NW 10.0 mph16.1 kmh 29.25 in990.5 mb 0.00 in0.0 mm 0.00 in0.0 mm 0.00 in0.0 mm
11:28 AM 60.0°F15.6°C 51.3°F10.7°C 73% 10.3 mph NW16.6 kmh NW 13.0 mph20.9 kmh 29.24 in990.2 mb 0.00 in0.0 mm 0.00 in0.0 mm 0.00 in0.0 mm
11:29 AM 60.0°F15.6°C 51.3°F10.7°C 73% 12.8 mph NW20.6 kmh NW 14.0 mph22.5 kmh 29.24 in990.2 mb 0.00 in0.0 mm 0.00 in0.0 mm 0.00 in0.0 mm
11:30 AM 59.9°F15.5°C 51.6°F10.9°C 74% 11.8 mph NW19.0 kmh NW 14.0 mph22.5 kmh 29.24 in990.2 mb 0.00 in0.0 mm 0.00 in0.0 mm 0.00 in0.0 mm
11:31 AM 59.9°F15.5°C 51.6°F10.9°C 74% 10.2 mph NW16.4 kmh NW 13.0 mph20.9 kmh 29.24 in990.2 mb 0.00 in0.0 mm 0.00 in0.0 mm 0.00 in0.0 mm
11:32 AM 60.0°F15.6°C 51.3°F10.7°C 73% 10.5 mph NW16.9 kmh NW 11.0 mph17.7 kmh 29.24 in990.2 mb 0.00 in0.0 mm 0.00 in0.0 mm 0.00 in0.0 mm
11:33 AM 59.9°F15.5°C 51.2°F10.7°C 73% 9.5 mph NW15.3 kmh NW 11.0 mph17.7 kmh 29.24 in990.2 mb 0.00 in0.0 mm 0.00 in0.0 mm 0.00 in0.0 mm
11:34 AM 59.9°F15.5°C 51.2°F10.7°C 73% 10.4 mph NW16.7 kmh NW 12.0 mph19.3 kmh 29.24 in990.2 mb 0.00 in0.0 mm 0.00 in0.0 mm 0.00 in0.0 mm
11:35 AM 59.8°F15.4°C 51.1°F10.6°C 73% 10.8 mph NW17.4 kmh NW 12.0 mph19.3 kmh 29.24 in990.2 mb 0.00 in0.0 mm 0.00 in0.0 mm 0.00 in0.0 mm
11:36 AM 59.9°F15.5°C 50.8°F10.4°C 72% 10.7 mph NW17.2 kmh NW 12.0 mph19.3 kmh 29.25 in990.5 mb 0.00 in0.0 mm 0.00 in0.0 mm 0.00 in0.0 mm
11:37 AM 60.0°F15.6°C 50.6°F10.3°C 71% 10.9 mph NW17.5 kmh NW 11.0 mph17.7 kmh 29.25 in990.5 mb 0.00 in0.0 mm 0.00 in0.0 mm 0.00 in0.0 mm
11:38 AM 60.0°F15.6°C 50.6°F10.3°C 71% 10.3 mph NW16.6 kmh NW 12.0 mph19.3 kmh 29.25 in990.5 mb 0.00 in0.0 mm 0.00 in0.0 mm 0.00 in0.0 mm
11:39 AM 60.1°F15.6°C 50.7°F10.4°C 71% 9.2 mph NW14.8 kmh NW 12.0 mph19.3 kmh 29.25 in990.5 mb 0.00 in0.0 mm 0.00 in0.0 mm 0.00 in0.0 mm
11:40 AM 60.2°F15.7°C 51.1°F10.6°C 72% 10.0 mph NW16.1 kmh NW 12.0 mph19.3 kmh 29.25 in990.5 mb 0.00 in0.0 mm 0.00 in0.0 mm 0.00 in0.0 mm
11:41 AM 60.2°F15.7°C 51.1°F10.6°C 72% 10.7 mph NW17.2 kmh NW 12.0 mph19.3 kmh 29.25 in990.5 mb 0.00 in0.0 mm 0.00 in0.0 mm 0.00 in0.0 mm
11:42 AM 60.2°F15.7°C 51.5°F10.8°C 73% 10.5 mph NW16.9 kmh NW 12.0 mph19.3 kmh 29.25 in990.5 mb 0.00 in0.0 mm 0.00 in0.0 mm 0.00 in0.0 mm
11:43 AM 60.1°F15.6°C 52.1°F11.2°C 75% 10.5 mph NW16.9 kmh NW 12.0 mph19.3 kmh 29.25 in990.5 mb 0.00 in0.0 mm 0.00 in0.0 mm 0.00 in0.0 mm
11:44 AM 60.1°F15.6°C 52.5°F11.4°C 76% 11.4 mph NW18.3 kmh NW 13.0 mph20.9 kmh 29.25 in990.5 mb 0.00 in0.0 mm 0.00 in0.0 mm 0.00 in0.0 mm
11:45 AM 60.0°F15.6°C 52.1°F11.2°C 75% 11.5 mph NW18.5 kmh NW 13.0 mph20.9 kmh 29.25 in990.5 mb 0.00 in0.0 mm 0.00 in0.0 mm 0.00 in0.0 mm
11:46 AM 60.1°F15.6°C 52.1°F11.2°C 75% 11.0 mph NW17.7 kmh NW 12.0 mph19.3 kmh 29.25 in990.5 mb 0.00 in0.0 mm 0.00 in0.0 mm 0.00 in0.0 mm
11:47 AM 60.0°F15.6°C 52.8°F11.6°C 77% 12.3 mph NW19.8 kmh NW 15.0 mph24.1 kmh 29.25 in990.5 mb 0.00 in0.0 mm 0.00 in0.0 mm 0.00 in0.0 mm
11:48 AM 60.1°F15.6°C 52.1°F11.2°C 75% 13.5 mph NW21.7 kmh NW 15.0 mph24.1 kmh 29.25 in990.5 mb 0.00 in0.0 mm 0.00 in0.0 mm 0.00 in0.0 mm
11:49 AM 60.0°F15.6°C 51.7°F10.9°C 74% 11.7 mph NW18.8 kmh NW 15.0 mph24.1 kmh 29.25 in990.5 mb 0.00 in0.0 mm 0.00 in0.0 mm 0.00 in0.0 mm
11:50 AM 60.0°F15.6°C 52.1°F11.2°C 75% 11.5 mph NW18.5 kmh NW 12.0 mph19.3 kmh 29.25 in990.5 mb 0.00 in0.0 mm 0.00 in0.0 mm 0.00 in0.0 mm
11:51 AM 60.0°F15.6°C 52.1°F11.2°C 75% 11.1 mph NW17.9 kmh NW 12.0 mph19.3 kmh 29.25 in990.5 mb 0.00 in0.0 mm 0.00 in0.0 mm 0.00 in0.0 mm
11:52 AM 60.0°F15.6°C 51.7°F10.9°C 74% 9.3 mph NW15.0 kmh NW 12.0 mph19.3 kmh 29.25 in990.5 mb 0.00 in0.0 mm 0.00 in0.0 mm 0.00 in0.0 mm
11:53 AM 60.0°F15.6°C 52.8°F11.6°C 77% 9.4 mph NW15.1 kmh NW 11.0 mph17.7 kmh 29.25 in990.5 mb 0.00 in0.0 mm 0.00 in0.0 mm 0.00 in0.0 mm
11:54 AM 60.0°F15.6°C 52.4°F11.3°C 76% 9.5 mph NW15.3 kmh NW 10.0 mph16.1 kmh 29.25 in990.5 mb 0.00 in0.0 mm 0.00 in0.0 mm 0.00 in0.0 mm
11:55 AM 60.0°F15.6°C 52.1°F11.2°C 75% 9.3 mph NW15.0 kmh NW 10.0 mph16.1 kmh 29.25 in990.5 mb 0.00 in0.0 mm 0.00 in0.0 mm 0.00 in0.0 mm
11:56 AM 60.0°F15.6°C 52.1°F11.2°C 75% 8.9 mph NW14.3 kmh NW 10.0 mph16.1 kmh 29.25 in990.5 mb 0.00 in0.0 mm 0.00 in0.0 mm 0.00 in0.0 mm
11:57 AM 60.0°F15.6°C 52.4°F11.3°C 76% 9.0 mph NW14.5 kmh NW 10.0 mph16.1 kmh 29.25 in990.5 mb 0.00 in0.0 mm 0.00 in0.0 mm 0.00 in0.0 mm
11:58 AM 60.0°F15.6°C 52.1°F11.2°C 75% 9.0 mph NW14.5 kmh NW 10.0 mph16.1 kmh 29.25 in990.5 mb 0.00 in0.0 mm 0.00 in0.0 mm 0.00 in0.0 mm
11:59 AM 60.0°F15.6°C 52.1°F11.2°C 75% 10.0 mph NW16.1 kmh NW 11.0 mph17.7 kmh 29.25 in990.5 mb 0.00 in0.0 mm 0.00 in0.0 mm 0.00 in0.0 mm
12:00 PM 60.1°F15.6°C 50.7°F10.4°C 71% 9.3 mph NW15.0 kmh NW 11.0 mph17.7 kmh 29.25 in990.5 mb 0.00 in0.0 mm 0.00 in0.0 mm 0.00 in0.0 mm
12:01 PM 60.1°F15.6°C 51.4°F10.8°C 73% 9.1 mph NW14.6 kmh NW 11.0 mph17.7 kmh 29.25 in990.5 mb 0.00 in0.0 mm 0.00 in0.0 mm 0.00 in0.0 mm
12:02 PM 60.1°F15.6°C 51.8°F11.0°C 74% 9.6 mph NW15.4 kmh NW 11.0 mph17.7 kmh 29.25 in990.5 mb 0.00 in0.0 mm 0.00 in0.0 mm 0.00 in0.0 mm
12:03 PM 60.1°F15.6°C 51.0°F10.6°C 72% 8.7 mph WNW14.0 kmh WNW 11.0 mph17.7 kmh 29.25 in990.5 mb 0.00 in0.0 mm 0.00 in0.0 mm 0.00 in0.0 mm
12:04 PM 60.1°F15.6°C 51.0°F10.6°C 72% 8.7 mph WNW14.0 kmh WNW 11.0 mph17.7 kmh 29.25 in990.5 mb 0.00 in0.0 mm 0.00 in0.0 mm 0.00 in0.0 mm
12:05 PM 60.2°F15.7°C 51.5°F10.8°C 73% 10.2 mph NW16.4 kmh NW 12.0 mph19.3 kmh 29.25 in990.5 mb 0.00 in0.0 mm 0.00 in0.0 mm 0.00 in0.0 mm
12:06 PM 60.2°F15.7°C 50.4°F10.2°C 70% 11.1 mph NW17.9 kmh NW 12.0 mph19.3 kmh 29.25 in990.5 mb 0.00 in0.0 mm 0.00 in0.0 mm 0.00 in0.0 mm
12:07 PM 60.3°F15.7°C 50.1°F10.1°C 69% 10.6 mph WNW17.1 kmh WNW 12.0 mph19.3 kmh 29.25 in990.5 mb 0.00 in0.0 mm 0.00 in0.0 mm 0.00 in0.0 mm
12:08 PM 60.3°F15.7°C 50.5°F10.3°C 70% 9.4 mph NW15.1 kmh NW 12.0 mph19.3 kmh 29.25 in990.5 mb 0.00 in0.0 mm 0.00 in0.0 mm 0.00 in0.0 mm
12:09 PM 60.4°F15.8°C 50.6°F10.3°C 70% 8.8 mph NW14.2 kmh NW 10.0 mph16.1 kmh 29.25 in990.5 mb 0.00 in0.0 mm 0.00 in0.0 mm 0.00 in0.0 mm
12:10 PM 60.4°F15.8°C 51.0°F10.6°C 71% 8.6 mph WNW13.8 kmh WNW 10.0 mph16.1 kmh 29.26 in990.9 mb 0.00 in0.0 mm 0.00 in0.0 mm 0.00 in0.0 mm
12:11 PM 60.4°F15.8°C 50.2°F10.1°C 69% 7.1 mph WNW11.4 kmh WNW 9.0 mph14.5 kmh 29.25 in990.5 mb 0.00 in0.0 mm 0.00 in0.0 mm 0.00 in0.0 mm
12:12 PM 60.5°F15.8°C 51.0°F10.6°C 71% 7.7 mph WNW12.4 kmh WNW 10.0 mph16.1 kmh 29.25 in990.5 mb 0.00 in0.0 mm 0.00 in0.0 mm 0.00 in0.0 mm
12:13 PM 60.6°F15.9°C 50.8°F10.4°C 70% 10.2 mph WNW16.4 kmh WNW 11.0 mph17.7 kmh 29.26 in990.9 mb 0.00 in0.0 mm 0.00 in0.0 mm 0.00 in0.0 mm
12:14 PM 60.6°F15.9°C 50.4°F10.2°C 69% 9.6 mph WNW15.4 kmh WNW 11.0 mph17.7 kmh 29.25 in990.5 mb 0.00 in0.0 mm 0.00 in0.0 mm 0.00 in0.0 mm
12:15 PM 60.7°F15.9°C 50.9°F10.5°C 70% 9.8 mph NW15.8 kmh NW 12.0 mph19.3 kmh 29.25 in990.5 mb 0.00 in0.0 mm 0.00 in0.0 mm 0.00 in0.0 mm
12:16 PM 60.7°F15.9°C 50.9°F10.5°C 70% 7.3 mph NW11.7 kmh NW 12.0 mph19.3 kmh 29.25 in990.5 mb 0.00 in0.0 mm 0.00 in0.0 mm 0.00 in0.0 mm
12:17 PM 60.7°F15.9°C 51.2°F10.7°C 71% 8.1 mph WNW13.0 kmh WNW 9.0 mph14.5 kmh 29.26 in990.9 mb 0.00 in0.0 mm 0.00 in0.0 mm 0.00 in0.0 mm
12:18 PM 60.8°F16.0°C 51.3°F10.7°C 71% 7.9 mph WNW12.7 kmh WNW 10.0 mph16.1 kmh 29.26 in990.9 mb 0.00 in0.0 mm 0.00 in0.0 mm 0.00 in0.0 mm
12:19 PM 60.8°F16.0°C 51.0°F10.6°C 70% 7.9 mph WNW12.7 kmh WNW 10.0 mph16.1 kmh 29.26 in990.9 mb 0.00 in0.0 mm 0.00 in0.0 mm 0.00 in0.0 mm
12:20 PM 60.9°F16.1°C 51.4°F10.8°C 71% 8.0 mph WNW12.9 kmh WNW 9.0 mph14.5 kmh 29.25 in990.5 mb 0.00 in0.0 mm 0.00 in0.0 mm 0.00 in0.0 mm
12:21 PM 60.9°F16.1°C 51.4°F10.8°C 71% 5.1 mph NW8.2 kmh NW 9.0 mph14.5 kmh 29.25 in990.5 mb 0.00 in0.0 mm 0.00 in0.0 mm 0.00 in0.0 mm
12:22 PM 61.0°F16.1°C 51.9°F11.1°C 72% 6.3 mph WNW10.1 kmh WNW 8.0 mph12.9 kmh 29.26 in990.9 mb 0.00 in0.0 mm 0.00 in0.0 mm 0.00 in0.0 mm
12:23 PM 61.0°F16.1°C 52.7°F11.5°C 74% 7.7 mph NW12.4 kmh NW 9.0 mph14.5 kmh 29.26 in990.9 mb 0.00 in0.0 mm 0.00 in0.0 mm 0.00 in0.0 mm
12:24 PM 61.0°F16.1°C 51.9°F11.1°C 72% 7.8 mph NW12.6 kmh NW 9.0 mph14.5 kmh 29.26 in990.9 mb 0.00 in0.0 mm 0.00 in0.0 mm 0.00 in0.0 mm
12:25 PM 60.9°F16.1°C 51.8°F11.0°C 72% 8.7 mph NW14.0 kmh NW 11.0 mph17.7 kmh 29.26 in990.9 mb 0.00 in0.0 mm 0.00 in0.0 mm 0.00 in0.0 mm
12:26 PM 60.9°F16.1°C 52.6°F11.4°C 74% 10.3 mph NNW16.6 kmh NNW 11.0 mph17.7 kmh 29.26 in990.9 mb 0.00 in0.0 mm 0.00 in0.0 mm 0.00 in0.0 mm
12:27 PM 60.9°F16.1°C 52.2°F11.2°C 73% 9.5 mph NNW15.3 kmh NNW 11.0 mph17.7 kmh 29.26 in990.9 mb 0.00 in0.0 mm 0.00 in0.0 mm 0.00 in0.0 mm
12:28 PM 60.9°F16.1°C 52.6°F11.4°C 74% 12.4 mph NW20.0 kmh NW 14.0 mph22.5 kmh 29.26 in990.9 mb 0.00 in0.0 mm 0.00 in0.0 mm 0.00 in0.0 mm
12:29 PM 60.9°F16.1°C 51.8°F11.0°C 72% 12.2 mph NW19.6 kmh NW 14.0 mph22.5 kmh 29.26 in990.9 mb 0.00 in0.0 mm 0.00 in0.0 mm 0.00 in0.0 mm
12:30 PM 60.9°F16.1°C 51.4°F10.8°C 71% 11.9 mph NW19.2 kmh NW 14.0 mph22.5 kmh 29.26 in990.9 mb 0.00 in0.0 mm 0.00 in0.0 mm 0.00 in0.0 mm
12:31 PM 60.8°F16.0°C 51.0°F10.6°C 70% 12.3 mph NW19.8 kmh NW 13.0 mph20.9 kmh 29.26 in990.9 mb 0.00 in0.0 mm 0.00 in0.0 mm 0.00 in0.0 mm
12:32 PM 60.7°F15.9°C 50.9°F10.5°C 70% 11.5 mph NW18.5 kmh NW 13.0 mph20.9 kmh 29.26 in990.9 mb 0.00 in0.0 mm 0.00 in0.0 mm 0.00 in0.0 mm
12:33 PM 60.6°F15.9°C 50.8°F10.4°C 70% 10.8 mph NW17.4 kmh NW 13.0 mph20.9 kmh 29.26 in990.9 mb 0.00 in0.0 mm 0.00 in0.0 mm 0.00 in0.0 mm
12:34 PM 60.5°F15.8°C 50.7°F10.4°C 70% 9.6 mph NW15.4 kmh NW 12.0 mph19.3 kmh 29.26 in990.9 mb 0.00 in0.0 mm 0.00 in0.0 mm 0.00 in0.0 mm
12:35 PM 60.5°F15.8°C 50.7°F10.4°C 70% 9.8 mph NW15.8 kmh NW 11.0 mph17.7 kmh 29.26 in990.9 mb 0.00 in0.0 mm 0.00 in0.0 mm 0.00 in0.0 mm
12:36 PM 60.5°F15.8°C 51.4°F10.8°C 72% 10.0 mph NW16.1 kmh NW 11.0 mph17.7 kmh 29.26 in990.9 mb 0.00 in0.0 mm 0.00 in0.0 mm 0.00 in0.0 mm
12:37 PM 60.4°F15.8°C 51.7°F10.9°C 73% 9.4 mph NW15.1 kmh NW 11.0 mph17.7 kmh 29.26 in990.9 mb 0.00 in0.0 mm 0.00 in0.0 mm 0.00 in0.0 mm
12:38 PM 60.5°F15.8°C 51.0°F10.6°C 71% 9.9 mph NW15.9 kmh NW 11.0 mph17.7 kmh 29.26 in990.9 mb 0.00 in0.0 mm 0.00 in0.0 mm 0.00 in0.0 mm
12:39 PM 60.5°F15.8°C 51.0°F10.6°C 71% 9.4 mph NW15.1 kmh NW 11.0 mph17.7 kmh 29.26 in990.9 mb 0.00 in0.0 mm 0.00 in0.0 mm 0.00 in0.0 mm
12:40 PM 60.6°F15.9°C 51.5°F10.8°C 72% 9.4 mph NW15.1 kmh NW 11.0 mph17.7 kmh 29.26 in990.9 mb 0.00 in0.0 mm 0.00 in0.0 mm 0.00 in0.0 mm
12:41 PM 60.7°F15.9°C 51.6°F10.9°C 72% 10.5 mph NW16.9 kmh NW 12.0 mph19.3 kmh 29.26 in990.9 mb 0.00 in0.0 mm 0.00 in0.0 mm 0.00 in0.0 mm
12:42 PM 60.7°F15.9°C 52.0°F11.1°C 73% 10.7 mph NW17.2 kmh NW 12.0 mph19.3 kmh 29.26 in990.9 mb 0.00 in0.0 mm 0.00 in0.0 mm 0.00 in0.0 mm
12:43 PM 60.7°F15.9°C 51.2°F10.7°C 71% 11.1 mph NW17.9 kmh NW 12.0 mph19.3 kmh 29.26 in990.9 mb 0.00 in0.0 mm 0.00 in0.0 mm 0.00 in0.0 mm
12:44 PM 60.6°F15.9°C 50.8°F10.4°C 70% 10.0 mph NW16.1 kmh NW 12.0 mph19.3 kmh 29.26 in990.9 mb 0.00 in0.0 mm 0.00 in0.0 mm 0.00 in0.0 mm
12:45 PM 60.7°F15.9°C 51.6°F10.9°C 72% 10.0 mph NW16.1 kmh NW 11.0 mph17.7 kmh 29.26 in990.9 mb 0.00 in0.0 mm 0.00 in0.0 mm 0.00 in0.0 mm
12:46 PM 60.6°F15.9°C 50.8°F10.4°C 70% 12.0 mph NW19.3 kmh NW 13.0 mph20.9 kmh 29.26 in990.9 mb 0.00 in0.0 mm 0.00 in0.0 mm 0.00 in0.0 mm
12:47 PM 60.7°F15.9°C 50.9°F10.5°C 70% 12.6 mph NW20.3 kmh NW 14.0 mph22.5 kmh 29.26 in990.9 mb 0.00 in0.0 mm 0.00 in0.0 mm 0.00 in0.0 mm
12:48 PM 60.8°F16.0°C 51.0°F10.6°C 70% 11.5 mph NW18.5 kmh NW 14.0 mph22.5 kmh 29.26 in990.9 mb 0.00 in0.0 mm 0.00 in0.0 mm 0.00 in0.0 mm
12:49 PM 60.9°F16.1°C 51.8°F11.0°C 72% 10.5 mph NW16.9 kmh NW 13.0 mph20.9 kmh 29.26 in990.9 mb 0.00 in0.0 mm 0.00 in0.0 mm 0.00 in0.0 mm
12:50 PM 61.0°F16.1°C 52.7°F11.5°C 74% 10.4 mph NW16.7 kmh NW 12.0 mph19.3 kmh 29.26 in990.9 mb 0.00 in0.0 mm 0.00 in0.0 mm 0.00 in0.0 mm
12:51 PM 61.0°F16.1°C 52.7°F11.5°C 74% 11.5 mph NW18.5 kmh NW 13.0 mph20.9 kmh 29.26 in990.9 mb 0.00 in0.0 mm 0.00 in0.0 mm 0.00 in0.0 mm
12:52 PM 61.0°F16.1°C 50.8°F10.4°C 69% 12.8 mph NW20.6 kmh NW 14.0 mph22.5 kmh 29.26 in990.9 mb 0.00 in0.0 mm 0.00 in0.0 mm 0.00 in0.0 mm
12:53 PM 61.0°F16.1°C 50.4°F10.2°C 68% 13.7 mph NW22.0 kmh NW 14.0 mph22.5 kmh 29.26 in990.9 mb 0.00 in0.0 mm 0.00 in0.0 mm 0.00 in0.0 mm
12:54 PM 61.1°F16.2°C 51.2°F10.7°C 70% 13.0 mph NW20.9 kmh NW 14.0 mph22.5 kmh 29.26 in990.9 mb 0.00 in0.0 mm 0.00 in0.0 mm 0.00 in0.0 mm
12:55 PM 61.1°F16.2°C 50.8°F10.4°C 69% 13.4 mph NW21.6 kmh NW 14.0 mph22.5 kmh 29.26 in990.9 mb 0.00 in0.0 mm 0.00 in0.0 mm 0.00 in0.0 mm
12:56 PM 61.0°F16.1°C 50.0°F10.0°C 67% 12.8 mph NW20.6 kmh NW 14.0 mph22.5 kmh 29.26 in990.9 mb 0.00 in0.0 mm 0.00 in0.0 mm 0.00 in0.0 mm
12:57 PM 61.0°F16.1°C 50.4°F10.2°C 68% 12.5 mph NW20.1 kmh NW 14.0 mph22.5 kmh 29.26 in990.9 mb 0.00 in0.0 mm 0.00 in0.0 mm 0.00 in0.0 mm
12:58 PM 61.0°F16.1°C 51.5°F10.8°C 71% 11.5 mph NW18.5 kmh NW 13.0 mph20.9 kmh 29.26 in990.9 mb 0.00 in0.0 mm 0.00 in0.0 mm 0.00 in0.0 mm
12:59 PM 61.0°F16.1°C 51.9°F11.1°C 72% 12.2 mph NW19.6 kmh NW 13.0 mph20.9 kmh 29.26 in990.9 mb 0.00 in0.0 mm 0.00 in0.0 mm 0.00 in0.0 mm
01:00 PM 60.9°F16.1°C 51.0°F10.6°C 70% 11.3 mph NW18.2 kmh NW 13.0 mph20.9 kmh 29.26 in990.9 mb 0.00 in0.0 mm 0.00 in0.0 mm 0.00 in0.0 mm
01:01 PM 60.9°F16.1°C 51.4°F10.8°C 71% 10.4 mph NNW16.7 kmh NNW 12.0 mph19.3 kmh 29.26 in990.9 mb 0.00 in0.0 mm 0.00 in0.0 mm 0.00 in0.0 mm
01:02 PM 60.8°F16.0°C 51.7°F10.9°C 72% 9.7 mph NNW15.6 kmh NNW 11.0 mph17.7 kmh 29.26 in990.9 mb 0.00 in0.0 mm 0.00 in0.0 mm 0.00 in0.0 mm
01:03 PM 60.8°F16.0°C 51.3°F10.7°C 71% 9.6 mph NNW15.4 kmh NNW 11.0 mph17.7 kmh 29.26 in990.9 mb 0.00 in0.0 mm 0.00 in0.0 mm 0.00 in0.0 mm
01:04 PM 60.8°F16.0°C 51.7°F10.9°C 72% 8.6 mph NNW13.8 kmh NNW 10.0 mph16.1 kmh 29.26 in990.9 mb 0.00 in0.0 mm 0.00 in0.0 mm 0.00 in0.0 mm
01:05 PM 61.0°F16.1°C 52.3°F11.3°C 73% 7.7 mph N12.4 kmh N 10.0 mph16.1 kmh 29.26 in990.9 mb 0.00 in0.0 mm 0.00 in0.0 mm 0.00 in0.0 mm
01:06 PM 61.0°F16.1°C 51.9°F11.1°C 72% 6.8 mph N10.9 kmh N 10.0 mph16.1 kmh 29.26 in990.9 mb 0.00 in0.0 mm 0.00 in0.0 mm 0.00 in0.0 mm
01:07 PM 61.1°F16.2°C 52.0°F11.1°C 72% 7.7 mph NNW12.4 kmh NNW 9.0 mph14.5 kmh 29.26 in990.9 mb 0.00 in0.0 mm 0.00 in0.0 mm 0.00 in0.0 mm
01:08 PM 61.1°F16.2°C 52.4°F11.3°C 73% 9.5 mph NW15.3 kmh NW 15.0 mph24.1 kmh 29.27 in991.2 mb 0.00 in0.0 mm 0.00 in0.0 mm 0.00 in0.0 mm
01:09 PM 61.1°F16.2°C 52.0°F11.1°C 72% 11.5 mph NW18.5 kmh NW 15.0 mph24.1 kmh 29.27 in991.2 mb 0.00 in0.0 mm 0.00 in0.0 mm 0.00 in0.0 mm
01:10 PM 61.1°F16.2°C 51.6°F10.9°C 71% 11.7 mph NW18.8 kmh NW 14.0 mph22.5 kmh 29.27 in991.2 mb 0.00 in0.0 mm 0.00 in0.0 mm 0.00 in0.0 mm
01:11 PM 61.2°F16.2°C 52.5°F11.4°C 73% 12.8 mph NW20.6 kmh NW 14.0 mph22.5 kmh 29.27 in991.2 mb 0.00 in0.0 mm 0.00 in0.0 mm 0.00 in0.0 mm
01:12 PM 61.3°F16.3°C 51.8°F11.0°C 71% 12.9 mph NW20.8 kmh NW 16.0 mph25.7 kmh 29.27 in991.2 mb 0.00 in0.0 mm 0.00 in0.0 mm 0.00 in0.0 mm
01:13 PM 61.3°F16.3°C 52.2°F11.2°C 72% 11.8 mph NW19.0 kmh NW 16.0 mph25.7 kmh 29.27 in991.2 mb 0.00 in0.0 mm 0.00 in0.0 mm 0.00 in0.0 mm
01:14 PM 61.4°F16.3°C 51.5°F10.8°C 70% 11.6 mph NW18.7 kmh NW 13.0 mph20.9 kmh 29.27 in991.2 mb 0.00 in0.0 mm 0.00 in0.0 mm 0.00 in0.0 mm
01:15 PM 61.4°F16.3°C 51.9°F11.1°C 71% 10.8 mph NW17.4 kmh NW 13.0 mph20.9 kmh 29.27 in991.2 mb 0.00 in0.0 mm 0.00 in0.0 mm 0.00 in0.0 mm
01:16 PM 61.4°F16.3°C 52.3°F11.3°C 72% 9.4 mph NW15.1 kmh NW 12.0 mph19.3 kmh 29.27 in991.2 mb 0.00 in0.0 mm 0.00 in0.0 mm 0.00 in0.0 mm
01:17 PM 61.3°F16.3°C 51.8°F11.0°C 71% 8.9 mph NW14.3 kmh NW 11.0 mph17.7 kmh 29.27 in991.2 mb 0.00 in0.0 mm 0.00 in0.0 mm 0.00 in0.0 mm
01:18 PM 61.4°F16.3°C 51.1°F10.6°C 69% 9.7 mph NW15.6 kmh NW 11.0 mph17.7 kmh 29.27 in991.2 mb 0.00 in0.0 mm 0.00 in0.0 mm 0.00 in0.0 mm
01:19 PM 61.5°F16.4°C 51.6°F10.9°C 70% 10.0 mph NW16.1 kmh NW 12.0 mph19.3 kmh 29.27 in991.2 mb 0.00 in0.0 mm 0.00 in0.0 mm 0.00 in0.0 mm
01:20 PM 61.5°F16.4°C 52.0°F11.1°C 71% 11.2 mph NW18.0 kmh NW 13.0 mph20.9 kmh 29.27 in991.2 mb 0.00 in0.0 mm 0.00 in0.0 mm 0.00 in0.0 mm
01:21 PM 61.6°F16.4°C 52.5°F11.4°C 72% 12.2 mph NW19.6 kmh NW 13.0 mph20.9 kmh 29.27 in991.2 mb 0.00 in0.0 mm 0.00 in0.0 mm 0.00 in0.0 mm
01:22 PM 61.7°F16.5°C 51.4°F10.8°C 69% 12.2 mph NW19.6 kmh NW 13.0 mph20.9 kmh 29.27 in991.2 mb 0.00 in0.0 mm 0.00 in0.0 mm 0.00 in0.0 mm
01:23 PM 61.8°F16.6°C 51.9°F11.1°C 70% 11.5 mph NW18.5 kmh NW 13.0 mph20.9 kmh 29.27 in991.2 mb 0.00 in0.0 mm 0.00 in0.0 mm 0.00 in0.0 mm
01:24 PM 61.9°F16.6°C 52.0°F11.1°C 70% 11.6 mph NNW18.7 kmh NNW 13.0 mph20.9 kmh 29.27 in991.2 mb 0.00 in0.0 mm 0.00 in0.0 mm 0.00 in0.0 mm
01:25 PM 62.0°F16.7°C 52.9°F11.6°C 72% 9.9 mph NNW15.9 kmh NNW 12.0 mph19.3 kmh 29.27 in991.2 mb 0.00 in0.0 mm 0.00 in0.0 mm 0.00 in0.0 mm
01:26 PM 62.0°F16.7°C 52.9°F11.6°C 72% 8.4 mph N13.5 kmh N 11.0 mph17.7 kmh 29.27 in991.2 mb 0.00 in0.0 mm 0.00 in0.0 mm 0.00 in0.0 mm
01:27 PM 62.0°F16.7°C 52.1°F11.2°C 70% 10.1 mph N16.3 kmh N 11.0 mph17.7 kmh 29.27 in991.2 mb 0.00 in0.0 mm 0.00 in0.0 mm 0.00 in0.0 mm
01:28 PM 61.9°F16.6°C 52.8°F11.6°C 72% 9.4 mph N15.1 kmh N 11.0 mph17.7 kmh 29.27 in991.2 mb 0.00 in0.0 mm 0.00 in0.0 mm 0.00 in0.0 mm
01:29 PM 61.8°F16.6°C 53.0°F11.7°C 73% 9.0 mph NNW14.5 kmh NNW 11.0 mph17.7 kmh 29.27 in991.2 mb 0.00 in0.0 mm 0.00 in0.0 mm 0.00 in0.0 mm
01:30 PM 61.8°F16.6°C 53.4°F11.9°C 74% 8.8 mph NNW14.2 kmh NNW 10.0 mph16.1 kmh 29.27 in991.2 mb 0.00 in0.0 mm 0.00 in0.0 mm 0.00 in0.0 mm
01:31 PM 61.6°F16.4°C 53.2°F11.8°C 74% 8.5 mph NNW13.7 kmh NNW 10.0 mph16.1 kmh 29.27 in991.2 mb 0.00 in0.0 mm 0.00 in0.0 mm 0.00 in0.0 mm
01:32 PM 61.5°F16.4°C 53.1°F11.7°C 74% 10.0 mph NW16.1 kmh NW 12.0 mph19.3 kmh 29.27 in991.2 mb 0.00 in0.0 mm 0.00 in0.0 mm 0.00 in0.0 mm
01:33 PM 61.4°F16.3°C 52.7°F11.5°C 73% 11.8 mph NW19.0 kmh NW 13.0 mph20.9 kmh 29.27 in991.2 mb 0.00 in0.0 mm 0.00 in0.0 mm 0.00 in0.0 mm
01:34 PM 61.3°F16.3°C 51.4°F10.8°C 70% 11.8 mph NW19.0 kmh NW 13.0 mph20.9 kmh 29.27 in991.2 mb 0.00 in0.0 mm 0.00 in0.0 mm 0.00 in0.0 mm
01:35 PM 61.2°F16.2°C 50.9°F10.5°C 69% 11.0 mph NW17.7 kmh NW 13.0 mph20.9 kmh 29.27 in991.2 mb 0.00 in0.0 mm 0.00 in0.0 mm 0.00 in0.0 mm
01:36 PM 61.2°F16.2°C 52.5°F11.4°C 73% 9.4 mph NNW15.1 kmh NNW 12.0 mph19.3 kmh 29.27 in991.2 mb 0.00 in0.0 mm 0.00 in0.0 mm 0.00 in0.0 mm
01:37 PM 61.2°F16.2°C 52.8°F11.6°C 74% 9.2 mph NNW14.8 kmh NNW 11.0 mph17.7 kmh 29.27 in991.2 mb 0.00 in0.0 mm 0.00 in0.0 mm 0.00 in0.0 mm
01:38 PM 61.2°F16.2°C 52.8°F11.6°C 74% 7.5 mph NNW12.1 kmh NNW 10.0 mph16.1 kmh 29.27 in991.2 mb 0.00 in0.0 mm 0.00 in0.0 mm 0.00 in0.0 mm
01:39 PM 61.2°F16.2°C 53.2°F11.8°C 75% 5.7 mph N9.2 kmh N 9.0 mph14.5 kmh 29.27 in991.2 mb 0.00 in0.0 mm 0.00 in0.0 mm 0.00 in0.0 mm
01:40 PM 61.2°F16.2°C 53.2°F11.8°C 75% 5.8 mph N9.3 kmh N 9.0 mph14.5 kmh 29.27 in991.2 mb 0.00 in0.0 mm 0.00 in0.0 mm 0.00 in0.0 mm
01:41 PM 61.2°F16.2°C 52.8°F11.6°C 74% 10.1 mph NNW16.3 kmh NNW 11.0 mph17.7 kmh 29.27 in991.2 mb 0.00 in0.0 mm 0.00 in0.0 mm 0.00 in0.0 mm
01:42 PM 61.1°F16.2°C 52.7°F11.5°C 74% 10.5 mph NNW16.9 kmh NNW 12.0 mph19.3 kmh 29.27 in991.2 mb 0.00 in0.0 mm 0.00 in0.0 mm 0.00 in0.0 mm
01:43 PM 61.1°F16.2°C 53.1°F11.7°C 75% 10.6 mph NNW17.1 kmh NNW 12.0 mph19.3 kmh 29.27 in991.2 mb 0.00 in0.0 mm 0.00 in0.0 mm 0.00 in0.0 mm
01:44 PM 61.0°F16.1°C 52.7°F11.5°C 74% 9.9 mph NNW15.9 kmh NNW 12.0 mph19.3 kmh 29.27 in991.2 mb 0.00 in0.0 mm 0.00 in0.0 mm 0.00 in0.0 mm
01:45 PM 61.0°F16.1°C 53.0°F11.7°C 75% 10.7 mph NNW17.2 kmh NNW 13.0 mph20.9 kmh 29.27 in991.2 mb 0.00 in0.0 mm 0.00 in0.0 mm 0.00 in0.0 mm
01:46 PM 60.9°F16.1°C 52.6°F11.4°C 74% 11.8 mph NNW19.0 kmh NNW 14.0 mph22.5 kmh 29.27 in991.2 mb 0.00 in0.0 mm 0.00 in0.0 mm 0.00 in0.0 mm
01:47 PM 61.0°F16.1°C 52.3°F11.3°C 73% 12.2 mph NW19.6 kmh NW 14.0 mph22.5 kmh 29.27 in991.2 mb 0.00 in0.0 mm 0.00 in0.0 mm 0.00 in0.0 mm
01:48 PM 60.9°F16.1°C 51.8°F11.0°C 72% 11.7 mph NW18.8 kmh NW 13.0 mph20.9 kmh 29.27 in991.2 mb 0.00 in0.0 mm 0.00 in0.0 mm 0.00 in0.0 mm
01:49 PM 60.9°F16.1°C 52.2°F11.2°C 73% 11.1 mph NW17.9 kmh NW 13.0 mph20.9 kmh 29.27 in991.2 mb 0.00 in0.0 mm 0.00 in0.0 mm 0.00 in0.0 mm
01:50 PM 60.8°F16.0°C 52.1°F11.2°C 73% 10.0 mph NW16.1 kmh NW 12.0 mph19.3 kmh 29.27 in991.2 mb 0.00 in0.0 mm 0.00 in0.0 mm 0.00 in0.0 mm
01:51 PM 60.9°F16.1°C 52.2°F11.2°C 73% 11.5 mph NW18.5 kmh NW 13.0 mph20.9 kmh 29.27 in991.2 mb 0.00 in0.0 mm 0.00 in0.0 mm 0.00 in0.0 mm
01:52 PM 60.9°F16.1°C 52.2°F11.2°C 73% 10.5 mph NW16.9 kmh NW 13.0 mph20.9 kmh 29.27 in991.2 mb 0.00 in0.0 mm 0.00 in0.0 mm 0.00 in0.0 mm
01:53 PM 60.9°F16.1°C 52.2°F11.2°C 73% 9.7 mph NW15.6 kmh NW 12.0 mph19.3 kmh 29.27 in991.2 mb 0.00 in0.0 mm 0.00 in0.0 mm 0.00 in0.0 mm
01:54 PM 60.9°F16.1°C 52.2°F11.2°C 73% 10.0 mph NW16.1 kmh NW 11.0 mph17.7 kmh 29.27 in991.2 mb 0.00 in0.0 mm 0.00 in0.0 mm 0.00 in0.0 mm
01:55 PM 61.0°F16.1°C 52.7°F11.5°C 74% 10.0 mph NW16.1 kmh NW 11.0 mph17.7 kmh 29.27 in991.2 mb 0.00 in0.0 mm 0.00 in0.0 mm 0.00 in0.0 mm
01:56 PM 60.9°F16.1°C 52.2°F11.2°C 73% 10.0 mph NW16.1 kmh NW 11.0 mph17.7 kmh 29.27 in991.2 mb 0.00 in0.0 mm 0.00 in0.0 mm 0.00 in0.0 mm
01:57 PM 60.9°F16.1°C 51.8°F11.0°C 72% 10.7 mph NW17.2 kmh NW 12.0 mph19.3 kmh 29.27 in991.2 mb 0.00 in0.0 mm 0.00 in0.0 mm 0.00 in0.0 mm
01:58 PM 61.0°F16.1°C 51.9°F11.1°C 72% 10.4 mph NW16.7 kmh NW 12.0 mph19.3 kmh 29.27 in991.2 mb 0.00 in0.0 mm 0.00 in0.0 mm 0.00 in0.0 mm
01:59 PM 60.9°F16.1°C 51.4°F10.8°C 71% 9.8 mph NW15.8 kmh NW 11.0 mph17.7 kmh 29.27 in991.2 mb 0.00 in0.0 mm 0.00 in0.0 mm 0.00 in0.0 mm
02:00 PM 60.9°F16.1°C 51.8°F11.0°C 72% 9.8 mph NW15.8 kmh NW 11.0 mph17.7 kmh 29.27 in991.2 mb 0.00 in0.0 mm 0.00 in0.0 mm 0.00 in0.0 mm
02:01 PM 60.9°F16.1°C 51.8°F11.0°C 72% 9.0 mph NW14.5 kmh NW 11.0 mph17.7 kmh 29.27 in991.2 mb 0.00 in0.0 mm 0.00 in0.0 mm 0.00 in0.0 mm
02:02 PM 60.9°F16.1°C 52.6°F11.4°C 74% 9.2 mph NW14.8 kmh NW 11.0 mph17.7 kmh 29.27 in991.2 mb 0.00 in0.0 mm 0.00 in0.0 mm 0.00 in0.0 mm
02:03 PM 60.9°F16.1°C 52.6°F11.4°C 74% 8.8 mph NW14.2 kmh NW 11.0 mph17.7 kmh 29.27 in991.2 mb 0.00 in0.0 mm 0.00 in0.0 mm 0.00 in0.0 mm
02:04 PM 60.9°F16.1°C 52.9°F11.6°C 75% 8.4 mph NW13.5 kmh NW 10.0 mph16.1 kmh 29.27 in991.2 mb 0.00 in0.0 mm 0.00 in0.0 mm 0.00 in0.0 mm
02:05 PM 60.9°F16.1°C 52.6°F11.4°C 74% 9.4 mph NW15.1 kmh NW 11.0 mph17.7 kmh 29.27 in991.2 mb 0.00 in0.0 mm 0.00 in0.0 mm 0.00 in0.0 mm
02:06 PM 60.8°F16.0°C 51.7°F10.9°C 72% 9.1 mph NW14.6 kmh NW 11.0 mph17.7 kmh 29.27 in991.2 mb 0.00 in0.0 mm 0.00 in0.0 mm 0.00 in0.0 mm
02:07 PM 60.8°F16.0°C 52.5°F11.4°C 74% 8.1 mph NW13.0 kmh NW 10.0 mph16.1 kmh 29.27 in991.2 mb 0.00 in0.0 mm 0.00 in0.0 mm 0.00 in0.0 mm
02:08 PM 60.8°F16.0°C 52.1°F11.2°C 73% 8.8 mph NW14.2 kmh NW 10.0 mph16.1 kmh 29.27 in991.2 mb 0.00 in0.0 mm 0.00 in0.0 mm 0.00 in0.0 mm
02:09 PM 60.8°F16.0°C 52.1°F11.2°C 73% 8.3 mph NW13.4 kmh NW 10.0 mph16.1 kmh 29.27 in991.2 mb 0.00 in0.0 mm 0.00 in0.0 mm 0.00 in0.0 mm
02:10 PM 60.8°F16.0°C 51.7°F10.9°C 72% 8.6 mph NW13.8 kmh NW 10.0 mph16.1 kmh 29.27 in991.2 mb 0.00 in0.0 mm 0.00 in0.0 mm 0.00 in0.0 mm
02:11 PM 60.7°F15.9°C 52.0°F11.1°C 73% 7.5 mph NW12.1 kmh NW 10.0 mph16.1 kmh 29.27 in991.2 mb 0.00 in0.0 mm 0.00 in0.0 mm 0.00 in0.0 mm
02:12 PM 60.8°F16.0°C 52.1°F11.2°C 73% 8.2 mph NW13.2 kmh NW 10.0 mph16.1 kmh 29.27 in991.2 mb 0.00 in0.0 mm 0.00 in0.0 mm 0.00 in0.0 mm
02:13 PM 60.8°F16.0°C 51.7°F10.9°C 72% 9.4 mph NW15.1 kmh NW 11.0 mph17.7 kmh 29.27 in991.2 mb 0.00 in0.0 mm 0.00 in0.0 mm 0.00 in0.0 mm
02:14 PM 60.8°F16.0°C 52.1°F11.2°C 73% 7.4 mph NW11.9 kmh NW 11.0 mph17.7 kmh 29.27 in991.2 mb 0.00 in0.0 mm 0.00 in0.0 mm 0.00 in0.0 mm
02:15 PM 60.8°F16.0°C 51.7°F10.9°C 72% 6.6 mph NW10.6 kmh NW 9.0 mph14.5 kmh 29.27 in991.2 mb 0.00 in0.0 mm 0.00 in0.0 mm 0.00 in0.0 mm
02:16 PM 60.8°F16.0°C 52.1°F11.2°C 73% 7.4 mph NW11.9 kmh NW 9.0 mph14.5 kmh 29.27 in991.2 mb 0.00 in0.0 mm 0.00 in0.0 mm 0.00 in0.0 mm
02:17 PM 60.8°F16.0°C 52.8°F11.6°C 75% 5.9 mph NNW9.5 kmh NNW 9.0 mph14.5 kmh 29.28 in991.5 mb 0.00 in0.0 mm 0.00 in0.0 mm 0.00 in0.0 mm
02:18 PM 60.8°F16.0°C 52.8°F11.6°C 75% 4.8 mph N7.7 kmh N 8.0 mph12.9 kmh 29.28 in991.5 mb 0.00 in0.0 mm 0.00 in0.0 mm 0.00 in0.0 mm
02:19 PM 60.7°F15.9°C 53.1°F11.7°C 76% 5.5 mph N8.9 kmh N 6.0 mph9.7 kmh 29.28 in991.5 mb 0.00 in0.0 mm 0.00 in0.0 mm 0.00 in0.0 mm
02:20 PM 60.7°F15.9°C 53.1°F11.7°C 76% 4.5 mph N7.2 kmh N 6.0 mph9.7 kmh 29.28 in991.5 mb 0.00 in0.0 mm 0.00 in0.0 mm 0.00 in0.0 mm
02:21 PM 60.7°F15.9°C 52.7°F11.5°C 75% 5.5 mph N8.9 kmh N 8.0 mph12.9 kmh 29.28 in991.5 mb 0.00 in0.0 mm 0.00 in0.0 mm 0.00 in0.0 mm
02:22 PM 60.7°F15.9°C 52.7°F11.5°C 75% 5.2 mph N8.4 kmh N 8.0 mph12.9 kmh 29.28 in991.5 mb 0.00 in0.0 mm 0.00 in0.0 mm 0.00 in0.0 mm
02:23 PM 60.6°F15.9°C 52.3°F11.3°C 74% 4.7 mph NNW7.6 kmh NNW 6.0 mph9.7 kmh 29.28 in991.5 mb 0.00 in0.0 mm 0.00 in0.0 mm 0.00 in0.0 mm
02:24 PM 60.6°F15.9°C 52.6°F11.4°C 75% 4.7 mph N7.6 kmh N 6.0 mph9.7 kmh 29.28 in991.5 mb 0.00 in0.0 mm 0.00 in0.0 mm 0.00 in0.0 mm
02:25 PM 60.6°F15.9°C 52.6°F11.4°C 75% 5.0 mph N8.0 kmh N 7.0 mph11.3 kmh 29.28 in991.5 mb 0.00 in0.0 mm 0.00 in0.0 mm 0.00 in0.0 mm
02:26 PM 60.5°F15.8°C 52.5°F11.4°C 75% 5.6 mph N9.0 kmh N 8.0 mph12.9 kmh 29.28 in991.5 mb 0.00 in0.0 mm 0.00 in0.0 mm 0.00 in0.0 mm
02:27 PM 60.5°F15.8°C 52.5°F11.4°C 75% 6.4 mph N10.3 kmh N 9.0 mph14.5 kmh 29.28 in991.5 mb 0.00 in0.0 mm 0.00 in0.0 mm 0.00 in0.0 mm
02:28 PM 60.5°F15.8°C 52.2°F11.2°C 74% 8.0 mph N12.9 kmh N 10.0 mph16.1 kmh 29.28 in991.5 mb 0.00 in0.0 mm 0.00 in0.0 mm 0.00 in0.0 mm
02:29 PM 60.5°F15.8°C 52.5°F11.4°C 75% 7.2 mph N11.6 kmh N 10.0 mph16.1 kmh 29.27 in991.2 mb 0.00 in0.0 mm 0.00 in0.0 mm 0.00 in0.0 mm
02:30 PM 60.5°F15.8°C 52.5°F11.4°C 75% 5.8 mph N9.3 kmh N 9.0 mph14.5 kmh 29.27 in991.2 mb 0.00 in0.0 mm 0.00 in0.0 mm 0.00 in0.0 mm
02:31 PM 60.5°F15.8°C 52.9°F11.6°C 76% 6.6 mph N10.6 kmh N 9.0 mph14.5 kmh 29.28 in991.5 mb 0.00 in0.0 mm 0.00 in0.0 mm 0.00 in0.0 mm
02:32 PM 60.5°F15.8°C 52.9°F11.6°C 76% 5.5 mph N8.9 kmh N 9.0 mph14.5 kmh 29.27 in991.2 mb 0.00 in0.0 mm 0.00 in0.0 mm 0.00 in0.0 mm
02:33 PM 60.5°F15.8°C 53.3°F11.8°C 77% 6.9 mph N11.1 kmh N 9.0 mph14.5 kmh 29.27 in991.2 mb 0.00 in0.0 mm 0.00 in0.0 mm 0.00 in0.0 mm
02:34 PM 60.5°F15.8°C 52.9°F11.6°C 76% 7.9 mph N12.7 kmh N 11.0 mph17.7 kmh 29.27 in991.2 mb 0.00 in0.0 mm 0.00 in0.0 mm 0.00 in0.0 mm
02:35 PM 60.5°F15.8°C 52.9°F11.6°C 76% 8.7 mph NNW14.0 kmh NNW 11.0 mph17.7 kmh 29.27 in991.2 mb 0.00 in0.0 mm 0.00 in0.0 mm 0.00 in0.0 mm
02:36 PM 60.5°F15.8°C 53.3°F11.8°C 77% 6.8 mph N10.9 kmh N 10.0 mph16.1 kmh 29.27 in991.2 mb 0.00 in0.0 mm 0.00 in0.0 mm 0.00 in0.0 mm
02:37 PM 60.5°F15.8°C 52.9°F11.6°C 76% 7.4 mph N11.9 kmh N 10.0 mph16.1 kmh 29.27 in991.2 mb 0.00 in0.0 mm 0.00 in0.0 mm 0.00 in0.0 mm
02:38 PM 60.5°F15.8°C 52.9°F11.6°C 76% 8.0 mph N12.9 kmh N 10.0 mph16.1 kmh 29.27 in991.2 mb 0.00 in0.0 mm 0.00 in0.0 mm 0.00 in0.0 mm
02:39 PM 60.5°F15.8°C 52.5°F11.4°C 75% 9.1 mph N14.6 kmh N 12.0 mph19.3 kmh 29.27 in991.2 mb 0.00 in0.0 mm 0.00 in0.0 mm 0.00 in0.0 mm
02:40 PM 60.5°F15.8°C 52.2°F11.2°C 74% 10.2 mph N16.4 kmh N 12.0 mph19.3 kmh 29.27 in991.2 mb 0.00 in0.0 mm 0.00 in0.0 mm 0.00 in0.0 mm
02:41 PM 60.5°F15.8°C 52.5°F11.4°C 75% 10.3 mph N16.6 kmh N 12.0 mph19.3 kmh 29.27 in991.2 mb 0.00 in0.0 mm 0.00 in0.0 mm 0.00 in0.0 mm
02:42 PM 60.5°F15.8°C 52.2°F11.2°C 74% 8.2 mph N13.2 kmh N 12.0 mph19.3 kmh 29.27 in991.2 mb 0.00 in0.0 mm 0.00 in0.0 mm 0.00 in0.0 mm
02:43 PM 60.5°F15.8°C 52.5°F11.4°C 75% 8.3 mph N13.4 kmh N 10.0 mph16.1 kmh 29.28 in991.5 mb 0.00 in0.0 mm 0.00 in0.0 mm 0.00 in0.0 mm
02:44 PM 60.5°F15.8°C 52.5°F11.4°C 75% 8.6 mph N13.8 kmh N 11.0 mph17.7 kmh 29.28 in991.5 mb 0.00 in0.0 mm 0.00 in0.0 mm 0.00 in0.0 mm
02:45 PM 60.5°F15.8°C 52.2°F11.2°C 74% 9.2 mph N14.8 kmh N 11.0 mph17.7 kmh 29.28 in991.5 mb 0.00 in0.0 mm 0.00 in0.0 mm 0.00 in0.0 mm
02:46 PM 60.6°F15.9°C 52.3°F11.3°C 74% 10.0 mph N16.1 kmh N 11.0 mph17.7 kmh 29.28 in991.5 mb 0.00 in0.0 mm 0.00 in0.0 mm 0.00 in0.0 mm
02:47 PM 60.5°F15.8°C 52.2°F11.2°C 74% 8.5 mph N13.7 kmh N 11.0 mph17.7 kmh 29.28 in991.5 mb 0.00 in0.0 mm 0.00 in0.0 mm 0.00 in0.0 mm
02:48 PM 60.5°F15.8°C 52.9°F11.6°C 76% 8.9 mph N14.3 kmh N 11.0 mph17.7 kmh 29.28 in991.5 mb 0.00 in0.0 mm 0.00 in0.0 mm 0.00 in0.0 mm
02:49 PM 60.5°F15.8°C 52.5°F11.4°C 75% 8.8 mph N14.2 kmh N 11.0 mph17.7 kmh 29.28 in991.5 mb 0.00 in0.0 mm 0.00 in0.0 mm 0.00 in0.0 mm
02:50 PM 60.5°F15.8°C 52.5°F11.4°C 75% 7.7 mph N12.4 kmh N 11.0 mph17.7 kmh 29.28 in991.5 mb 0.00 in0.0 mm 0.00 in0.0 mm 0.00 in0.0 mm
02:51 PM 60.5°F15.8°C 52.9°F11.6°C 76% 7.8 mph N12.6 kmh N 11.0 mph17.7 kmh 29.28 in991.5 mb 0.00 in0.0 mm 0.00 in0.0 mm 0.00 in0.0 mm
02:52 PM 60.5°F15.8°C 52.5°F11.4°C 75% 9.7 mph N15.6 kmh N 12.0 mph19.3 kmh 29.28 in991.5 mb 0.00 in0.0 mm 0.00 in0.0 mm 0.00 in0.0 mm
02:53 PM 60.5°F15.8°C 52.5°F11.4°C 75% 9.4 mph N15.1 kmh N 12.0 mph19.3 kmh 29.28 in991.5 mb 0.00 in0.0 mm 0.00 in0.0 mm 0.00 in0.0 mm
02:54 PM 60.5°F15.8°C 52.5°F11.4°C 75% 6.6 mph N10.6 kmh N 11.0 mph17.7 kmh 29.28 in991.5 mb 0.00 in0.0 mm 0.00 in0.0 mm 0.00 in0.0 mm
02:55 PM 60.5°F15.8°C 52.9°F11.6°C 76% 5.2 mph N8.4 kmh N 9.0 mph14.5 kmh 29.28 in991.5 mb 0.00 in0.0 mm 0.00 in0.0 mm 0.00 in0.0 mm
02:56 PM 60.4°F15.8°C 52.1°F11.2°C 74% 8.2 mph N13.2 kmh N 10.0 mph16.1 kmh 29.28 in991.5 mb 0.00 in0.0 mm 0.00 in0.0 mm 0.00 in0.0 mm
02:57 PM 60.4°F15.8°C 52.4°F11.3°C 75% 8.3 mph N13.4 kmh N 10.0 mph16.1 kmh 29.28 in991.5 mb 0.00 in0.0 mm 0.00 in0.0 mm 0.00 in0.0 mm
02:58 PM 60.5°F15.8°C 52.5°F11.4°C 75% 7.9 mph N12.7 kmh N 10.0 mph16.1 kmh 29.28 in991.5 mb 0.00 in0.0 mm 0.00 in0.0 mm 0.00 in0.0 mm
02:59 PM 60.4°F15.8°C 52.4°F11.3°C 75% 8.8 mph N14.2 kmh N 10.0 mph16.1 kmh 29.28 in991.5 mb 0.00 in0.0 mm 0.00 in0.0 mm 0.00 in0.0 mm
03:00 PM 60.4°F15.8°C 52.1°F11.2°C 74% 6.5 mph N10.5 kmh N 10.0 mph16.1 kmh 29.28 in991.5 mb 0.00 in0.0 mm 0.00 in0.0 mm 0.00 in0.0 mm
03:01 PM 60.4°F15.8°C 51.7°F10.9°C 73% 8.0 mph N12.9 kmh N 11.0 mph17.7 kmh 29.28 in991.5 mb 0.00 in0.0 mm 0.00 in0.0 mm 0.00 in0.0 mm
03:02 PM 60.4°F15.8°C 52.4°F11.3°C 75% 7.8 mph N12.6 kmh N 11.0 mph17.7 kmh 29.28 in991.5 mb 0.00 in0.0 mm 0.00 in0.0 mm 0.00 in0.0 mm
03:03 PM 60.4°F15.8°C 52.4°F11.3°C 75% 7.7 mph N12.4 kmh N 10.0 mph16.1 kmh 29.28 in991.5 mb 0.00 in0.0 mm 0.00 in0.0 mm 0.00 in0.0 mm
03:04 PM 60.4°F15.8°C 52.4°F11.3°C 75% 9.3 mph NNW15.0 kmh NNW 11.0 mph17.7 kmh 29.28 in991.5 mb 0.00 in0.0 mm 0.00 in0.0 mm 0.00 in0.0 mm
03:05 PM 60.4°F15.8°C 52.8°F11.6°C 76% 10.1 mph N16.3 kmh N 11.0 mph17.7 kmh 29.28 in991.5 mb 0.00 in0.0 mm 0.00 in0.0 mm 0.00 in0.0 mm
03:06 PM 60.4°F15.8°C 52.8°F11.6°C 76% 9.5 mph N15.3 kmh N 11.0 mph17.7 kmh 29.28 in991.5 mb 0.00 in0.0 mm 0.00 in0.0 mm 0.00 in0.0 mm
03:07 PM 60.4°F15.8°C 52.8°F11.6°C 76% 9.7 mph N15.6 kmh N 12.0 mph19.3 kmh 29.28 in991.5 mb 0.00 in0.0 mm 0.00 in0.0 mm 0.00 in0.0 mm
03:08 PM 60.3°F15.7°C 52.3°F11.3°C 75% 10.5 mph NNW16.9 kmh NNW 12.0 mph19.3 kmh 29.28 in991.5 mb 0.00 in0.0 mm 0.00 in0.0 mm 0.00 in0.0 mm
03:09 PM 60.3°F15.7°C 52.7°F11.5°C 76% 9.4 mph NNW15.1 kmh NNW 11.0 mph17.7 kmh 29.28 in991.5 mb 0.00 in0.0 mm 0.00 in0.0 mm 0.00 in0.0 mm
03:10 PM 60.3°F15.7°C 53.1°F11.7°C 77% 7.5 mph NW12.1 kmh NW 11.0 mph17.7 kmh 29.28 in991.5 mb 0.00 in0.0 mm 0.00 in0.0 mm 0.00 in0.0 mm
03:11 PM 60.2°F15.7°C 53.0°F11.7°C 77% 5.7 mph NW9.2 kmh NW 9.0 mph14.5 kmh 29.28 in991.5 mb 0.00 in0.0 mm 0.00 in0.0 mm 0.00 in0.0 mm
03:12 PM 60.2°F15.7°C 52.2°F11.2°C 75% 5.1 mph WNW8.2 kmh WNW 8.0 mph12.9 kmh 29.28 in991.5 mb 0.00 in0.0 mm 0.00 in0.0 mm 0.00 in0.0 mm
03:13 PM 60.1°F15.6°C 52.9°F11.6°C 77% 5.3 mph W8.5 kmh W 7.0 mph11.3 kmh 29.28 in991.5 mb 0.00 in0.0 mm 0.00 in0.0 mm 0.00 in0.0 mm
03:14 PM 60.0°F15.6°C 52.1°F11.2°C 75% 4.6 mph W7.4 kmh W 7.0 mph11.3 kmh 29.28 in991.5 mb 0.00 in0.0 mm 0.00 in0.0 mm 0.00 in0.0 mm
03:15 PM 60.0°F15.6°C 52.4°F11.3°C 76% 5.0 mph WSW8.0 kmh WSW 7.0 mph11.3 kmh 29.28 in991.5 mb 0.00 in0.0 mm 0.00 in0.0 mm 0.00 in0.0 mm
03:16 PM 59.9°F15.5°C 51.2°F10.7°C 73% 6.5 mph WSW10.5 kmh WSW 7.0 mph11.3 kmh 29.28 in991.5 mb 0.00 in0.0 mm 0.00 in0.0 mm 0.00 in0.0 mm
03:17 PM 59.9°F15.5°C 50.8°F10.4°C 72% 7.2 mph WSW11.6 kmh WSW 9.0 mph14.5 kmh 29.28 in991.5 mb 0.00 in0.0 mm 0.00 in0.0 mm 0.00 in0.0 mm
03:18 PM 59.8°F15.4°C 51.9°F11.1°C 75% 6.2 mph SW10.0 kmh SW 9.0 mph14.5 kmh 29.28 in991.5 mb 0.00 in0.0 mm 0.00 in0.0 mm 0.00 in0.0 mm
03:19 PM 59.7°F15.4°C 52.5°F11.4°C 77% 4.9 mph SW7.9 kmh SW 7.0 mph11.3 kmh 29.28 in991.5 mb 0.00 in0.0 mm 0.00 in0.0 mm 0.00 in0.0 mm
03:20 PM 59.6°F15.3°C 52.4°F11.3°C 77% 4.0 mph SW6.4 kmh SW 6.0 mph9.7 kmh 29.28 in991.5 mb 0.00 in0.0 mm 0.00 in0.0 mm 0.00 in0.0 mm
03:21 PM 59.5°F15.3°C 53.0°F11.7°C 79% 3.2 mph SSW5.1 kmh SSW 5.0 mph8.0 kmh 29.28 in991.5 mb 0.00 in0.0 mm 0.00 in0.0 mm 0.00 in0.0 mm
03:22 PM 59.5°F15.3°C 52.6°F11.4°C 78% 3.1 mph SW5.0 kmh SW 4.0 mph6.4 kmh 29.28 in991.5 mb 0.00 in0.0 mm 0.00 in0.0 mm 0.00 in0.0 mm
03:23 PM 59.3°F15.2°C 52.8°F11.6°C 79% 1.9 mph SW3.1 kmh SW 4.0 mph6.4 kmh 29.28 in991.5 mb 0.00 in0.0 mm 0.00 in0.0 mm 0.00 in0.0 mm
03:24 PM 59.3°F15.2°C 52.8°F11.6°C 79% 1.9 mph SW3.1 kmh SW 4.0 mph6.4 kmh 29.28 in991.5 mb 0.00 in0.0 mm 0.00 in0.0 mm 0.00 in0.0 mm
03:25 PM 59.2°F15.1°C 53.0°F11.7°C 80% 0.5 mph WSW0.8 kmh WSW 4.0 mph6.4 kmh 29.29 in991.9 mb 0.00 in0.0 mm 0.00 in0.0 mm 0.00 in0.0 mm
03:26 PM 59.1°F15.1°C 52.9°F11.6°C 80% 1.0 mph WSW1.6 kmh WSW 2.0 mph3.2 kmh 29.29 in991.9 mb 0.00 in0.0 mm 0.00 in0.0 mm 0.00 in0.0 mm
03:27 PM 59.1°F15.1°C 52.9°F11.6°C 80% 0.6 mph SW1.0 kmh SW 2.0 mph3.2 kmh 29.29 in991.9 mb 0.00 in0.0 mm 0.00 in0.0 mm 0.00 in0.0 mm
03:28 PM 59.0°F15.0°C 52.8°F11.6°C 80% 2.7 mph SW4.3 kmh SW 4.0 mph6.4 kmh 29.29 in991.9 mb 0.00 in0.0 mm 0.00 in0.0 mm 0.00 in0.0 mm
03:29 PM 58.9°F14.9°C 52.4°F11.3°C 79% 2.0 mph SW3.2 kmh SW 4.0 mph6.4 kmh 29.29 in991.9 mb 0.00 in0.0 mm 0.00 in0.0 mm 0.00 in0.0 mm
03:30 PM 58.9°F14.9°C 52.4°F11.3°C 79% 2.7 mph SW4.3 kmh SW 4.0 mph6.4 kmh 29.29 in991.9 mb 0.00 in0.0 mm 0.00 in0.0 mm 0.00 in0.0 mm
03:31 PM 58.9°F14.9°C 52.4°F11.3°C 79% 3.7 mph SW6.0 kmh SW 4.0 mph6.4 kmh 29.29 in991.9 mb 0.00 in0.0 mm 0.00 in0.0 mm 0.00 in0.0 mm
03:32 PM 58.8°F14.9°C 52.6°F11.4°C 80% 5.5 mph SW8.9 kmh SW 9.0 mph14.5 kmh 29.29 in991.9 mb 0.00 in0.0 mm 0.00 in0.0 mm 0.00 in0.0 mm
03:33 PM 58.8°F14.9°C 51.6°F10.9°C 77% 5.7 mph SW9.2 kmh SW 9.0 mph14.5 kmh 29.29 in991.9 mb 0.00 in0.0 mm 0.00 in0.0 mm 0.00 in0.0 mm
03:34 PM 58.9°F14.9°C 52.4°F11.3°C 79% 6.7 mph WSW10.8 kmh WSW 9.0 mph14.5 kmh 29.29 in991.9 mb 0.00 in0.0 mm 0.00 in0.0 mm 0.00 in0.0 mm
03:35 PM 58.8°F14.9°C 51.6°F10.9°C 77% 2.3 mph W3.7 kmh W 8.0 mph12.9 kmh 29.29 in991.9 mb 0.00 in0.0 mm 0.00 in0.0 mm 0.00 in0.0 mm
03:36 PM 58.9°F14.9°C 52.1°F11.2°C 78% 2.3 mph SW3.7 kmh SW 3.0 mph4.8 kmh 29.29 in991.9 mb 0.00 in0.0 mm 0.00 in0.0 mm 0.00 in0.0 mm
03:37 PM 58.9°F14.9°C 51.7°F10.9°C 77% 3.5 mph SSW5.6 kmh SSW 5.0 mph8.0 kmh 29.28 in991.5 mb 0.00 in0.0 mm 0.00 in0.0 mm 0.00 in0.0 mm
03:38 PM 58.9°F14.9°C 51.7°F10.9°C 77% 3.2 mph SSW5.1 kmh SSW 5.0 mph8.0 kmh 29.29 in991.9 mb 0.00 in0.0 mm 0.00 in0.0 mm 0.00 in0.0 mm
03:39 PM 58.9°F14.9°C 51.7°F10.9°C 77% 3.9 mph SSW6.3 kmh SSW 5.0 mph8.0 kmh 29.29 in991.9 mb 0.00 in0.0 mm 0.00 in0.0 mm 0.00 in0.0 mm
03:40 PM 58.8°F14.9°C 51.6°F10.9°C 77% 3.5 mph SW5.6 kmh SW 5.0 mph8.0 kmh 29.29 in991.9 mb 0.00 in0.0 mm 0.00 in0.0 mm 0.00 in0.0 mm
03:41 PM 58.9°F14.9°C 51.7°F10.9°C 77% 3.1 mph SW5.0 kmh SW 4.0 mph6.4 kmh 29.29 in991.9 mb 0.00 in0.0 mm 0.00 in0.0 mm 0.00 in0.0 mm
03:42 PM 58.8°F14.9°C 52.0°F11.1°C 78% 3.7 mph SW6.0 kmh SW 5.0 mph8.0 kmh 29.29 in991.9 mb 0.00 in0.0 mm 0.00 in0.0 mm 0.00 in0.0 mm
03:43 PM 58.7°F14.8°C 52.2°F11.2°C 79% 4.7 mph SW7.6 kmh SW 6.0 mph9.7 kmh 29.29 in991.9 mb 0.00 in0.0 mm 0.00 in0.0 mm 0.00 in0.0 mm
03:44 PM 58.7°F14.8°C 52.2°F11.2°C 79% 5.6 mph SW9.0 kmh SW 8.0 mph12.9 kmh 29.29 in991.9 mb 0.00 in0.0 mm 0.00 in0.0 mm 0.00 in0.0 mm
03:45 PM 58.6°F14.8°C 52.1°F11.2°C 79% 8.3 mph SW13.4 kmh SW 11.0 mph17.7 kmh 29.29 in991.9 mb 0.00 in0.0 mm 0.00 in0.0 mm 0.00 in0.0 mm
03:46 PM 58.5°F14.7°C 51.7°F10.9°C 78% 9.6 mph SW15.4 kmh SW 12.0 mph19.3 kmh 29.29 in991.9 mb 0.00 in0.0 mm 0.00 in0.0 mm 0.00 in0.0 mm
03:47 PM 58.5°F14.7°C 51.3°F10.7°C 77% 9.4 mph SW15.1 kmh SW 12.0 mph19.3 kmh 29.29 in991.9 mb 0.00 in0.0 mm 0.00 in0.0 mm 0.00 in0.0 mm
03:48 PM 58.5°F14.7°C 51.3°F10.7°C 77% 8.2 mph SW13.2 kmh SW 10.0 mph16.1 kmh 29.29 in991.9 mb 0.00 in0.0 mm 0.00 in0.0 mm 0.00 in0.0 mm
03:49 PM 58.4°F14.7°C 51.6°F10.9°C 78% 6.7 mph SW10.8 kmh SW 10.0 mph16.1 kmh 29.29 in991.9 mb 0.00 in0.0 mm 0.00 in0.0 mm 0.00 in0.0 mm
03:50 PM 58.4°F14.7°C 51.6°F10.9°C 78% 8.3 mph SW13.4 kmh SW 9.0 mph14.5 kmh 29.29 in991.9 mb 0.00 in0.0 mm 0.00 in0.0 mm 0.00 in0.0 mm
03:51 PM 58.4°F14.7°C 51.6°F10.9°C 78% 8.4 mph SW13.5 kmh SW 10.0 mph16.1 kmh 29.29 in991.9 mb 0.00 in0.0 mm 0.00 in0.0 mm 0.00 in0.0 mm
03:52 PM 58.3°F14.6°C 51.5°F10.8°C 78% 8.1 mph SW13.0 kmh SW 10.0 mph16.1 kmh 29.29 in991.9 mb 0.00 in0.0 mm 0.00 in0.0 mm 0.00 in0.0 mm
03:53 PM 58.3°F14.6°C 51.5°F10.8°C 78% 7.5 mph SW12.1 kmh SW 10.0 mph16.1 kmh 29.30 in992.2 mb 0.00 in0.0 mm 0.00 in0.0 mm 0.00 in0.0 mm
03:54 PM 58.3°F14.6°C 51.1°F10.6°C 77% 6.7 mph SW10.8 kmh SW 9.0 mph14.5 kmh 29.30 in992.2 mb 0.00 in0.0 mm 0.00 in0.0 mm 0.00 in0.0 mm
03:55 PM 58.3°F14.6°C 51.5°F10.8°C 78% 6.8 mph SW10.9 kmh SW 8.0 mph12.9 kmh 29.30 in992.2 mb 0.00 in0.0 mm 0.00 in0.0 mm 0.00 in0.0 mm
03:56 PM 58.2°F14.6°C 51.4°F10.8°C 78% 6.5 mph SW10.5 kmh SW 8.0 mph12.9 kmh 29.30 in992.2 mb 0.00 in0.0 mm 0.00 in0.0 mm 0.00 in0.0 mm
03:57 PM 58.2°F14.6°C 51.7°F10.9°C 79% 6.1 mph SW9.8 kmh SW 7.0 mph11.3 kmh 29.30 in992.2 mb 0.00 in0.0 mm 0.00 in0.0 mm 0.00 in0.0 mm
03:58 PM 58.1°F14.5°C 51.6°F10.9°C 79% 4.9 mph SW7.9 kmh SW 7.0 mph11.3 kmh 29.30 in992.2 mb 0.00 in0.0 mm 0.00 in0.0 mm 0.00 in0.0 mm
03:59 PM 58.1°F14.5°C 51.6°F10.9°C 79% 5.4 mph SW8.7 kmh SW 6.0 mph9.7 kmh 29.30 in992.2 mb 0.00 in0.0 mm 0.00 in0.0 mm 0.00 in0.0 mm
04:00 PM 58.0°F14.4°C 51.5°F10.8°C 79% 4.2 mph SW6.8 kmh SW 6.0 mph9.7 kmh 29.30 in992.2 mb 0.00 in0.0 mm 0.00 in0.0 mm 0.00 in0.0 mm
04:01 PM 58.0°F14.4°C 51.9°F11.1°C 80% 3.5 mph SW5.6 kmh SW 5.0 mph8.0 kmh 29.30 in992.2 mb 0.00 in0.0 mm 0.00 in0.0 mm 0.00 in0.0 mm
04:02 PM 58.0°F14.4°C 51.9°F11.1°C 80% 4.0 mph SW6.4 kmh SW 5.0 mph8.0 kmh 29.30 in992.2 mb 0.00 in0.0 mm 0.00 in0.0 mm 0.00 in0.0 mm
04:03 PM 58.0°F14.4°C 52.2°F11.2°C 81% 4.2 mph SW6.8 kmh SW 5.0 mph8.0 kmh 29.30 in992.2 mb 0.00 in0.0 mm 0.00 in0.0 mm 0.00 in0.0 mm
04:04 PM 57.9°F14.4°C 51.8°F11.0°C 80% 4.2 mph SW6.8 kmh SW 5.0 mph8.0 kmh 29.30 in992.2 mb 0.00 in0.0 mm 0.00 in0.0 mm 0.00 in0.0 mm
04:05 PM 57.9°F14.4°C 51.8°F11.0°C 80% 3.5 mph SW5.6 kmh SW 5.0 mph8.0 kmh 29.30 in992.2 mb 0.00 in0.0 mm 0.00 in0.0 mm 0.00 in0.0 mm
04:06 PM 57.9°F14.4°C 51.8°F11.0°C 80% 5.1 mph SW8.2 kmh SW 6.0 mph9.7 kmh 29.30 in992.2 mb 0.00 in0.0 mm 0.00 in0.0 mm 0.00 in0.0 mm
04:07 PM 57.9°F14.4°C 51.4°F10.8°C 79% 5.8 mph SW9.3 kmh SW 7.0 mph11.3 kmh 29.30 in992.2 mb 0.00 in0.0 mm 0.00 in0.0 mm 0.00 in0.0 mm
04:08 PM 57.8°F14.3°C 51.3°F10.7°C 79% 5.4 mph SW8.7 kmh SW 7.0 mph11.3 kmh 29.30 in992.2 mb 0.00 in0.0 mm 0.00 in0.0 mm 0.00 in0.0 mm
04:09 PM 57.8°F14.3°C 51.7°F10.9°C 80% 6.8 mph WSW10.9 kmh WSW 8.0 mph12.9 kmh 29.30 in992.2 mb 0.00 in0.0 mm 0.00 in0.0 mm 0.00 in0.0 mm
04:10 PM 57.9°F14.4°C 51.8°F11.0°C 80% 9.1 mph WSW14.6 kmh WSW 11.0 mph17.7 kmh 29.30 in992.2 mb 0.00 in0.0 mm 0.00 in0.0 mm 0.00 in0.0 mm
04:11 PM 58.0°F14.4°C 51.9°F11.1°C 80% 11.2 mph WSW18.0 kmh WSW 13.0 mph20.9 kmh 29.30 in992.2 mb 0.00 in0.0 mm 0.00 in0.0 mm 0.00 in0.0 mm
04:12 PM 58.0°F14.4°C 51.5°F10.8°C 79% 11.0 mph WSW17.7 kmh WSW 13.0 mph20.9 kmh 29.30 in992.2 mb 0.00 in0.0 mm 0.00 in0.0 mm 0.00 in0.0 mm
04:13 PM 58.0°F14.4°C 51.9°F11.1°C 80% 10.7 mph WSW17.2 kmh WSW 12.0 mph19.3 kmh 29.30 in992.2 mb 0.00 in0.0 mm 0.00 in0.0 mm 0.00 in0.0 mm
04:14 PM 57.9°F14.4°C 52.1°F11.2°C 81% 8.9 mph WSW14.3 kmh WSW 12.0 mph19.3 kmh 29.30 in992.2 mb 0.00 in0.0 mm 0.00 in0.0 mm 0.00 in0.0 mm
04:15 PM 57.9°F14.4°C 51.8°F11.0°C 80% 8.5 mph SW13.7 kmh SW 11.0 mph17.7 kmh 29.30 in992.2 mb 0.00 in0.0 mm 0.00 in0.0 mm 0.00 in0.0 mm
04:16 PM 57.8°F14.3°C 51.7°F10.9°C 80% 7.8 mph SW12.6 kmh SW 11.0 mph17.7 kmh 29.30 in992.2 mb 0.00 in0.0 mm 0.00 in0.0 mm 0.00 in0.0 mm
04:17 PM 57.8°F14.3°C 51.7°F10.9°C 80% 6.5 mph SW10.5 kmh SW 10.0 mph16.1 kmh 29.30 in992.2 mb 0.00 in0.0 mm 0.00 in0.0 mm 0.00 in0.0 mm
04:18 PM 57.7°F14.3°C 51.6°F10.9°C 80% 4.4 mph SW7.1 kmh SW 9.0 mph14.5 kmh 29.30 in992.2 mb 0.00 in0.0 mm 0.00 in0.0 mm 0.00 in0.0 mm
04:19 PM 57.6°F14.2°C 51.5°F10.8°C 80% 5.4 mph SW8.7 kmh SW 7.0 mph11.3 kmh 29.30 in992.2 mb 0.00 in0.0 mm 0.00 in0.0 mm 0.00 in0.0 mm
04:20 PM 57.6°F14.2°C 51.5°F10.8°C 80% 6.6 mph SW10.6 kmh SW 8.0 mph12.9 kmh 29.30 in992.2 mb 0.00 in0.0 mm 0.00 in0.0 mm 0.00 in0.0 mm
04:21 PM 57.6°F14.2°C 51.5°F10.8°C 80% 7.3 mph SW11.7 kmh SW 8.0 mph12.9 kmh 29.30 in992.2 mb 0.00 in0.0 mm 0.00 in0.0 mm 0.00 in0.0 mm
04:22 PM 57.5°F14.2°C 51.7°F10.9°C 81% 6.7 mph SW10.8 kmh SW 8.0 mph12.9 kmh 29.30 in992.2 mb 0.00 in0.0 mm 0.00 in0.0 mm 0.00 in0.0 mm
04:23 PM 57.5°F14.2°C 51.7°F10.9°C 81% 4.9 mph SW7.9 kmh SW 8.0 mph12.9 kmh 29.30 in992.2 mb 0.00 in0.0 mm 0.00 in0.0 mm 0.00 in0.0 mm
04:24 PM 57.6°F14.2°C 51.8°F11.0°C 81% 6.6 mph SW10.6 kmh SW 8.0 mph12.9 kmh 29.30 in992.2 mb 0.00 in0.0 mm 0.00 in0.0 mm 0.00 in0.0 mm
04:25 PM 57.7°F14.3°C 51.6°F10.9°C 80% 6.1 mph SW9.8 kmh SW 8.0 mph12.9 kmh 29.30 in992.2 mb 0.00 in0.0 mm 0.00 in0.0 mm 0.00 in0.0 mm
04:26 PM 57.8°F14.3°C 51.7°F10.9°C 80% 5.2 mph SW8.4 kmh SW 7.0 mph11.3 kmh 29.30 in992.2 mb 0.00 in0.0 mm 0.00 in0.0 mm 0.00 in0.0 mm
04:27 PM 57.9°F14.4°C 51.8°F11.0°C 80% 5.5 mph SW8.9 kmh SW 6.0 mph9.7 kmh 29.30 in992.2 mb 0.00 in0.0 mm 0.00 in0.0 mm 0.00 in0.0 mm
04:28 PM 57.9°F14.4°C 51.4°F10.8°C 79% 4.2 mph SSW6.8 kmh SSW 6.0 mph9.7 kmh 29.30 in992.2 mb 0.00 in0.0 mm 0.00 in0.0 mm 0.00 in0.0 mm
04:29 PM 58.0°F14.4°C 51.5°F10.8°C 79% 3.5 mph SSW5.6 kmh SSW 5.0 mph8.0 kmh 29.30 in992.2 mb 0.00 in0.0 mm 0.00 in0.0 mm 0.00 in0.0 mm
04:30 PM 58.0°F14.4°C 51.5°F10.8°C 79% 3.6 mph SW5.8 kmh SW 4.0 mph6.4 kmh 29.30 in992.2 mb 0.00 in0.0 mm 0.00 in0.0 mm 0.00 in0.0 mm
04:31 PM 58.1°F14.5°C 51.6°F10.9°C 79% 3.6 mph SW5.8 kmh SW 5.0 mph8.0 kmh 29.30 in992.2 mb 0.00 in0.0 mm 0.00 in0.0 mm 0.00 in0.0 mm
04:32 PM 58.1°F14.5°C 51.6°F10.9°C 79% 3.5 mph SW5.6 kmh SW 5.0 mph8.0 kmh 29.30 in992.2 mb 0.00 in0.0 mm 0.00 in0.0 mm 0.00 in0.0 mm
04:33 PM 58.2°F14.6°C 51.4°F10.8°C 78% 4.3 mph SW6.9 kmh SW 5.0 mph8.0 kmh 29.30 in992.2 mb 0.00 in0.0 mm 0.00 in0.0 mm 0.00 in0.0 mm
04:34 PM 58.2°F14.6°C 51.4°F10.8°C 78% 4.3 mph SW6.9 kmh SW 5.0 mph8.0 kmh 29.30 in992.2 mb 0.00 in0.0 mm 0.00 in0.0 mm 0.00 in0.0 mm
04:35 PM 58.3°F14.6°C 51.5°F10.8°C 78% 4.4 mph SW7.1 kmh SW 5.0 mph8.0 kmh 29.30 in992.2 mb 0.00 in0.0 mm 0.00 in0.0 mm 0.00 in0.0 mm
04:36 PM 58.4°F14.7°C 51.6°F10.9°C 78% 4.0 mph SW6.4 kmh SW 5.0 mph8.0 kmh 29.30 in992.2 mb 0.00 in0.0 mm 0.00 in0.0 mm 0.00 in0.0 mm
04:37 PM 58.4°F14.7°C 51.6°F10.9°C 78% 2.1 mph SW3.4 kmh SW 5.0 mph8.0 kmh 29.30 in992.2 mb 0.00 in0.0 mm 0.00 in0.0 mm 0.00 in0.0 mm
04:38 PM 58.5°F14.7°C 52.0°F11.1°C 79% 2.3 mph WSW3.7 kmh WSW 4.0 mph6.4 kmh 29.31 in992.6 mb 0.00 in0.0 mm 0.00 in0.0 mm 0.00 in0.0 mm
04:39 PM 58.6°F14.8°C 52.1°F11.2°C 79% 4.5 mph NNW7.2 kmh NNW 5.0 mph8.0 kmh 29.31 in992.6 mb 0.00 in0.0 mm 0.00 in0.0 mm 0.00 in0.0 mm
04:40 PM 58.6°F14.8°C 52.1°F11.2°C 79% 2.5 mph NNW4.0 kmh NNW 5.0 mph8.0 kmh 29.31 in992.6 mb 0.00 in0.0 mm 0.00 in0.0 mm 0.00 in0.0 mm
04:41 PM 58.6°F14.8°C 52.1°F11.2°C 79% 1.0 mph NNW1.6 kmh NNW 3.0 mph4.8 kmh 29.31 in992.6 mb 0.00 in0.0 mm 0.00 in0.0 mm 0.00 in0.0 mm
04:42 PM 58.7°F14.8°C 51.9°F11.1°C 78% 0.5 mph NNW0.8 kmh NNW 2.0 mph3.2 kmh 29.30 in992.2 mb 0.00 in0.0 mm 0.00 in0.0 mm 0.00 in0.0 mm
04:43 PM 58.7°F14.8°C 51.5°F10.8°C 77% Calm Calm 1.0 mph1.6 kmh 29.31 in992.6 mb 0.00 in0.0 mm 0.00 in0.0 mm 0.00 in0.0 mm
04:44 PM 58.7°F14.8°C 51.5°F10.8°C 77% 0.9 mph NNW1.4 kmh NNW 2.0 mph3.2 kmh 29.30 in992.2 mb 0.00 in0.0 mm 0.00 in0.0 mm 0.00 in0.0 mm
04:45 PM 58.7°F14.8°C 51.5°F10.8°C 77% 0.9 mph NNW1.4 kmh NNW 2.0 mph3.2 kmh 29.31 in992.6 mb 0.00 in0.0 mm 0.00 in0.0 mm 0.00 in0.0 mm
04:46 PM 58.8°F14.9°C 52.0°F11.1°C 78% 0.2 mph NNW0.3 kmh NNW 2.0 mph3.2 kmh 29.31 in992.6 mb 0.00 in0.0 mm 0.00 in0.0 mm 0.00 in0.0 mm
04:47 PM 58.8°F14.9°C 52.0°F11.1°C 78% Calm Calm 1.0 mph1.6 kmh 29.31 in992.6 mb 0.00 in0.0 mm 0.00 in0.0 mm 0.00 in0.0 mm
04:48 PM 58.8°F14.9°C 52.0°F11.1°C 78% 0.4 mph NNW0.6 kmh NNW 1.0 mph1.6 kmh 29.31 in992.6 mb 0.00 in0.0 mm 0.00 in0.0 mm 0.00 in0.0 mm
04:49 PM 58.8°F14.9°C 52.3°F11.3°C 79% 1.6 mph NNW2.6 kmh NNW 3.0 mph4.8 kmh 29.31 in992.6 mb 0.00 in0.0 mm 0.00 in0.0 mm 0.00 in0.0 mm
04:50 PM 58.8°F14.9°C 52.6°F11.4°C 80% 2.6 mph N4.2 kmh N 3.0 mph4.8 kmh 29.31 in992.6 mb 0.00 in0.0 mm 0.00 in0.0 mm 0.00 in0.0 mm
04:51 PM 58.7°F14.8°C 52.5°F11.4°C 80% 2.0 mph N3.2 kmh N 3.0 mph4.8 kmh 29.31 in992.6 mb 0.00 in0.0 mm 0.00 in0.0 mm 0.00 in0.0 mm
04:52 PM 58.8°F14.9°C 52.3°F11.3°C 79% 0.2 mph N0.3 kmh N 3.0 mph4.8 kmh 29.31 in992.6 mb 0.00 in0.0 mm 0.00 in0.0 mm 0.00 in0.0 mm
04:53 PM 58.7°F14.8°C 52.2°F11.2°C 79% Calm Calm 1.0 mph1.6 kmh 29.31 in992.6 mb 0.00 in0.0 mm 0.00 in0.0 mm 0.00 in0.0 mm
04:54 PM 58.7°F14.8°C 52.2°F11.2°C 79% 0.1 mph N0.2 kmh N 1.0 mph1.6 kmh 29.31 in992.6 mb 0.00 in0.0 mm 0.00 in0.0 mm 0.00 in0.0 mm
04:55 PM 58.7°F14.8°C 52.2°F11.2°C 79% Calm Calm 1.0 mph1.6 kmh 29.31 in992.6 mb 0.00 in0.0 mm 0.00 in0.0 mm 0.00 in0.0 mm
04:56 PM 58.7°F14.8°C 52.2°F11.2°C 79% Calm Calm -- 29.31 in992.6 mb 0.00 in0.0 mm 0.00 in0.0 mm 0.00 in0.0 mm
04:57 PM 58.7°F14.8°C 52.5°F11.4°C 80% Calm Calm -- 29.31 in992.6 mb 0.00 in0.0 mm 0.00 in0.0 mm 0.00 in0.0 mm
04:58 PM 58.8°F14.9°C 52.6°F11.4°C 80% 0.3 mph N0.5 kmh N 1.0 mph1.6 kmh 29.31 in992.6 mb 0.00 in0.0 mm 0.00 in0.0 mm 0.00 in0.0 mm
04:59 PM 58.7°F14.8°C 52.5°F11.4°C 80% Calm Calm 1.0 mph1.6 kmh 29.31 in992.6 mb 0.00 in0.0 mm 0.00 in0.0 mm 0.00 in0.0 mm
05:00 PM 58.8°F14.9°C 52.6°F11.4°C 80% Calm Calm -- 29.31 in992.6 mb 0.00 in0.0 mm 0.00 in0.0 mm 0.00 in0.0 mm
05:01 PM 58.8°F14.9°C 52.6°F11.4°C 80% Calm Calm -- 29.31 in992.6 mb 0.00 in0.0 mm 0.00 in0.0 mm 0.00 in0.0 mm
05:02 PM 58.8°F14.9°C 53.0°F11.7°C 81% 0.5 mph NW0.8 kmh NW 2.0 mph3.2 kmh 29.31 in992.6 mb 0.00 in0.0 mm 0.00 in0.0 mm 0.00 in0.0 mm
05:03 PM 58.7°F14.8°C 52.9°F11.6°C 81% 1.6 mph NW2.6 kmh NW 2.0 mph3.2 kmh 29.31 in992.6 mb 0.00 in0.0 mm 0.00 in0.0 mm 0.00 in0.0 mm
05:04 PM 58.7°F14.8°C 53.2°F11.8°C 82% 1.8 mph W2.9 kmh W 2.0 mph3.2 kmh 29.31 in992.6 mb 0.00 in0.0 mm 0.00 in0.0 mm 0.00 in0.0 mm
05:05 PM 58.8°F14.9°C 53.3°F11.8°C 82% 1.4 mph W2.3 kmh W 2.0 mph3.2 kmh 29.31 in992.6 mb 0.00 in0.0 mm 0.00 in0.0 mm 0.00 in0.0 mm
05:06 PM 58.8°F14.9°C 53.3°F11.8°C 82% 1.2 mph W1.9 kmh W 2.0 mph3.2 kmh 29.31 in992.6 mb 0.00 in0.0 mm 0.00 in0.0 mm 0.00 in0.0 mm
05:07 PM 58.7°F14.8°C 53.2°F11.8°C 82% 0.3 mph W0.5 kmh W 2.0 mph3.2 kmh 29.31 in992.6 mb 0.00 in0.0 mm 0.00 in0.0 mm 0.00 in0.0 mm
05:08 PM 58.7°F14.8°C 53.2°F11.8°C 82% Calm Calm 1.0 mph1.6 kmh 29.31 in992.6 mb 0.00 in0.0 mm 0.00 in0.0 mm 0.00 in0.0 mm
05:09 PM 58.7°F14.8°C 53.2°F11.8°C 82% Calm Calm -- 29.31 in992.6 mb 0.00 in0.0 mm 0.00 in0.0 mm 0.00 in0.0 mm
05:10 PM 58.7°F14.8°C 53.2°F11.8°C 82% Calm Calm -- 29.31 in992.6 mb 0.00 in0.0 mm 0.00 in0.0 mm 0.00 in0.0 mm
05:11 PM 58.6°F14.8°C 53.1°F11.7°C 82% 0.1 mph W0.2 kmh W 1.0 mph1.6 kmh 29.31 in992.6 mb 0.00 in0.0 mm 0.00 in0.0 mm 0.00 in0.0 mm
05:12 PM 58.6°F14.8°C 53.1°F11.7°C 82% 1.2 mph WNW1.9 kmh WNW 3.0 mph4.8 kmh 29.31 in992.6 mb 0.00 in0.0 mm 0.00 in0.0 mm 0.00 in0.0 mm
05:13 PM 58.6°F14.8°C 52.8°F11.6°C 81% 4.6 mph NW7.4 kmh NW 6.0 mph9.7 kmh 29.31 in992.6 mb 0.00 in0.0 mm 0.00 in0.0 mm 0.00 in0.0 mm
05:14 PM 58.7°F14.8°C 52.5°F11.4°C 80% 2.8 mph N4.5 kmh N 6.0 mph9.7 kmh 29.31 in992.6 mb 0.00 in0.0 mm 0.00 in0.0 mm 0.00 in0.0 mm
05:15 PM 58.7°F14.8°C 52.9°F11.6°C 81% 4.4 mph N7.1 kmh N 6.0 mph9.7 kmh 29.31 in992.6 mb 0.00 in0.0 mm 0.00 in0.0 mm 0.00 in0.0 mm
05:16 PM 58.7°F14.8°C 51.9°F11.1°C 78% 5.1 mph N8.2 kmh N 6.0 mph9.7 kmh 29.31 in992.6 mb 0.00 in0.0 mm 0.00 in0.0 mm 0.00 in0.0 mm
05:17 PM 58.8°F14.9°C 52.0°F11.1°C 78% 5.3 mph N8.5 kmh N 7.0 mph11.3 kmh 29.31 in992.6 mb 0.00 in0.0 mm 0.00 in0.0 mm 0.00 in0.0 mm
05:18 PM 58.9°F14.9°C 52.1°F11.2°C 78% 5.7 mph N9.2 kmh N 7.0 mph11.3 kmh 29.32 in992.9 mb 0.00 in0.0 mm 0.00 in0.0 mm 0.00 in0.0 mm
05:19 PM 59.1°F15.1°C 51.9°F11.1°C 77% 4.9 mph N7.9 kmh N 7.0 mph11.3 kmh 29.31 in992.6 mb 0.00 in0.0 mm 0.00 in0.0 mm 0.00 in0.0 mm
05:20 PM 59.2°F15.1°C 52.0°F11.1°C 77% 6.0 mph 9.7 kmh 8.0 mph12.9 kmh 29.32 in992.9 mb 0.00 in0.0 mm 0.00 in0.0 mm 0.00 in0.0 mm
05:21 PM 59.2°F15.1°C 52.0°F11.1°C 77% 6.0 mph 9.7 kmh 8.0 mph12.9 kmh 29.32 in992.9 mb 0.00 in0.0 mm 0.00 in0.0 mm 0.00 in0.0 mm
05:22 PM 59.4°F15.2°C 51.8°F11.0°C 76% 7.6 mph N12.2 kmh N 8.0 mph12.9 kmh 29.32 in992.9 mb 0.00 in0.0 mm 0.00 in0.0 mm 0.00 in0.0 mm
05:23 PM 59.5°F15.3°C 51.6°F10.9°C 75% 7.9 mph N12.7 kmh N 10.0 mph16.1 kmh 29.32 in992.9 mb 0.00 in0.0 mm 0.00 in0.0 mm 0.00 in0.0 mm
05:24 PM 59.6°F15.3°C 52.0°F11.1°C 76% 8.1 mph N13.0 kmh N 10.0 mph16.1 kmh 29.32 in992.9 mb 0.00 in0.0 mm 0.00 in0.0 mm 0.00 in0.0 mm
05:25 PM 59.6°F15.3°C 52.4°F11.3°C 77% 7.9 mph N12.7 kmh N 10.0 mph16.1 kmh 29.32 in992.9 mb 0.00 in0.0 mm 0.00 in0.0 mm 0.00 in0.0 mm
05:26 PM 59.7°F15.4°C 52.8°F11.6°C 78% 8.0 mph N12.9 kmh N 9.0 mph14.5 kmh 29.32 in992.9 mb 0.00 in0.0 mm 0.00 in0.0 mm 0.00 in0.0 mm
05:27 PM 59.7°F15.4°C 52.5°F11.4°C 77% 7.1 mph N11.4 kmh N 9.0 mph14.5 kmh 29.32 in992.9 mb 0.00 in0.0 mm 0.00 in0.0 mm 0.00 in0.0 mm
05:28 PM 59.7°F15.4°C 52.5°F11.4°C 77% 7.4 mph N11.9 kmh N 9.0 mph14.5 kmh 29.32 in992.9 mb 0.00 in0.0 mm 0.00 in0.0 mm 0.00 in0.0 mm
05:29 PM 59.7°F15.4°C 52.5°F11.4°C 77% 7.6 mph N12.2 kmh N 9.0 mph14.5 kmh 29.32 in992.9 mb 0.00 in0.0 mm 0.00 in0.0 mm 0.00 in0.0 mm
05:30 PM 59.7°F15.4°C 52.8°F11.6°C 78% 8.2 mph N13.2 kmh N 9.0 mph14.5 kmh 29.32 in992.9 mb 0.00 in0.0 mm 0.00 in0.0 mm 0.00 in0.0 mm
05:31 PM 59.7°F15.4°C 52.1°F11.2°C 76% 8.4 mph N13.5 kmh N 10.0 mph16.1 kmh 29.32 in992.9 mb 0.00 in0.0 mm 0.00 in0.0 mm 0.00 in0.0 mm
05:32 PM 59.7°F15.4°C 52.1°F11.2°C 76% 9.4 mph N15.1 kmh N 10.0 mph16.1 kmh 29.32 in992.9 mb 0.00 in0.0 mm 0.00 in0.0 mm 0.00 in0.0 mm
05:33 PM 59.6°F15.3°C 51.7°F10.9°C 75% 9.7 mph N15.6 kmh N 11.0 mph17.7 kmh 29.32 in992.9 mb 0.00 in0.0 mm 0.00 in0.0 mm 0.00 in0.0 mm
05:34 PM 59.6°F15.3°C 52.0°F11.1°C 76% 9.7 mph N15.6 kmh N 11.0 mph17.7 kmh 29.32 in992.9 mb 0.00 in0.0 mm 0.00 in0.0 mm 0.00 in0.0 mm
05:35 PM 59.6°F15.3°C 51.7°F10.9°C 75% 9.6 mph N15.4 kmh N 11.0 mph17.7 kmh 29.32 in992.9 mb 0.00 in0.0 mm 0.00 in0.0 mm 0.00 in0.0 mm
05:36 PM 59.6°F15.3°C 52.0°F11.1°C 76% 9.1 mph N14.6 kmh N 11.0 mph17.7 kmh 29.32 in992.9 mb 0.00 in0.0 mm 0.00 in0.0 mm 0.00 in0.0 mm
05:37 PM 59.6°F15.3°C 51.7°F10.9°C 75% 9.8 mph N15.8 kmh N 11.0 mph17.7 kmh 29.32 in992.9 mb 0.00 in0.0 mm 0.00 in0.0 mm 0.00 in0.0 mm
05:38 PM 59.6°F15.3°C 51.3°F10.7°C 74% 9.8 mph N15.8 kmh N 12.0 mph19.3 kmh 29.32 in992.9 mb 0.00 in0.0 mm 0.00 in0.0 mm 0.00 in0.0 mm
05:39 PM 59.6°F15.3°C 51.3°F10.7°C 74% 10.5 mph N16.9 kmh N 12.0 mph19.3 kmh 29.32 in992.9 mb 0.00 in0.0 mm 0.00 in0.0 mm 0.00 in0.0 mm
05:40 PM 59.7°F15.4°C 51.4°F10.8°C 74% 10.8 mph N17.4 kmh N 12.0 mph19.3 kmh 29.32 in992.9 mb 0.00 in0.0 mm 0.00 in0.0 mm 0.00 in0.0 mm
05:41 PM 59.6°F15.3°C 50.9°F10.5°C 73% 10.6 mph N17.1 kmh N 12.0 mph19.3 kmh 29.32 in992.9 mb 0.00 in0.0 mm 0.00 in0.0 mm 0.00 in0.0 mm
05:42 PM 59.6°F15.3°C 50.9°F10.5°C 73% 9.9 mph N15.9 kmh N 12.0 mph19.3 kmh 29.32 in992.9 mb 0.00 in0.0 mm 0.00 in0.0 mm 0.00 in0.0 mm
05:43 PM 59.7°F15.4°C 51.8°F11.0°C 75% 10.1 mph N16.3 kmh N 11.0 mph17.7 kmh 29.32 in992.9 mb 0.00 in0.0 mm 0.00 in0.0 mm 0.00 in0.0 mm
05:44 PM 59.6°F15.3°C 51.7°F10.9°C 75% 8.9 mph N14.3 kmh N 11.0 mph17.7 kmh 29.32 in992.9 mb 0.00 in0.0 mm 0.00 in0.0 mm 0.00 in0.0 mm
05:45 PM 59.7°F15.4°C 51.4°F10.8°C 74% 10.1 mph N16.3 kmh N 11.0 mph17.7 kmh 29.32 in992.9 mb 0.00 in0.0 mm 0.00 in0.0 mm 0.00 in0.0 mm
05:46 PM 59.7°F15.4°C 51.8°F11.0°C 75% 8.3 mph N13.4 kmh N 11.0 mph17.7 kmh 29.32 in992.9 mb 0.00 in0.0 mm 0.00 in0.0 mm 0.00 in0.0 mm
05:47 PM 59.6°F15.3°C 51.3°F10.7°C 74% 9.0 mph N14.5 kmh N 10.0 mph16.1 kmh 29.32 in992.9 mb 0.00 in0.0 mm 0.00 in0.0 mm 0.00 in0.0 mm
05:48 PM 59.6°F15.3°C 51.3°F10.7°C 74% 8.5 mph N13.7 kmh N 10.0 mph16.1 kmh 29.32 in992.9 mb 0.00 in0.0 mm 0.00 in0.0 mm 0.00 in0.0 mm
05:49 PM 59.6°F15.3°C 51.3°F10.7°C 74% 9.0 mph N14.5 kmh N 11.0 mph17.7 kmh 29.33 in993.2 mb 0.00 in0.0 mm 0.00 in0.0 mm 0.00 in0.0 mm
05:50 PM 59.6°F15.3°C 50.9°F10.5°C 73% 8.7 mph N14.0 kmh N 11.0 mph17.7 kmh 29.33 in993.2 mb 0.00 in0.0 mm 0.00 in0.0 mm 0.00 in0.0 mm
05:51 PM 59.6°F15.3°C 51.3°F10.7°C 74% 7.5 mph N12.1 kmh N 10.0 mph16.1 kmh 29.33 in993.2 mb 0.00 in0.0 mm 0.00 in0.0 mm 0.00 in0.0 mm
05:52 PM 59.5°F15.3°C 51.6°F10.9°C 75% 7.4 mph N11.9 kmh N 9.0 mph14.5 kmh 29.33 in993.2 mb 0.00 in0.0 mm 0.00 in0.0 mm 0.00 in0.0 mm
05:53 PM 59.5°F15.3°C 51.6°F10.9°C 75% 7.4 mph N11.9 kmh N 9.0 mph14.5 kmh 29.33 in993.2 mb 0.00 in0.0 mm 0.00 in0.0 mm 0.00 in0.0 mm
05:54 PM 59.5°F15.3°C 51.6°F10.9°C 75% 7.4 mph N11.9 kmh N 9.0 mph14.5 kmh 29.33 in993.2 mb 0.00 in0.0 mm 0.00 in0.0 mm 0.00 in0.0 mm
05:55 PM 59.5°F15.3°C 51.6°F10.9°C 75% 7.1 mph N11.4 kmh N 9.0 mph14.5 kmh 29.33 in993.2 mb 0.00 in0.0 mm 0.00 in0.0 mm 0.00 in0.0 mm
05:56 PM 59.5°F15.3°C 51.9°F11.1°C 76% 6.7 mph N10.8 kmh N 8.0 mph12.9 kmh 29.33 in993.2 mb 0.00 in0.0 mm 0.00 in0.0 mm 0.00 in0.0 mm
05:57 PM 59.5°F15.3°C 52.3°F11.3°C 77% 6.6 mph N10.6 kmh N 9.0 mph14.5 kmh 29.33 in993.2 mb 0.00 in0.0 mm 0.00 in0.0 mm 0.00 in0.0 mm
05:58 PM 59.6°F15.3°C 52.0°F11.1°C 76% 7.9 mph N12.7 kmh N 9.0 mph14.5 kmh 29.33 in993.2 mb 0.00 in0.0 mm 0.00 in0.0 mm 0.00 in0.0 mm
05:59 PM 59.6°F15.3°C 52.0°F11.1°C 76% 10.9 mph N17.5 kmh N 14.0 mph22.5 kmh 29.33 in993.2 mb 0.00 in0.0 mm 0.00 in0.0 mm 0.00 in0.0 mm
06:00 PM 59.7°F15.4°C 52.1°F11.2°C 76% 10.6 mph NNW17.1 kmh NNW 14.0 mph22.5 kmh 29.33 in993.2 mb 0.00 in0.0 mm 0.00 in0.0 mm 0.00 in0.0 mm
06:01 PM 59.7°F15.4°C 52.1°F11.2°C 76% 11.3 mph N18.2 kmh N 13.0 mph20.9 kmh 29.33 in993.2 mb 0.00 in0.0 mm 0.00 in0.0 mm 0.00 in0.0 mm
06:02 PM 59.7°F15.4°C 52.1°F11.2°C 76% 9.8 mph N15.8 kmh N 13.0 mph20.9 kmh 29.33 in993.2 mb 0.00 in0.0 mm 0.00 in0.0 mm 0.00 in0.0 mm
06:03 PM 59.7°F15.4°C 52.1°F11.2°C 76% 11.1 mph N17.9 kmh N 13.0 mph20.9 kmh 29.33 in993.2 mb 0.00 in0.0 mm 0.00 in0.0 mm 0.00 in0.0 mm
06:04 PM 59.8°F15.4°C 52.2°F11.2°C 76% 11.4 mph N18.3 kmh N 14.0 mph22.5 kmh 29.33 in993.2 mb 0.00 in0.0 mm 0.00 in0.0 mm 0.00 in0.0 mm
06:05 PM 59.8°F15.4°C 52.6°F11.4°C 77% 9.9 mph N15.9 kmh N 14.0 mph22.5 kmh 29.33 in993.2 mb 0.00 in0.0 mm 0.00 in0.0 mm 0.00 in0.0 mm
06:06 PM 59.8°F15.4°C 52.6°F11.4°C 77% 11.3 mph N18.2 kmh N 14.0 mph22.5 kmh 29.33 in993.2 mb 0.00 in0.0 mm 0.00 in0.0 mm 0.00 in0.0 mm
06:07 PM 59.8°F15.4°C 52.9°F11.6°C 78% 10.7 mph N17.2 kmh N 14.0 mph22.5 kmh 29.33 in993.2 mb 0.00 in0.0 mm 0.00 in0.0 mm 0.00 in0.0 mm
06:08 PM 59.8°F15.4°C 52.9°F11.6°C 78% 12.7 mph N20.4 kmh N 15.0 mph24.1 kmh 29.33 in993.2 mb 0.00 in0.0 mm 0.00 in0.0 mm 0.00 in0.0 mm
06:09 PM 59.8°F15.4°C 53.6°F12.0°C 80% 11.5 mph NNW18.5 kmh NNW 15.0 mph24.1 kmh 29.33 in993.2 mb 0.00 in0.0 mm 0.00 in0.0 mm 0.00 in0.0 mm
06:10 PM 59.8°F15.4°C 53.6°F12.0°C 80% 11.5 mph N18.5 kmh N 15.0 mph24.1 kmh 29.33 in993.2 mb 0.00 in0.0 mm 0.00 in0.0 mm 0.00 in0.0 mm
06:11 PM 59.8°F15.4°C 52.9°F11.6°C 78% 13.9 mph N22.4 kmh N 16.0 mph25.7 kmh 29.33 in993.2 mb 0.00 in0.0 mm 0.00 in0.0 mm 0.00 in0.0 mm
06:12 PM 59.7°F15.4°C 53.2°F11.8°C 79% 13.0 mph N20.9 kmh N 16.0 mph25.7 kmh 29.34 in993.6 mb 0.00 in0.0 mm 0.00 in0.0 mm 0.00 in0.0 mm
06:13 PM 59.8°F15.4°C 53.3°F11.8°C 79% 13.2 mph N21.2 kmh N 16.0 mph25.7 kmh 29.33 in993.2 mb 0.00 in0.0 mm 0.00 in0.0 mm 0.00 in0.0 mm
06:14 PM 59.8°F15.4°C 52.9°F11.6°C 78% 14.0 mph N22.5 kmh N 16.0 mph25.7 kmh 29.33 in993.2 mb 0.00 in0.0 mm 0.00 in0.0 mm 0.00 in0.0 mm
06:15 PM 59.8°F15.4°C 53.3°F11.8°C 79% 13.2 mph N21.2 kmh N 15.0 mph24.1 kmh 29.34 in993.6 mb 0.00 in0.0 mm 0.00 in0.0 mm 0.00 in0.0 mm
06:16 PM 59.8°F15.4°C 53.3°F11.8°C 79% 13.1 mph N21.1 kmh N 15.0 mph24.1 kmh 29.34 in993.6 mb 0.00 in0.0 mm 0.00 in0.0 mm 0.00 in0.0 mm
06:17 PM 59.8°F15.4°C 53.3°F11.8°C 79% 11.3 mph N18.2 kmh N 14.0 mph22.5 kmh 29.34 in993.6 mb 0.00 in0.0 mm 0.00 in0.0 mm 0.00 in0.0 mm
06:18 PM 59.8°F15.4°C 54.0°F12.2°C 81% 12.2 mph NNW19.6 kmh NNW 14.0 mph22.5 kmh 29.34 in993.6 mb 0.00 in0.0 mm 0.00 in0.0 mm 0.00 in0.0 mm
06:19 PM 59.8°F15.4°C 54.3°F12.4°C 82% 11.4 mph NNW18.3 kmh NNW 14.0 mph22.5 kmh 29.34 in993.6 mb 0.00 in0.0 mm 0.00 in0.0 mm 0.00 in0.0 mm
06:20 PM 59.8°F15.4°C 54.0°F12.2°C 81% 13.5 mph NNW21.7 kmh NNW 14.0 mph22.5 kmh 29.34 in993.6 mb 0.00 in0.0 mm 0.00 in0.0 mm 0.00 in0.0 mm
06:21 PM 59.8°F15.4°C 54.0°F12.2°C 81% 14.4 mph NNW23.2 kmh NNW 16.0 mph25.7 kmh 29.34 in993.6 mb 0.00 in0.0 mm 0.00 in0.0 mm 0.00 in0.0 mm
06:22 PM 59.8°F15.4°C 54.0°F12.2°C 81% 12.7 mph NNW20.4 kmh NNW 16.0 mph25.7 kmh 29.34 in993.6 mb 0.00 in0.0 mm 0.00 in0.0 mm 0.00 in0.0 mm
06:23 PM 59.8°F15.4°C 54.6°F12.6°C 83% 11.8 mph NW19.0 kmh NW 14.0 mph22.5 kmh 29.34 in993.6 mb 0.00 in0.0 mm 0.00 in0.0 mm 0.00 in0.0 mm
06:24 PM 59.8°F15.4°C 54.0°F12.2°C 81% 13.3 mph NW21.4 kmh NW 14.0 mph22.5 kmh 29.34 in993.6 mb 0.00 in0.0 mm 0.00 in0.0 mm 0.00 in0.0 mm
06:25 PM 59.8°F15.4°C 54.0°F12.2°C 81% 12.8 mph NW20.6 kmh NW 14.0 mph22.5 kmh 29.34 in993.6 mb 0.00 in0.0 mm 0.00 in0.0 mm 0.00 in0.0 mm
06:26 PM 59.8°F15.4°C 54.3°F12.4°C 82% 12.6 mph NNW20.3 kmh NNW 14.0 mph22.5 kmh 29.34 in993.6 mb 0.00 in0.0 mm 0.00 in0.0 mm 0.00 in0.0 mm
06:27 PM 59.8°F15.4°C 54.3°F12.4°C 82% 11.0 mph NW17.7 kmh NW 14.0 mph22.5 kmh 29.34 in993.6 mb 0.00 in0.0 mm 0.00 in0.0 mm 0.00 in0.0 mm
06:28 PM 59.8°F15.4°C 54.6°F12.6°C 83% 10.6 mph NW17.1 kmh NW 12.0 mph19.3 kmh 29.34 in993.6 mb 0.00 in0.0 mm 0.00 in0.0 mm 0.00 in0.0 mm
06:29 PM 59.8°F15.4°C 54.0°F12.2°C 81% 11.5 mph NW18.5 kmh NW 12.0 mph19.3 kmh 29.34 in993.6 mb 0.00 in0.0 mm 0.00 in0.0 mm 0.00 in0.0 mm
06:30 PM 59.7°F15.4°C 54.2°F12.3°C 82% 11.8 mph NW19.0 kmh NW 13.0 mph20.9 kmh 29.34 in993.6 mb 0.00 in0.0 mm 0.00 in0.0 mm 0.00 in0.0 mm
06:31 PM 59.7°F15.4°C 54.2°F12.3°C 82% 9.0 mph NW14.5 kmh NW 13.0 mph20.9 kmh 29.34 in993.6 mb 0.00 in0.0 mm 0.00 in0.0 mm 0.00 in0.0 mm
06:32 PM 59.6°F15.3°C 54.1°F12.3°C 82% 9.5 mph NW15.3 kmh NW 11.0 mph17.7 kmh 29.34 in993.6 mb 0.00 in0.0 mm 0.00 in0.0 mm 0.00 in0.0 mm
06:33 PM 59.5°F15.3°C 53.7°F12.1°C 81% 9.4 mph NW15.1 kmh NW 12.0 mph19.3 kmh 29.34 in993.6 mb 0.00 in0.0 mm 0.00 in0.0 mm 0.00 in0.0 mm
06:34 PM 59.4°F15.2°C 53.2°F11.8°C 80% 10.3 mph NW16.6 kmh NW 12.0 mph19.3 kmh 29.35 in993.9 mb 0.00 in0.0 mm 0.00 in0.0 mm 0.00 in0.0 mm
06:35 PM 59.3°F15.2°C 53.1°F11.7°C 80% 9.8 mph NW15.8 kmh NW 12.0 mph19.3 kmh 29.35 in993.9 mb 0.00 in0.0 mm 0.00 in0.0 mm 0.00 in0.0 mm
06:36 PM 59.3°F15.2°C 53.8°F12.1°C 82% 9.3 mph NW15.0 kmh NW 11.0 mph17.7 kmh 29.35 in993.9 mb 0.00 in0.0 mm 0.00 in0.0 mm 0.00 in0.0 mm
06:37 PM 59.2°F15.1°C 53.4°F11.9°C 81% 10.3 mph NW16.6 kmh NW 12.0 mph19.3 kmh 29.35 in993.9 mb 0.00 in0.0 mm 0.00 in0.0 mm 0.00 in0.0 mm
06:38 PM 59.1°F15.1°C 52.9°F11.6°C 80% 10.1 mph NW16.3 kmh NW 12.0 mph19.3 kmh 29.35 in993.9 mb 0.00 in0.0 mm 0.00 in0.0 mm 0.00 in0.0 mm
06:39 PM 59.1°F15.1°C 53.3°F11.8°C 81% 8.4 mph WNW13.5 kmh WNW 12.0 mph19.3 kmh 29.35 in993.9 mb 0.00 in0.0 mm 0.00 in0.0 mm 0.00 in0.0 mm
06:40 PM 59.1°F15.1°C 53.3°F11.8°C 81% 7.6 mph NW12.2 kmh NW 11.0 mph17.7 kmh 29.35 in993.9 mb 0.00 in0.0 mm 0.00 in0.0 mm 0.00 in0.0 mm
06:41 PM 59.0°F15.0°C 53.5°F11.9°C 82% 5.6 mph WNW9.0 kmh WNW 9.0 mph14.5 kmh 29.35 in993.9 mb 0.00 in0.0 mm 0.00 in0.0 mm 0.00 in0.0 mm
06:42 PM 58.9°F14.9°C 53.1°F11.7°C 81% 7.0 mph WNW11.3 kmh WNW 9.0 mph14.5 kmh 29.35 in993.9 mb 0.00 in0.0 mm 0.00 in0.0 mm 0.00 in0.0 mm
06:43 PM 58.9°F14.9°C 53.1°F11.7°C 81% 6.9 mph WNW11.1 kmh WNW 9.0 mph14.5 kmh 29.35 in993.9 mb 0.00 in0.0 mm 0.00 in0.0 mm 0.00 in0.0 mm
06:44 PM 58.8°F14.9°C 53.3°F11.8°C 82% 6.8 mph WNW10.9 kmh WNW 9.0 mph14.5 kmh 29.35 in993.9 mb 0.00 in0.0 mm 0.00 in0.0 mm 0.00 in0.0 mm
06:45 PM 58.7°F14.8°C 53.2°F11.8°C 82% 7.7 mph NW12.4 kmh NW 9.0 mph14.5 kmh 29.35 in993.9 mb 0.00 in0.0 mm 0.00 in0.0 mm 0.00 in0.0 mm
06:46 PM 58.7°F14.8°C 53.5°F11.9°C 83% 8.5 mph NW13.7 kmh NW 10.0 mph16.1 kmh 29.35 in993.9 mb 0.00 in0.0 mm 0.00 in0.0 mm 0.00 in0.0 mm
06:47 PM 58.7°F14.8°C 53.2°F11.8°C 82% 8.6 mph NW13.8 kmh NW 10.0 mph16.1 kmh 29.35 in993.9 mb 0.00 in0.0 mm 0.00 in0.0 mm 0.00 in0.0 mm
06:48 PM 58.6°F14.8°C 53.1°F11.7°C 82% 7.9 mph WNW12.7 kmh WNW 10.0 mph16.1 kmh 29.35 in993.9 mb 0.00 in0.0 mm 0.00 in0.0 mm 0.00 in0.0 mm
06:49 PM 58.6°F14.8°C 53.1°F11.7°C 82% 7.3 mph W11.7 kmh W 9.0 mph14.5 kmh 29.35 in993.9 mb 0.00 in0.0 mm 0.00 in0.0 mm 0.00 in0.0 mm
06:50 PM 58.5°F14.7°C 53.4°F11.9°C 83% 6.3 mph WNW10.1 kmh WNW 8.0 mph12.9 kmh 29.35 in993.9 mb 0.00 in0.0 mm 0.00 in0.0 mm 0.00 in0.0 mm
06:51 PM 58.5°F14.7°C 53.4°F11.9°C 83% 7.1 mph WNW11.4 kmh WNW 9.0 mph14.5 kmh 29.35 in993.9 mb 0.00 in0.0 mm 0.00 in0.0 mm 0.00 in0.0 mm
06:52 PM 58.5°F14.7°C 53.0°F11.7°C 82% 7.6 mph WNW12.2 kmh WNW 9.0 mph14.5 kmh 29.35 in993.9 mb 0.00 in0.0 mm 0.00 in0.0 mm 0.00 in0.0 mm
06:53 PM 58.3°F14.6°C 53.2°F11.8°C 83% 7.1 mph W11.4 kmh W 8.0 mph12.9 kmh 29.35 in993.9 mb 0.00 in0.0 mm 0.00 in0.0 mm 0.00 in0.0 mm
06:54 PM 58.3°F14.6°C 53.2°F11.8°C 83% 7.4 mph WNW11.9 kmh WNW 9.0 mph14.5 kmh 29.35 in993.9 mb 0.00 in0.0 mm 0.00 in0.0 mm 0.00 in0.0 mm
06:55 PM 58.3°F14.6°C 53.5°F11.9°C 84% 6.9 mph WNW11.1 kmh WNW 9.0 mph14.5 kmh 29.36 in994.2 mb 0.00 in0.0 mm 0.00 in0.0 mm 0.00 in0.0 mm
06:56 PM 58.1°F14.5°C 53.3°F11.8°C 84% 7.5 mph WNW12.1 kmh WNW 8.0 mph12.9 kmh 29.36 in994.2 mb 0.00 in0.0 mm 0.00 in0.0 mm 0.00 in0.0 mm
06:57 PM 58.1°F14.5°C 53.3°F11.8°C 84% 7.0 mph WNW11.3 kmh WNW 8.0 mph12.9 kmh 29.36 in994.2 mb 0.00 in0.0 mm 0.00 in0.0 mm 0.00 in0.0 mm
06:58 PM 58.0°F14.4°C 53.2°F11.8°C 84% 6.9 mph WNW11.1 kmh WNW 8.0 mph12.9 kmh 29.36 in994.2 mb 0.00 in0.0 mm 0.00 in0.0 mm 0.00 in0.0 mm
06:59 PM 58.0°F14.4°C 53.2°F11.8°C 84% 6.2 mph WNW10.0 kmh WNW 8.0 mph12.9 kmh 29.36 in994.2 mb 0.00 in0.0 mm 0.00 in0.0 mm 0.00 in0.0 mm
07:00 PM 57.9°F14.4°C 53.1°F11.7°C 84% 6.2 mph WNW10.0 kmh WNW 7.0 mph11.3 kmh 29.36 in994.2 mb 0.00 in0.0 mm 0.00 in0.0 mm 0.00 in0.0 mm
07:01 PM 57.9°F14.4°C 53.4°F11.9°C 85% 5.5 mph WNW8.9 kmh WNW 8.0 mph12.9 kmh 29.36 in994.2 mb 0.00 in0.0 mm 0.00 in0.0 mm 0.00 in0.0 mm
07:02 PM 57.8°F14.3°C 53.3°F11.8°C 85% 7.6 mph WNW12.2 kmh WNW 9.0 mph14.5 kmh 29.36 in994.2 mb 0.00 in0.0 mm 0.00 in0.0 mm 0.00 in0.0 mm
07:03 PM 57.8°F14.3°C 53.3°F11.8°C 85% 7.5 mph WNW12.1 kmh WNW 9.0 mph14.5 kmh 29.36 in994.2 mb 0.00 in0.0 mm 0.00 in0.0 mm 0.00 in0.0 mm
07:04 PM 57.8°F14.3°C 53.3°F11.8°C 85% 7.2 mph WNW11.6 kmh WNW 9.0 mph14.5 kmh 29.36 in994.2 mb 0.00 in0.0 mm 0.00 in0.0 mm 0.00 in0.0 mm
07:05 PM 57.7°F14.3°C 53.2°F11.8°C 85% 6.6 mph WNW10.6 kmh WNW 9.0 mph14.5 kmh 29.36 in994.2 mb 0.00 in0.0 mm 0.00 in0.0 mm 0.00 in0.0 mm
07:06 PM 57.7°F14.3°C 53.2°F11.8°C 85% 7.4 mph WNW11.9 kmh WNW 9.0 mph14.5 kmh 29.36 in994.2 mb 0.00 in0.0 mm 0.00 in0.0 mm 0.00 in0.0 mm
07:07 PM 57.6°F14.2°C 53.1°F11.7°C 85% 6.8 mph WNW10.9 kmh WNW 9.0 mph14.5 kmh 29.36 in994.2 mb 0.00 in0.0 mm 0.00 in0.0 mm 0.00 in0.0 mm
07:08 PM 57.6°F14.2°C 53.4°F11.9°C 86% 6.6 mph WNW10.6 kmh WNW 9.0 mph14.5 kmh 29.36 in994.2 mb 0.00 in0.0 mm 0.00 in0.0 mm 0.00 in0.0 mm
07:09 PM 57.6°F14.2°C 53.4°F11.9°C 86% 6.1 mph WNW9.8 kmh WNW 8.0 mph12.9 kmh 29.36 in994.2 mb 0.00 in0.0 mm 0.00 in0.0 mm 0.00 in0.0 mm
07:10 PM 57.6°F14.2°C 53.4°F11.9°C 86% 6.2 mph WNW10.0 kmh WNW 8.0 mph12.9 kmh 29.36 in994.2 mb 0.00 in0.0 mm 0.00 in0.0 mm 0.00 in0.0 mm
07:11 PM 57.5°F14.2°C 53.3°F11.8°C 86% 6.5 mph WNW10.5 kmh WNW 8.0 mph12.9 kmh 29.36 in994.2 mb 0.00 in0.0 mm 0.00 in0.0 mm 0.00 in0.0 mm
07:12 PM 57.5°F14.2°C 53.3°F11.8°C 86% 6.5 mph WNW10.5 kmh WNW 8.0 mph12.9 kmh 29.36 in994.2 mb 0.00 in0.0 mm 0.00 in0.0 mm 0.00 in0.0 mm
07:13 PM 57.5°F14.2°C 53.3°F11.8°C 86% 7.0 mph WNW11.3 kmh WNW 8.0 mph12.9 kmh 29.36 in994.2 mb 0.00 in0.0 mm 0.00 in0.0 mm 0.00 in0.0 mm
07:14 PM 57.4°F14.1°C 53.2°F11.8°C 86% 7.0 mph WNW11.3 kmh WNW 8.0 mph12.9 kmh 29.36 in994.2 mb 0.00 in0.0 mm 0.00 in0.0 mm 0.00 in0.0 mm
07:15 PM 57.4°F14.1°C 53.2°F11.8°C 86% 7.0 mph WNW11.3 kmh WNW 7.0 mph11.3 kmh 29.36 in994.2 mb 0.00 in0.0 mm 0.00 in0.0 mm 0.00 in0.0 mm
07:16 PM 57.4°F14.1°C 53.2°F11.8°C 86% 6.3 mph WNW10.1 kmh WNW 8.0 mph12.9 kmh 29.36 in994.2 mb 0.00 in0.0 mm 0.00 in0.0 mm 0.00 in0.0 mm
07:17 PM 57.4°F14.1°C 53.2°F11.8°C 86% 6.1 mph WNW9.8 kmh WNW 9.0 mph14.5 kmh 29.36 in994.2 mb 0.00 in0.0 mm 0.00 in0.0 mm 0.00 in0.0 mm
07:18 PM 57.3°F14.1°C 53.1°F11.7°C 86% 7.5 mph WNW12.1 kmh WNW 9.0 mph14.5 kmh 29.36 in994.2 mb 0.00 in0.0 mm 0.00 in0.0 mm 0.00 in0.0 mm
07:19 PM 57.4°F14.1°C 53.2°F11.8°C 86% 6.3 mph W10.1 kmh W 9.0 mph14.5 kmh 29.36 in994.2 mb 0.00 in0.0 mm 0.00 in0.0 mm 0.00 in0.0 mm
07:20 PM 57.3°F14.1°C 53.1°F11.7°C 86% 5.5 mph W8.9 kmh W 8.0 mph12.9 kmh 29.36 in994.2 mb 0.00 in0.0 mm 0.00 in0.0 mm 0.00 in0.0 mm
07:21 PM 57.3°F14.1°C 53.1°F11.7°C 86% 5.7 mph W9.2 kmh W 8.0 mph12.9 kmh 29.36 in994.2 mb 0.00 in0.0 mm 0.00 in0.0 mm 0.00 in0.0 mm
07:22 PM 57.3°F14.1°C 53.1°F11.7°C 86% 6.1 mph W9.8 kmh W 7.0 mph11.3 kmh 29.36 in994.2 mb 0.00 in0.0 mm 0.00 in0.0 mm 0.00 in0.0 mm
07:23 PM 57.3°F14.1°C 53.1°F11.7°C 86% 6.2 mph W10.0 kmh W 7.0 mph11.3 kmh 29.36 in994.2 mb 0.00 in0.0 mm 0.00 in0.0 mm 0.00 in0.0 mm
07:24 PM 57.3°F14.1°C 53.1°F11.7°C 86% 6.2 mph W10.0 kmh W 8.0 mph12.9 kmh 29.36 in994.2 mb 0.00 in0.0 mm 0.00 in0.0 mm 0.00 in0.0 mm
07:25 PM 57.2°F14.0°C 53.0°F11.7°C 86% 6.9 mph W11.1 kmh W 8.0 mph12.9 kmh 29.36 in994.2 mb 0.00 in0.0 mm 0.00 in0.0 mm 0.00 in0.0 mm
07:26 PM 57.2°F14.0°C 53.0°F11.7°C 86% 5.7 mph W9.2 kmh W 8.0 mph12.9 kmh 29.36 in994.2 mb 0.00 in0.0 mm 0.00 in0.0 mm 0.00 in0.0 mm
07:27 PM 57.2°F14.0°C 53.0°F11.7°C 86% 6.6 mph W10.6 kmh W 8.0 mph12.9 kmh 29